Provisional Data: Little Chiques Creek near Mount Joy, PA


Please select a monitoring station.
Please select start date.
Please select start date.

Toggle Unit: C/F Toggle Unit: C/F
Sample Time Temperature (C) Temperature (F) Specific Conductivity (mS/cm) pH   Turbidity (NTU+) DO (mg/L)
2/8/2023 12:00:00 AM 4.98 40.964 0.395 7.85 2.47 12.01
2/8/2023 12:15:00 AM 4.98 40.964 0.395 7.85 2.39 11.99
2/8/2023 12:30:00 AM 4.98 40.964 0.391 7.84 2.35 11.98
2/8/2023 12:45:00 AM 4.98 40.964 0.395 7.84 2.45 11.96
2/8/2023 1:00:00 AM 4.97 40.946 0.395 7.84 2.55 11.95
2/8/2023 1:15:00 AM 4.96 40.928 0.395 7.83 2.49 11.94
2/8/2023 1:30:00 AM 4.95 40.91 0.395 7.83 2.65 11.93
2/8/2023 1:45:00 AM 4.94 40.892 0.395 7.83 2.65 11.92
2/8/2023 2:00:00 AM 4.94 40.892 0.395 7.83 2.63 11.91
2/8/2023 2:15:00 AM 4.94 40.892 0.395 7.83 2.65 11.9
2/8/2023 2:30:00 AM 4.94 40.892 0.395 7.83 2.61 11.89
2/8/2023 2:45:00 AM 4.93 40.874 0.395 7.83 2.49 11.88
2/8/2023 3:00:00 AM 4.93 40.874 0.395 7.82 2.53 11.87
2/8/2023 3:15:00 AM 4.92 40.856 0.395 7.83 3.21 11.86
2/8/2023 3:30:00 AM 4.91 40.838 0.395 7.82 2.5 11.86
2/8/2023 3:45:00 AM 4.89 40.802 0.394 7.82 2.54 11.86
2/8/2023 4:00:00 AM 4.87 40.766 0.394 7.82 2.63 11.85
2/8/2023 4:15:00 AM 4.84 40.712 0.394 7.82 2.7 11.85
2/8/2023 4:30:00 AM 4.82 40.676 0.394 7.81 2.82 11.85
2/8/2023 4:45:00 AM 4.78 40.604 0.394 7.81 3.22 11.85
2/8/2023 5:00:00 AM 4.75 40.55 0.394 7.81 2.75 11.85
2/8/2023 5:15:00 AM 4.72 40.496 0.395 7.81 2.74 11.85
2/8/2023 5:30:00 AM 4.69 40.442 0.394 7.81 2.79 11.86
2/8/2023 5:45:00 AM 4.67 40.406 0.395 7.81 2.79 11.86
2/8/2023 6:00:00 AM 4.65 40.37 0.395 7.81 2.65 11.86
2/8/2023 6:15:00 AM 4.64 40.352 0.394 7.81 2.52 11.87
2/8/2023 6:30:00 AM 4.63 40.334 0.394 7.81 2.54 11.87
2/8/2023 6:45:00 AM 4.63 40.334 0.394 7.81 2.63 11.87
2/8/2023 7:00:00 AM 4.63 40.334 0.395 7.81 2.53 11.87
2/8/2023 7:15:00 AM 4.61 40.298 0.395 7.81 2.41 11.88
2/8/2023 7:30:00 AM 4.61 40.298 0.395 7.81 2.51 11.92
2/8/2023 7:45:00 AM 4.59 40.262 0.395 7.82 2.43 11.99
2/8/2023 8:00:00 AM 4.59 40.262 0.395 7.83 2.4 12.11
2/8/2023 8:15:00 AM 4.6 40.28 0.395 7.84 2.37 12.27
2/8/2023 8:30:00 AM 4.61 40.298 0.395 7.85 2.23 12.4
2/8/2023 8:45:00 AM 4.62 40.316 0.395 7.87 2.08 12.58
2/8/2023 9:00:00 AM 4.66 40.388 0.395 7.89 5.97 12.78
2/8/2023 9:15:00 AM 4.72 40.496 0.395 7.91 2.08 12.94
2/8/2023 9:30:00 AM 4.8 40.64 0.395 7.94 2.06 13.11
2/8/2023 9:45:00 AM 4.89 40.802 0.395 7.96 1.87 13.26
2/8/2023 10:00:00 AM 5 41 0.395 7.98 1.96 13.4
2/8/2023 10:15:00 AM 5.12 41.216 0.395 8 1.89 13.52
2/8/2023 10:30:00 AM 5.25 41.45 0.395 8.02 7.03 13.62
2/8/2023 10:45:00 AM 5.38 41.684 0.395 8.04 1.87 13.72
2/8/2023 11:00:00 AM 5.51 41.918 0.395 8.06 1.79 13.8
2/8/2023 11:15:00 AM 5.62 42.116 0.394 8.08 2 13.89
2/8/2023 11:30:00 AM 5.76 42.368 0.394 8.1 1.93 13.97
2/8/2023 11:45:00 AM 5.88 42.584 0.394 8.12 1.87 14.03
2/8/2023 12:00:00 PM 6.01 42.818 0.393 8.13 1.86 14.08
2/8/2023 12:15:00 PM 6.13 43.034 0.393 8.15 1.88 14.13
2/8/2023 12:30:00 PM 6.24 43.232 0.393 8.17 1.85 14.19
2/8/2023 12:45:00 PM 6.35 43.43 0.392 8.19 1.84 14.22
2/8/2023 1:00:00 PM 6.45 43.61 0.392 8.2 1.84 14.25
2/8/2023 1:15:00 PM 6.54 43.772 0.392 8.21 1.88 14.26
2/8/2023 1:30:00 PM 6.63 43.934 0.392 8.22 2.02 14.26
2/8/2023 1:45:00 PM 6.7 44.06 0.392 8.23 1.7 14.25
2/8/2023 2:00:00 PM 6.76 44.168 0.392 8.24 3.7 14.24
2/8/2023 2:15:00 PM 6.82 44.276 0.392 8.24 1.79 14.23
2/8/2023 2:30:00 PM 6.85 44.33 0.392 8.25 1.73 14.19
2/8/2023 2:45:00 PM 6.89 44.402 0.392 8.25 1.94 14.17
2/8/2023 3:00:00 PM 6.92 44.456 0.392 8.25 1.79 14.14
2/8/2023 3:15:00 PM 6.94 44.492 0.392 8.25 1.98 14.1
2/8/2023 3:30:00 PM 6.97 44.546 0.392 8.25 1.82 14.06
2/8/2023 3:45:00 PM 6.98 44.564 0.392 8.25 1.94 14
2/8/2023 4:00:00 PM 6.98 44.564 0.392 8.24 1.91 13.89
2/8/2023 4:15:00 PM 6.98 44.564 0.392 8.22 3.26 13.77
2/8/2023 4:30:00 PM 6.98 44.564 0.392 8.2 2.13 13.65
2/8/2023 4:45:00 PM 6.98 44.564 0.392 8.18 2.2 13.5
2/8/2023 5:00:00 PM 6.98 44.564 0.392 8.16 2.14 13.32
2/8/2023 5:15:00 PM 6.97 44.546 0.393 8.13 2.32 13.13
2/8/2023 5:30:00 PM 6.96 44.528 0.393 8.1 2.37 12.93
2/8/2023 5:45:00 PM 6.94 44.492 0.393 8.07 2.34 12.74
2/8/2023 6:00:00 PM 6.92 44.456 0.393 8.04 2.31 12.55
2/8/2023 6:15:00 PM 6.89 44.402 0.393 8.02 2.31 12.4
2/8/2023 6:30:00 PM 6.86 44.348 0.393 8 3.45 12.27
2/8/2023 6:45:00 PM 6.82 44.276 0.393 7.99 2.58 12.17
2/8/2023 7:00:00 PM 6.79 44.222 0.393 7.98 2.5 12.12
2/8/2023 7:15:00 PM 6.75 44.15 0.393 7.97 2.56 12.07
2/8/2023 7:30:00 PM 6.71 44.078 0.393 7.96 2.6 12.03
2/8/2023 7:45:00 PM 6.66 43.988 0.393 7.96 2.41 11.99
2/8/2023 8:00:00 PM 6.61 43.898 0.393 7.95 2.48 11.95
2/8/2023 8:15:00 PM 6.56 43.808 0.393 7.95 2.55 11.91
2/8/2023 8:30:00 PM 6.52 43.736 0.393 7.94 2.53 11.87
2/8/2023 8:45:00 PM 6.47 43.646 0.393 7.93 2.6 11.84
2/8/2023 9:00:00 PM 6.43 43.574 0.394 7.92 2.56 11.8
2/8/2023 9:15:00 PM 6.39 43.502 0.393 7.92 2.71 11.76
2/8/2023 9:30:00 PM 6.35 43.43 0.393 7.91 2.65 11.73
2/8/2023 9:45:00 PM 6.31 43.358 0.394 7.9 2.87 11.69
2/8/2023 10:00:00 PM 6.27 43.286 0.394 7.9 2.79 11.66
2/8/2023 10:15:00 PM 6.24 43.232 0.394 7.89 2.88 11.64
2/8/2023 10:30:00 PM 6.2 43.16 0.394 7.89 2.94 11.62
2/8/2023 10:45:00 PM 6.15 43.07 0.394 7.88 2.88 11.6
2/8/2023 11:00:00 PM 6.11 42.998 0.394 7.88 2.84 11.59
2/8/2023 11:15:00 PM 6.06 42.908 0.394 7.88 2.86 11.58
2/8/2023 11:30:00 PM 6.02 42.836 0.394 7.87 2.78 11.57
2/8/2023 11:45:00 PM 5.97 42.746 0.394 7.87 3 11.57
2/9/2023 12:00:00 AM 5.92 42.656 0.394 7.86 3.11 11.57
2/9/2023 12:15:00 AM 5.87 42.566 0.394 7.86 3.17 11.57
2/9/2023 12:30:00 AM 5.82 42.476 0.394 7.86 3.08 11.57
2/9/2023 12:45:00 AM 5.77 42.386 0.394 7.85 4.66 11.57
2/9/2023 1:00:00 AM 5.73 42.314 0.394 7.85 4.79 11.56
2/9/2023 1:15:00 AM 5.7 42.26 0.394 7.85 3.3 11.56
2/9/2023 1:30:00 AM 5.67 42.206 0.394 7.85 4.22 11.56
2/9/2023 1:45:00 AM 5.66 42.188 0.394 7.85 5.11 11.56
2/9/2023 2:00:00 AM 5.65 42.17 0.394 7.84 9.79 11.56
2/9/2023 2:15:00 AM 5.65 42.17 0.394 7.84 6.46 11.56
2/9/2023 2:30:00 AM 5.64 42.152 0.394 7.84 8.52 11.56
2/9/2023 2:45:00 AM 5.62 42.116 0.394 7.83 5.29 11.56
2/9/2023 3:00:00 AM 5.61 42.098 0.395 7.83 8.67 11.55
2/9/2023 3:15:00 AM 5.6 42.08 0.395 7.83 5.77 11.56
2/9/2023 3:30:00 AM 5.58 42.044 0.395 7.83 7.54 11.56
2/9/2023 3:45:00 AM 5.56 42.008 0.395 7.83 7.7 11.56
2/9/2023 4:00:00 AM 5.54 41.972 0.395 7.82 6.58 11.56
2/9/2023 4:15:00 AM 5.53 41.954 0.396 7.82 6.82 11.56
2/9/2023 4:30:00 AM 5.52 41.936 0.396 7.82 10.56 11.56
2/9/2023 4:45:00 AM 5.51 41.918 0.396 7.82 5.32 11.56
2/9/2023 5:00:00 AM 5.51 41.918 0.396 7.82 10.05 11.56
2/9/2023 5:15:00 AM 5.51 41.918 0.396 7.82 7.29 11.56
2/9/2023 5:30:00 AM 5.51 41.918 0.396 7.81 6.44 11.56
2/9/2023 5:45:00 AM 5.51 41.918 0.396 7.81 4.69 11.56
2/9/2023 6:00:00 AM 5.51 41.918 0.396 7.81 6.22 11.55
2/9/2023 6:15:00 AM 5.51 41.918 0.396 7.81 7.82 11.56
2/9/2023 6:30:00 AM 5.51 41.918 0.396 7.81 3.45 11.55
2/9/2023 6:45:00 AM 5.51 41.918 0.396 7.81 5.4 11.55
2/9/2023 7:00:00 AM 5.51 41.918 0.396 7.81 8.32 11.55
2/9/2023 7:15:00 AM 5.52 41.936 0.396 7.81 7.6 11.56
2/9/2023 7:30:00 AM 5.52 41.936 0.396 7.81 8.07 11.57
2/9/2023 7:45:00 AM 5.53 41.954 0.396 7.81 7.19 11.6
2/9/2023 8:00:00 AM 5.53 41.954 0.396 7.82 21.2 11.64
2/9/2023 8:15:00 AM 5.54 41.972 0.396 7.82 2.56 11.71
2/9/2023 8:30:00 AM 5.55 41.99 0.396 7.83 2.09 11.8
2/9/2023 8:45:00 AM 5.57 42.026 0.396 7.84 5.12 11.88
2/9/2023 9:00:00 AM 5.59 42.062 0.395 7.85 2.17 12.02
2/9/2023 9:15:00 AM 5.61 42.098 0.395 7.86 2.53 12.14
2/9/2023 9:30:00 AM 5.64 42.152 0.395 7.88 2.56 12.28
2/9/2023 9:45:00 AM 5.69 42.242 0.395 7.9 1.87 12.48
2/9/2023 10:00:00 AM 5.73 42.314 0.395 7.92 1.86 12.6
2/9/2023 10:15:00 AM 5.78 42.404 0.395 7.95 1.74 12.8
2/9/2023 10:30:00 AM 5.85 42.53 0.395 7.97 1.74 13.02
2/9/2023 10:45:00 AM 5.92 42.656 0.395 8 1.76 13.18
2/9/2023 11:00:00 AM 6.04 42.872 0.394 8.04 1.78 13.42
2/9/2023 11:15:00 AM 6.09 42.962 0.394 8.06 1.71 13.51
2/9/2023 11:30:00 AM 6.16 43.088 0.394 8.08 1.76 13.58
2/9/2023 11:45:00 AM 6.21 43.178 0.394 8.1 1.62 13.66
2/9/2023 12:00:00 PM 6.31 43.358 0.394 8.13 1.73 13.77
2/9/2023 12:15:00 PM 6.4 43.52 0.394 8.15 3.69 13.86
2/9/2023 12:30:00 PM 6.48 43.664 0.393 8.17 1.83 13.89
2/9/2023 12:45:00 PM 6.59 43.862 0.393 8.19 1.68 14.02
2/9/2023 1:00:00 PM 6.71 44.078 0.393 8.22 1.77 14.13
2/9/2023 1:15:00 PM 6.79 44.222 0.393 8.24 1.8 14.18
2/9/2023 1:30:00 PM 6.88 44.384 0.393 8.26 1.66 14.23
2/9/2023 1:45:00 PM 6.94 44.492 0.393 8.28 1.59 14.27
2/9/2023 2:00:00 PM 7 44.6 0.392 8.3 1.55 14.29
2/9/2023 2:15:00 PM 7.12 44.816 0.392 8.32 1.67 14.36
2/9/2023 2:30:00 PM 7.2 44.96 0.392 8.33 1.67 14.36
2/9/2023 2:45:00 PM 7.28 45.104 0.392 8.34 1.71 14.34
2/9/2023 3:00:00 PM 7.33 45.194 0.392 8.33 1.66 14.24
2/9/2023 3:15:00 PM 7.38 45.284 0.392 8.34 1.9 14.2
2/9/2023 3:30:00 PM 7.44 45.392 0.391 8.34 2.07 14.17
2/9/2023 3:45:00 PM 7.48 45.464 0.391 8.34 1.66 14.09
2/9/2023 4:00:00 PM 7.51 45.518 0.391 8.32 1.56 13.97
2/9/2023 4:15:00 PM 7.54 45.572 0.392 8.3 3.13 13.85
2/9/2023 4:30:00 PM 7.56 45.608 0.391 8.28 1.89 13.72
2/9/2023 4:45:00 PM 7.59 45.662 0.392 8.26 1.71 13.55
2/9/2023 5:00:00 PM 7.61 45.698 0.392 8.23 7.17 13.33
2/9/2023 5:15:00 PM 7.64 45.752 0.392 8.19 1.62 13.11
2/9/2023 5:30:00 PM 7.66 45.788 0.392 8.15 1.55 12.86
2/9/2023 5:45:00 PM 7.68 45.824 0.392 8.12 1.63 12.62
2/9/2023 6:00:00 PM 7.7 45.86 0.392 8.08 1.62 12.41
2/9/2023 6:15:00 PM 7.72 45.896 0.392 8.06 1.99 12.22
2/9/2023 6:30:00 PM 7.73 45.914 0.392 8.04 1.79 12.08
2/9/2023 6:45:00 PM 7.75 45.95 0.392 8.03 1.85 11.97
2/9/2023 7:00:00 PM 7.77 45.986 0.393 8.01 1.78 11.89
2/9/2023 7:15:00 PM 7.8 46.04 0.393 8.01 1.89 11.82
2/9/2023 7:30:00 PM 7.82 46.076 0.392 8 1.92 11.76
2/9/2023 7:45:00 PM 7.85 46.13 0.393 7.99 1.94 11.7
2/9/2023 8:00:00 PM 7.87 46.166 0.393 7.98 1.94 11.63
2/9/2023 8:15:00 PM 7.9 46.22 0.393 7.98 2.22 11.57
2/9/2023 8:30:00 PM 7.91 46.238 0.393 7.97 2.09 11.51
2/9/2023 8:45:00 PM 7.92 46.256 0.393 7.96 2.16 11.44
2/9/2023 9:00:00 PM 7.91 46.238 0.393 7.95 2.3 11.38
2/9/2023 9:15:00 PM 7.9 46.22 0.393 7.94 2.27 11.33
2/9/2023 9:30:00 PM 7.88 46.184 0.393 7.94 2.31 11.27
2/9/2023 9:45:00 PM 7.87 46.166 0.393 7.93 2.27 11.22
2/9/2023 10:00:00 PM 7.85 46.13 0.393 7.92 2.38 11.18
2/9/2023 10:15:00 PM 7.84 46.112 0.393 7.91 2.25 11.14
2/9/2023 10:30:00 PM 7.84 46.112 0.393 7.91 2.23 11.1
2/9/2023 10:45:00 PM 7.84 46.112 0.393 7.9 2.27 11.05
2/9/2023 11:00:00 PM 7.83 46.094 0.393 7.9 2.23 11.02
2/9/2023 11:15:00 PM 7.83 46.094 0.393 7.89 2.28 10.99
2/9/2023 11:30:00 PM 7.83 46.094 0.393 7.88 2.42 10.96
2/9/2023 11:45:00 PM 7.83 46.094 0.393 7.88 2.52 10.93
2/10/2023 12:00:00 AM 7.82 46.076 0.393 7.88 2.32 10.91
2/10/2023 12:15:00 AM 7.81 46.058 0.393 7.87 2.34 10.89
2/10/2023 12:30:00 AM 7.8 46.04 0.393 7.87 2.21 10.87
2/10/2023 12:45:00 AM 7.79 46.022 0.393 7.86 2.28 10.85
2/10/2023 1:00:00 AM 7.78 46.004 0.393 7.86 2.4 10.83
2/10/2023 1:15:00 AM 7.77 45.986 0.393 7.85 2.35 10.81
2/10/2023 1:30:00 AM 7.76 45.968 0.393 7.85 2.37 10.8
2/10/2023 1:45:00 AM 7.74 45.932 0.393 7.85 2.59 10.79
2/10/2023 2:00:00 AM 7.73 45.914 0.393 7.85 2.22 10.78
2/10/2023 2:15:00 AM 7.72 45.896 0.393 7.84 2.26 10.76
2/10/2023 2:30:00 AM 7.71 45.878 0.393 7.84 2.28 10.76
2/10/2023 2:45:00 AM 7.69 45.842 0.393 7.84 2.24 10.75
2/10/2023 3:00:00 AM 7.67 45.806 0.393 7.84 2.19 10.75
2/10/2023 3:15:00 AM 7.65 45.77 0.393 7.84 2.24 10.74
2/10/2023 3:30:00 AM 7.63 45.734 0.393 7.83 2.15 10.73
2/10/2023 3:45:00 AM 7.6 45.68 0.393 7.83 2.24 10.73
2/10/2023 4:00:00 AM 7.56 45.608 0.393 7.83 2.25 10.73
2/10/2023 4:15:00 AM 7.53 45.554 0.394 7.83 2.23 10.73
2/10/2023 4:30:00 AM 7.5 45.5 0.394 7.83 2.22 10.73
2/10/2023 4:45:00 AM 7.48 45.464 0.394 7.83 2.34 10.73
2/10/2023 5:00:00 AM 7.48 45.464 0.394 7.83 2.24 10.72
2/10/2023 5:15:00 AM 7.5 45.5 0.395 7.83 2.2 10.72
2/10/2023 5:30:00 AM 7.49 45.482 0.395 7.82 2.46 10.72
2/10/2023 5:45:00 AM 7.49 45.482 0.395 7.82 2.43 10.72
2/10/2023 6:00:00 AM 7.48 45.464 0.394 7.83 2.37 10.72
2/10/2023 6:15:00 AM 7.47 45.446 0.395 7.82 2.19 10.72
2/10/2023 6:30:00 AM 7.45 45.41 0.395 7.82 2.18 10.72
2/10/2023 6:45:00 AM 7.43 45.374 0.395 7.82 2.36 10.73
2/10/2023 7:00:00 AM 7.4 45.32 0.394 7.82 2.45 10.74
2/10/2023 7:15:00 AM 7.38 45.284 0.394 7.82 3.14 10.76
2/10/2023 7:30:00 AM 7.35 45.23 0.394 7.83 2.44 10.81
2/10/2023 7:45:00 AM 7.34 45.212 0.394 7.84 2.39 10.89
2/10/2023 8:00:00 AM 7.34 45.212 0.394 7.85 2.34 11.02
2/10/2023 8:15:00 AM 7.35 45.23 0.394 7.86 2.24 11.2
2/10/2023 8:30:00 AM 7.37 45.266 0.394 7.88 2.19 11.39
2/10/2023 8:45:00 AM 7.4 45.32 0.393 7.91 2.31 11.6
2/10/2023 9:00:00 AM 7.45 45.41 0.393 7.94 2.31 11.85
2/10/2023 9:15:00 AM 7.49 45.482 0.393 7.97 2.08 12.09
2/10/2023 9:30:00 AM 7.55 45.59 0.392 8 2.06 12.31
2/10/2023 9:45:00 AM 7.59 45.662 0.392 8.03 1.94 12.52
2/10/2023 10:00:00 AM 7.67 45.806 0.392 8.07 2.01 12.72
2/10/2023 10:15:00 AM 7.74 45.932 0.392 8.1 1.93 12.88
2/10/2023 10:30:00 AM 7.83 46.094 0.392 8.13 1.96 13.02
2/10/2023 10:45:00 AM 7.95 46.31 0.392 8.16 1.78 13.17
2/10/2023 11:00:00 AM 8.05 46.49 0.392 8.19 1.83 13.3
2/10/2023 11:15:00 AM 8.16 46.688 0.391 8.22 1.81 13.44
2/10/2023 11:30:00 AM 8.28 46.904 0.391 8.25 1.72 13.54
2/10/2023 11:45:00 AM 8.4 47.12 0.391 8.28 5.01 13.63
2/10/2023 12:00:00 PM 8.52 47.336 0.391 8.31 1.75 13.72
2/10/2023 12:15:00 PM 8.67 47.606 0.391 8.34 1.64 13.83
2/10/2023 12:30:00 PM 8.8 47.84 0.391 8.37 1.73 13.91
2/10/2023 12:45:00 PM 8.92 48.056 0.39 8.4 1.83 14
2/10/2023 1:00:00 PM 8.99 48.182 0.39 8.42 1.66 14.04
2/10/2023 1:15:00 PM 9.06 48.308 0.39 8.44 1.62 14.07
2/10/2023 1:30:00 PM 9.09 48.362 0.39 8.45 1.97 14.07
2/10/2023 1:45:00 PM 9.1 48.38 0.39 8.46 1.97 14.06
2/10/2023 2:00:00 PM 9.12 48.416 0.39 8.47 1.97 14.06
2/10/2023 2:15:00 PM 9.09 48.362 0.39 8.47 1.52 14.02
2/10/2023 2:30:00 PM 9.07 48.326 0.391 8.47 1.55 14.01
2/10/2023 2:45:00 PM 9.1 48.38 0.39 8.48 1.54 14.01
2/10/2023 3:00:00 PM 9.09 48.362 0.39 8.49 1.59 13.98
2/10/2023 3:15:00 PM 9.09 48.362 0.39 8.49 1.69 13.97
2/10/2023 3:30:00 PM 9.08 48.344 0.39 8.49 1.61 13.93
2/10/2023 3:45:00 PM 9.08 48.344 0.39 8.49 1.5 13.88
2/10/2023 4:00:00 PM 9.1 48.38 0.39 8.49 1.64 13.84
2/10/2023 4:15:00 PM 9.12 48.416 0.39 8.49 1.65 13.8
2/10/2023 4:30:00 PM 9.1 48.38 0.39 8.46 1.73 13.64
2/10/2023 4:45:00 PM 9.04 48.272 0.391 8.42 1.67 13.4
2/10/2023 5:00:00 PM 8.98 48.164 0.391 8.38 2.85 13.13
2/10/2023 5:15:00 PM 8.93 48.074 0.392 8.32 2.99 12.84
2/10/2023 5:30:00 PM 8.86 47.948 0.392 8.27 2.66 12.56
2/10/2023 5:45:00 PM 8.81 47.858 0.393 8.22 2.44 12.31
2/10/2023 6:00:00 PM 8.78 47.804 0.393 8.17 2.39 12.07
2/10/2023 6:15:00 PM 8.75 47.75 0.393 8.14 2.89 11.88
2/10/2023 6:30:00 PM 8.75 47.75 0.394 8.11 3.24 11.72
2/10/2023 6:45:00 PM 8.74 47.732 0.394 8.09 3.08 11.61
2/10/2023 7:00:00 PM 8.73 47.714 0.394 8.07 3.21 11.52
2/10/2023 7:15:00 PM 8.72 47.696 0.394 8.06 2.95 11.47
2/10/2023 7:30:00 PM 8.71 47.678 0.394 8.05 2.81 11.41
2/10/2023 7:45:00 PM 8.69 47.642 0.394 8.04 3.39 11.37
2/10/2023 8:00:00 PM 8.66 47.588 0.394 8.03 3.53 11.33
2/10/2023 8:15:00 PM 8.61 47.498 0.394 8.02 2.81 11.29
2/10/2023 8:30:00 PM 8.55 47.39 0.394 8.02 2.59 11.25
2/10/2023 8:45:00 PM 8.49 47.282 0.394 8.01 3.14 11.2
2/10/2023 9:00:00 PM 8.43 47.174 0.394 7.99 2.48 11.15
2/10/2023 9:15:00 PM 8.38 47.084 0.395 7.99 2.93 11.11
2/10/2023 9:30:00 PM 8.33 46.994 0.395 7.98 3.03 11.07
2/10/2023 9:45:00 PM 8.28 46.904 0.395 7.97 14.94 11.04
2/10/2023 10:00:00 PM 8.23 46.814 0.395 7.96 2.14 10.99
2/10/2023 10:15:00 PM 8.18 46.724 0.396 7.95 2.04 10.96
2/10/2023 10:30:00 PM 8.14 46.652 0.396 7.94 2.06 10.93
2/10/2023 10:45:00 PM 8.11 46.598 0.396 7.93 2.06 10.9
2/10/2023 11:00:00 PM 8.07 46.526 0.397 7.93 2.03 10.87
2/10/2023 11:15:00 PM 8.03 46.454 0.397 7.92 2.61 10.85
2/10/2023 11:30:00 PM 7.98 46.364 0.397 7.92 2.13 10.83
2/10/2023 11:45:00 PM 7.94 46.292 0.397 7.91 2.26 10.81
2/11/2023 12:00:00 AM 7.89 46.202 0.397 7.91 2.22 10.8
2/11/2023 12:15:00 AM 7.84 46.112 0.397 7.9 2.3 10.8
2/11/2023 12:30:00 AM 7.78 46.004 0.397 7.9 2.21 10.8
2/11/2023 12:45:00 AM 7.73 45.914 0.397 7.89 2.17 10.79
2/11/2023 1:00:00 AM 7.67 45.806 0.397 7.89 2.3 10.79
2/11/2023 1:15:00 AM 7.62 45.716 0.397 7.89 2.33 10.79
2/11/2023 1:30:00 AM 7.56 45.608 0.397 7.88 2.29 10.79
2/11/2023 1:45:00 AM 7.51 45.518 0.397 7.88 2.3 10.79
2/11/2023 2:00:00 AM 7.46 45.428 0.397 7.88 2.24 10.79
2/11/2023 2:15:00 AM 7.41 45.338 0.397 7.87 2.13 10.79
2/11/2023 2:30:00 AM 7.35 45.23 0.397 7.87 2.18 10.8
2/11/2023 2:45:00 AM 7.3 45.14 0.397 7.87 2.28 10.81
2/11/2023 3:00:00 AM 7.24 45.032 0.397 7.87 2.57 10.82
2/11/2023 3:15:00 AM 7.18 44.924 0.397 7.86 2.69 10.83
2/11/2023 3:30:00 AM 7.14 44.852 0.397 7.86 2.41 10.84
2/11/2023 3:45:00 AM 7.1 44.78 0.397 7.86 2.4 10.85
2/11/2023 4:00:00 AM 7.07 44.726 0.397 7.86 2.32 10.85
2/11/2023 4:15:00 AM 7.05 44.69 0.397 7.86 2.2 10.86
2/11/2023 4:30:00 AM 7.03 44.654 0.397 7.86 2.57 10.86
2/11/2023 4:45:00 AM 6.99 44.582 0.397 7.85 3.27 10.86
2/11/2023 5:00:00 AM 6.94 44.492 0.397 7.85 2.29 10.88
2/11/2023 5:15:00 AM 6.88 44.384 0.397 7.85 2.4 10.88
2/11/2023 5:30:00 AM 6.82 44.276 0.397 7.85 2.35 10.9
2/11/2023 5:45:00 AM 6.76 44.168 0.398 7.84 2.34 10.91
2/11/2023 6:00:00 AM 6.68 44.024 0.398 7.84 2.45 10.92
2/11/2023 6:15:00 AM 6.61 43.898 0.398 7.84 2.32 10.94
2/11/2023 6:30:00 AM 6.54 43.772 0.398 7.84 2.2 10.96
2/11/2023 6:45:00 AM 6.48 43.664 0.398 7.84 3.59 10.99
2/11/2023 7:00:00 AM 6.43 43.574 0.398 7.84 3.6 11.01
2/11/2023 7:15:00 AM 6.39 43.502 0.398 7.84 2.38 11.04
2/11/2023 7:30:00 AM 6.35 43.43 0.398 7.85 2.98 11.1
2/11/2023 7:45:00 AM 6.31 43.358 0.398 7.85 2.65 11.2
2/11/2023 8:00:00 AM 6.3 43.34 0.398 7.87 3.41 11.31
2/11/2023 8:15:00 AM 6.28 43.304 0.398 7.89 3.35 11.55
2/11/2023 8:30:00 AM 6.27 43.286 0.398 7.91 3.27 11.76
2/11/2023 8:45:00 AM 6.26 43.268 0.398 7.94 2.26 12.01
2/11/2023 9:00:00 AM 6.27 43.286 0.398 7.97 2.13 12.27
2/11/2023 9:15:00 AM 6.3 43.34 0.397 8 2.06 12.52
2/11/2023 9:30:00 AM 6.33 43.394 0.397 8.03 1.98 12.76
2/11/2023 9:45:00 AM 6.38 43.484 0.397 8.06 1.9 12.97
2/11/2023 10:00:00 AM 6.44 43.592 0.397 8.1 1.91 13.18
2/11/2023 10:15:00 AM 6.51 43.718 0.397 8.13 1.8 13.41
2/11/2023 10:30:00 AM 6.61 43.898 0.397 8.17 8.18 13.56
2/11/2023 10:45:00 AM 6.7 44.06 0.397 8.19 1.93 13.71
2/11/2023 11:00:00 AM 6.8 44.24 0.396 8.22 1.84 13.85
2/11/2023 11:15:00 AM 6.9 44.42 0.396 8.24 1.86 13.97
2/11/2023 11:30:00 AM 7.01 44.618 0.396 8.27 1.92 14.09
2/11/2023 11:45:00 AM 7.11 44.798 0.396 8.29 2.1 14.18
2/11/2023 12:00:00 PM 7.21 44.978 0.396 8.32 1.6 14.26
2/11/2023 12:15:00 PM 7.3 45.14 0.396 8.34 1.57 14.31
2/11/2023 12:30:00 PM 7.39 45.302 0.395 8.36 1.72 14.41
2/11/2023 12:45:00 PM 7.49 45.482 0.395 8.39 9.43 14.47
2/11/2023 1:00:00 PM 7.56 45.608 0.395 8.41 2.34 14.52
2/11/2023 1:15:00 PM 7.63 45.734 0.395 8.42 1.94 14.58
2/11/2023 1:30:00 PM 7.68 45.824 0.395 8.43 1.84 14.6
2/11/2023 1:45:00 PM 7.71 45.878 0.395 8.45 1.62 14.6
2/11/2023 2:00:00 PM 7.72 45.896 0.395 8.45 1.73 14.59
2/11/2023 2:15:00 PM 7.72 45.896 0.395 8.47 1.51 14.59
2/11/2023 2:30:00 PM 7.68 45.824 0.395 8.47 1.56 14.57
2/11/2023 2:45:00 PM 7.68 45.824 0.395 8.48 1.54 14.58
2/11/2023 3:00:00 PM 7.68 45.824 0.395 8.49 1.5 14.59
2/11/2023 3:15:00 PM 7.64 45.752 0.395 8.49 1.43 14.56
2/11/2023 3:30:00 PM 7.63 45.734 0.395 8.5 1.4 14.54
2/11/2023 3:45:00 PM 7.6 45.68 0.395 8.49 12.61 14.43
2/11/2023 4:00:00 PM 7.59 45.662 0.395 8.48 10.35 14.39
2/11/2023 4:15:00 PM 7.56 45.608 0.395 8.47 1.56 14.29
2/11/2023 4:30:00 PM 7.54 45.572 0.395 8.45 8.87 14.16
2/11/2023 4:45:00 PM 7.52 45.536 0.396 8.43 10.14 14
2/11/2023 5:00:00 PM 7.5 45.5 0.396 8.39 1.51 13.8
2/11/2023 5:15:00 PM 7.47 45.446 0.396 8.34 1.58 13.56
2/11/2023 5:30:00 PM 7.44 45.392 0.397 8.3 1.62 13.28
2/11/2023 5:45:00 PM 7.39 45.302 0.397 8.25 1.67 13.02
2/11/2023 6:00:00 PM 7.35 45.23 0.398 8.2 1.69 12.76
2/11/2023 6:15:00 PM 7.31 45.158 0.398 8.16 1.67 12.54
2/11/2023 6:30:00 PM 7.26 45.068 0.398 8.13 1.73 12.37
2/11/2023 6:45:00 PM 7.21 44.978 0.398 8.11 1.77 12.23
2/11/2023 7:00:00 PM 7.16 44.888 0.399 8.09 1.79 12.14
2/11/2023 7:15:00 PM 7.12 44.816 0.398 8.08 1.75 12.08
2/11/2023 7:30:00 PM 7.07 44.726 0.399 8.07 1.74 12.04
2/11/2023 7:45:00 PM 7.03 44.654 0.399 8.06 1.76 12
2/11/2023 8:00:00 PM 6.99 44.582 0.399 8.05 2.19 11.96
2/11/2023 8:15:00 PM 6.94 44.492 0.399 8.04 1.7 11.92
2/11/2023 8:30:00 PM 6.9 44.42 0.4 8.03 1.94 11.88
2/11/2023 8:45:00 PM 6.85 44.33 0.4 8.03 1.73 11.85
2/11/2023 9:00:00 PM 6.8 44.24 0.4 8.02 1.76 11.81
2/11/2023 9:15:00 PM 6.74 44.132 0.4 8.01 1.92 11.76
2/11/2023 9:30:00 PM 6.69 44.042 0.4 8 1.92 11.72
2/11/2023 9:45:00 PM 6.63 43.934 0.4 7.99 1.89 11.68
2/11/2023 10:00:00 PM 6.57 43.826 0.4 7.98 2 11.64
2/11/2023 10:15:00 PM 6.51 43.718 0.4 7.97 2.07 11.6
2/11/2023 10:30:00 PM 6.46 43.628 0.4 7.96 2.1 11.57
2/11/2023 10:45:00 PM 6.42 43.556 0.4 7.95 2.05 11.53
2/11/2023 11:00:00 PM 6.38 43.484 0.4 7.94 1.94 11.5
2/11/2023 11:15:00 PM 6.34 43.412 0.4 7.93 2.05 11.48
2/11/2023 11:30:00 PM 6.3 43.34 0.4 7.93 2.24 11.45
2/11/2023 11:45:00 PM 6.27 43.286 0.4 7.92 2.61 11.44
2/12/2023 12:00:00 AM 6.23 43.214 0.4 7.91 2.42 11.42
2/12/2023 12:15:00 AM 6.19 43.142 0.4 7.91 2.71 11.41
2/12/2023 12:30:00 AM 6.14 43.052 0.4 7.91 2.41 11.4
2/12/2023 12:45:00 AM 6.1 42.98 0.4 7.9 2.44 11.39
2/12/2023 1:00:00 AM 6.05 42.89 0.4 7.9 2.64 11.39
2/12/2023 1:15:00 AM 6 42.8 0.4 7.9 2.53 11.39
2/12/2023 1:30:00 AM 5.95 42.71 0.401 7.89 2.51 11.38
2/12/2023 1:45:00 AM 5.91 42.638 0.401 7.89 2.27 11.38
2/12/2023 2:00:00 AM 5.86 42.548 0.401 7.89 2.49 11.38
2/12/2023 2:15:00 AM 5.83 42.494 0.401 7.89 2.32 11.38
2/12/2023 2:30:00 AM 5.79 42.422 0.401 7.88 2.29 11.38
2/12/2023 2:45:00 AM 5.75 42.35 0.401 7.88 2.32 11.39
2/12/2023 3:00:00 AM 5.72 42.296 0.401 7.88 2.37 11.39
2/12/2023 3:15:00 AM 5.68 42.224 0.401 7.87 2.52 11.39
2/12/2023 3:30:00 AM 5.64 42.152 0.401 7.87 2.68 11.39
2/12/2023 3:45:00 AM 5.6 42.08 0.401 7.87 2.72 11.39
2/12/2023 4:00:00 AM 5.56 42.008 0.401 7.87 2.55 11.4
2/12/2023 4:15:00 AM 5.52 41.936 0.401 7.86 2.44 11.4
2/12/2023 4:30:00 AM 5.49 41.882 0.401 7.86 2.48 11.4
2/12/2023 4:45:00 AM 5.45 41.81 0.401 7.86 2.54 11.41
2/12/2023 5:00:00 AM 5.41 41.738 0.401 7.86 2.29 11.42
2/12/2023 5:15:00 AM 5.37 41.666 0.401 7.86 2.43 11.43
2/12/2023 5:30:00 AM 5.34 41.612 0.401 7.85 2.31 11.43
2/12/2023 5:45:00 AM 5.31 41.558 0.401 7.85 2.4 11.43
2/12/2023 6:00:00 AM 5.28 41.504 0.401 7.85 2.4 11.44
2/12/2023 6:15:00 AM 5.25 41.45 0.401 7.85 2.48 11.45
2/12/2023 6:30:00 AM 5.22 41.396 0.401 7.85 2.66 11.45
2/12/2023 6:45:00 AM 5.19 41.342 0.401 7.85 2.53 11.47
2/12/2023 7:00:00 AM 5.16 41.288 0.401 7.85 55.78 11.49
2/12/2023 7:15:00 AM 5.12 41.216 0.401 7.85 2.26 11.51
2/12/2023 7:30:00 AM 5.09 41.162 0.402 7.85 2.32 11.57
2/12/2023 7:45:00 AM 5.06 41.108 0.401 7.86 7.97 11.67
2/12/2023 8:00:00 AM 5.05 41.09 0.401 7.87 2.07 11.84
2/12/2023 8:15:00 AM 5.04 41.072 0.401 7.89 2.02 12.03
2/12/2023 8:30:00 AM 5.05 41.09 0.401 7.92 1.97 12.29
2/12/2023 8:45:00 AM 5.07 41.126 0.401 7.95 16.15 12.52
2/12/2023 9:00:00 AM 5.09 41.162 0.401 7.97 2.89 12.78
2/12/2023 9:15:00 AM 5.13 41.234 0.4 8.01 7.63 13.04
2/12/2023 9:30:00 AM 5.18 41.324 0.4 8.05 4.7 13.29
2/12/2023 9:45:00 AM 5.22 41.396 0.4 8.08 3.83 13.48
2/12/2023 10:00:00 AM 5.26 41.468 0.4 8.11 4.07 13.66
2/12/2023 10:15:00 AM 5.3 41.54 0.4 8.13 2.43 13.84
2/12/2023 10:30:00 AM 5.36 41.648 0.4 8.16 2.04 14
2/12/2023 10:45:00 AM 5.41 41.738 0.4 8.19 6.57 14.15
2/12/2023 11:00:00 AM 5.45 41.81 0.4 8.21 7.39 14.23
2/12/2023 11:15:00 AM 5.49 41.882 0.399 8.23 5.12 14.31
2/12/2023 11:30:00 AM 5.52 41.936 0.399 8.24 2.86 14.36
2/12/2023 11:45:00 AM 5.56 42.008 0.399 8.27 3.5 14.45
2/12/2023 12:00:00 PM 5.59 42.062 0.399 8.29 2.29 14.51
2/12/2023 12:15:00 PM 5.63 42.134 0.399 8.3 5.96 14.58
2/12/2023 12:30:00 PM 5.67 42.206 0.399 8.32 1.53 14.68
2/12/2023 12:45:00 PM 5.71 42.278 0.398 8.35 1.59 14.75
2/12/2023 1:00:00 PM 5.75 42.35 0.398 8.37 1.67 14.82
2/12/2023 1:15:00 PM 5.79 42.422 0.398 8.39 1.59 14.88
2/12/2023 1:30:00 PM 5.84 42.512 0.398 8.42 1.71 14.94
2/12/2023 1:45:00 PM 5.92 42.656 0.397 8.45 1.61 15.03
2/12/2023 2:00:00 PM 5.97 42.746 0.397 8.46 1.62 15.07
2/12/2023 2:15:00 PM 6.01 42.818 0.397 8.47 1.6 15.07
2/12/2023 2:30:00 PM 6.03 42.854 0.397 8.48 1.7 15
2/12/2023 2:45:00 PM 6.03 42.854 0.397 8.46 1.62 14.9
2/12/2023 3:00:00 PM 6.03 42.854 0.397 8.44 1.61 14.74
2/12/2023 3:15:00 PM 6.02 42.836 0.397 8.42 1.6 14.56
2/12/2023 3:30:00 PM 6.02 42.836 0.398 8.39 1.58 14.41
2/12/2023 3:45:00 PM 6.03 42.854 0.398 8.37 1.61 14.25
2/12/2023 4:00:00 PM 6.03 42.854 0.398 8.34 1.73 14.1
2/12/2023 4:15:00 PM 6.04 42.872 0.398 8.32 1.79 13.96
2/12/2023 4:30:00 PM 6.05 42.89 0.398 8.29 1.79 13.78
2/12/2023 4:45:00 PM 6.06 42.908 0.398 8.26 1.7 13.6
2/12/2023 5:00:00 PM 6.07 42.926 0.399 8.23 1.79 13.4
2/12/2023 5:15:00 PM 6.08 42.944 0.398 8.2 1.82 13.2
2/12/2023 5:30:00 PM 6.09 42.962 0.399 8.17 2.02 13.01
2/12/2023 5:45:00 PM 6.1 42.98 0.399 8.15 1.91 12.83
2/12/2023 6:00:00 PM 6.1 42.98 0.399 8.12 2.03 12.68
2/12/2023 6:15:00 PM 6.11 42.998 0.399 8.11 1.89 12.57
2/12/2023 6:30:00 PM 6.11 42.998 0.399 8.09 1.94 12.47
2/12/2023 6:45:00 PM 6.11 42.998 0.399 8.08 1.83 12.39
2/12/2023 7:00:00 PM 6.11 42.998 0.399 8.07 1.69 12.32
2/12/2023 7:15:00 PM 6.11 42.998 0.399 8.07 1.81 12.27
2/12/2023 7:30:00 PM 6.11 42.998 0.399 8.06 1.69 12.21
2/12/2023 7:45:00 PM 6.11 42.998 0.399 8.05 1.76 12.17
2/12/2023 8:00:00 PM 6.1 42.98 0.399 8.04 1.78 12.12
2/12/2023 8:15:00 PM 6.09 42.962 0.399 8.03 1.76 12.06
2/12/2023 8:30:00 PM 6.08 42.944 0.399 8.03 1.75 12.01
2/12/2023 8:45:00 PM 6.07 42.926 0.398 8.02 1.73 11.96
2/12/2023 9:00:00 PM 6.05 42.89 0.398 8.01 1.87 11.9
2/12/2023 9:15:00 PM 6.04 42.872 0.397 8 1.83 11.85
2/12/2023 9:30:00 PM 6.02 42.836 0.397 7.99 1.99 11.8
2/12/2023 9:45:00 PM 6 42.8 0.396 7.98 2.26 11.76
2/12/2023 10:00:00 PM 5.98 42.764 0.396 7.97 2.17 11.71
2/12/2023 10:15:00 PM 5.97 42.746 0.395 7.96 2.32 11.67
2/12/2023 10:30:00 PM 5.97 42.746 0.396 7.96 2.78 11.63
2/12/2023 10:45:00 PM 5.96 42.728 0.395 7.95 2.4 11.59
2/12/2023 11:00:00 PM 5.95 42.71 0.396 7.94 2.27 11.55
2/12/2023 11:15:00 PM 5.94 42.692 0.396 7.93 2.15 11.52
2/12/2023 11:30:00 PM 5.93 42.674 0.396 7.93 2.11 11.49
2/12/2023 11:45:00 PM 5.93 42.674 0.396 7.93 2.16 11.47
2/13/2023 12:00:00 AM 5.93 42.674 0.396 7.92 2.21 11.44
2/13/2023 12:15:00 AM 5.93 42.674 0.397 7.92 2.19 11.42
2/13/2023 12:30:00 AM 5.92 42.656 0.397 7.91 2.1 11.4
2/13/2023 12:45:00 AM 5.92 42.656 0.397 7.91 1.99 11.38
2/13/2023 1:00:00 AM 5.9 42.62 0.396 7.9 2.97 11.35
2/13/2023 1:15:00 AM 5.88 42.584 0.396 7.9 2.86 11.34
2/13/2023 1:30:00 AM 5.86 42.548 0.396 7.9 2.92 11.33
2/13/2023 1:45:00 AM 5.84 42.512 0.396 7.89 2.96 11.31
2/13/2023 2:00:00 AM 5.82 42.476 0.396 7.89 2.99 11.3
2/13/2023 2:15:00 AM 5.8 42.44 0.396 7.89 2.9 11.3
2/13/2023 2:30:00 AM 5.79 42.422 0.396 7.89 2.72 11.3
2/13/2023 2:45:00 AM 5.77 42.386 0.396 7.88 2.98 11.3
2/13/2023 3:00:00 AM 5.75 42.35 0.396 7.88 2.21 11.28
2/13/2023 3:15:00 AM 5.73 42.314 0.396 7.88 2.41 11.28
2/13/2023 3:30:00 AM 5.71 42.278 0.396 7.88 2.18 11.27
2/13/2023 3:45:00 AM 5.69 42.242 0.396 7.88 2.25 11.26
2/13/2023 4:00:00 AM 5.68 42.224 0.397 7.87 2.18 11.26
2/13/2023 4:15:00 AM 5.65 42.17 0.397 7.87 2.24 11.26
2/13/2023 4:30:00 AM 5.62 42.116 0.397 7.87 2.21 11.26
2/13/2023 4:45:00 AM 5.59 42.062 0.397 7.87 2.07 11.26
2/13/2023 5:00:00 AM 5.55 41.99 0.397 7.87 2.19 11.27
2/13/2023 5:15:00 AM 5.51 41.918 0.397 7.87 2.39 11.27
2/13/2023 5:30:00 AM 5.47 41.846 0.397 7.86 2.26 11.28
2/13/2023 5:45:00 AM 5.44 41.792 0.397 7.86 2.28 11.28
2/13/2023 6:00:00 AM 5.4 41.72 0.397 7.86 2.28 11.29
2/13/2023 6:15:00 AM 5.37 41.666 0.397 7.86 2.35 11.29
2/13/2023 6:30:00 AM 5.33 41.594 0.397 7.86 19.18 11.29
2/13/2023 6:45:00 AM 5.29 41.522 0.397 7.86 2.32 11.31
2/13/2023 7:00:00 AM 5.25 41.45 0.397 7.86 2.23 11.31
2/13/2023 7:15:00 AM 5.21 41.378 0.397 7.86 2.27 11.34
2/13/2023 7:30:00 AM 5.17 41.306 0.397 7.86 2.26 11.38
2/13/2023 7:45:00 AM 5.14 41.252 0.397 7.87 2.2 11.45
2/13/2023 8:00:00 AM 5.11 41.198 0.397 7.88 2.28 11.59
2/13/2023 8:15:00 AM 5.11 41.198 0.396 7.9 2.38 11.75
2/13/2023 8:30:00 AM 5.13 41.234 0.396 7.92 2.37 12.03
2/13/2023 8:45:00 AM 5.17 41.306 0.396 7.95 10.54 12.21
2/13/2023 9:00:00 AM 5.23 41.414 0.396 7.98 2.07 12.6
2/13/2023 9:15:00 AM 5.31 41.558 0.395 8.02 1.95 12.83
2/13/2023 9:30:00 AM 5.39 41.702 0.395 8.06 1.85 13.08
2/13/2023 9:45:00 AM 5.5 41.9 0.395 8.09 2.04 13.33
2/13/2023 10:00:00 AM 5.63 42.134 0.394 8.13 2.12 13.55
2/13/2023 10:15:00 AM 5.74 42.332 0.394 8.17 1.88 13.72
2/13/2023 10:30:00 AM 5.85 42.53 0.394 8.21 8.42 13.92
2/13/2023 10:45:00 AM 5.97 42.746 0.394 8.25 2.28 14.07
2/13/2023 11:00:00 AM 6.06 42.908 0.394 8.29 6.84 14.24
2/13/2023 11:15:00 AM 6.12 43.016 0.393 8.32 1.95 14.34
2/13/2023 11:30:00 AM 6.19 43.142 0.393 8.35 1.66 14.45
2/13/2023 11:45:00 AM 6.25 43.25 0.393 8.38 1.59 14.56
2/13/2023 12:00:00 PM 6.34 43.412 0.393 8.41 1.55 14.67
2/13/2023 12:15:00 PM 6.45 43.61 0.393 8.43 1.57 14.74
2/13/2023 12:30:00 PM 6.61 43.898 0.392 8.46 1.57 14.83
2/13/2023 12:45:00 PM 6.78 44.204 0.392 8.49 1.67 14.9
2/13/2023 1:00:00 PM 6.91 44.438 0.392 8.52 1.63 15
2/13/2023 1:15:00 PM 6.97 44.546 0.392 8.53 1.99 15
2/13/2023 1:30:00 PM 7.05 44.69 0.391 8.56 1.86 15.07
2/13/2023 1:45:00 PM 7.05 44.69 0.391 8.57 2.1 15.04
2/13/2023 2:00:00 PM 7.05 44.69 0.391 8.58 1.74 15.05
2/13/2023 2:15:00 PM 7.02 44.636 0.391 8.58 6.59 14.95
2/13/2023 2:30:00 PM 6.98 44.564 0.391 8.56 1.69 14.84
2/13/2023 2:45:00 PM 6.93 44.474 0.392 8.53 1.71 14.62
2/13/2023 3:00:00 PM 6.9 44.42 0.392 8.5 1.63 14.44
2/13/2023 3:15:00 PM 6.89 44.402 0.392 8.48 1.63 14.29
2/13/2023 3:30:00 PM 6.9 44.42 0.392 8.46 1.66 14.16
2/13/2023 3:45:00 PM 6.96 44.528 0.392 8.47 1.53 14.2
2/13/2023 4:00:00 PM 7 44.6 0.392 8.48 1.73 14.19
2/13/2023 4:15:00 PM 7.06 44.708 0.392 8.5 1.64 14.16
2/13/2023 4:30:00 PM 7.12 44.816 0.391 8.51 4.41 14.17
2/13/2023 4:45:00 PM 7.11 44.798 0.391 8.49 1.76 14.07
2/13/2023 5:00:00 PM 7.11 44.798 0.392 8.46 1.63 13.87
2/13/2023 5:15:00 PM 7.08 44.744 0.392 8.42 1.99 13.65
2/13/2023 5:30:00 PM 7.05 44.69 0.392 8.38 1.6 13.4
2/13/2023 5:45:00 PM 7.01 44.618 0.393 8.32 1.63 13.12
2/13/2023 6:00:00 PM 6.97 44.546 0.393 8.27 1.58 12.84
2/13/2023 6:15:00 PM 6.94 44.492 0.394 8.23 1.9 12.6
2/13/2023 6:30:00 PM 6.89 44.402 0.394 8.19 1.69 12.4
2/13/2023 6:45:00 PM 6.85 44.33 0.394 8.16 1.85 12.25
2/13/2023 7:00:00 PM 6.8 44.24 0.394 8.14 1.7 12.13
2/13/2023 7:15:00 PM 6.75 44.15 0.394 8.13 1.73 12.04
2/13/2023 7:30:00 PM 6.71 44.078 0.394 8.12 1.62 12
2/13/2023 7:45:00 PM 6.69 44.042 0.394 8.11 1.71 11.94
2/13/2023 8:00:00 PM 6.67 44.006 0.394 8.1 1.75 11.91
2/13/2023 8:15:00 PM 6.65 43.97 0.395 8.09 1.82 11.86
2/13/2023 8:30:00 PM 6.61 43.898 0.395 8.09 1.79 11.83
2/13/2023 8:45:00 PM 6.56 43.808 0.395 8.08 1.9 11.77
2/13/2023 9:00:00 PM 6.52 43.736 0.395 8.07 9.77 11.73
2/13/2023 9:15:00 PM 6.5 43.7 0.396 8.06 1.84 11.68
2/13/2023 9:30:00 PM 6.49 43.682 0.396 8.05 1.79 11.62
2/13/2023 9:45:00 PM 6.47 43.646 0.396 8.04 1.9 11.57
2/13/2023 10:00:00 PM 6.43 43.574 0.397 8.03 2.04 11.52
2/13/2023 10:15:00 PM 6.4 43.52 0.397 8.01 2.14 11.48
2/13/2023 10:30:00 PM 6.36 43.448 0.397 8 2.05 11.43
2/13/2023 10:45:00 PM 6.32 43.376 0.397 7.99 2.01 11.39
2/13/2023 11:00:00 PM 6.28 43.304 0.398 7.99 2.06 11.36
2/13/2023 11:15:00 PM 6.24 43.232 0.398 7.98 2.09 11.34
2/13/2023 11:30:00 PM 6.2 43.16 0.398 7.97 2.53 11.31
2/13/2023 11:45:00 PM 6.17 43.106 0.398 7.97 2.13 11.29
2/14/2023 12:00:00 AM 6.15 43.07 0.398 7.95 2.43 11.28
2/14/2023 12:15:00 AM 6.12 43.016 0.398 7.95 2.11 11.26
2/14/2023 12:30:00 AM 6.09 42.962 0.398 7.95 2.32 11.22
2/14/2023 12:45:00 AM 6.07 42.926 0.398 7.94 2.13 11.2
2/14/2023 1:00:00 AM 6.05 42.89 0.398 7.93 2.42 11.2
2/14/2023 1:15:00 AM 6.03 42.854 0.398 7.93 2.13 11.18
2/14/2023 1:30:00 AM 6.01 42.818 0.398 7.93 2.11 11.19
2/14/2023 1:45:00 AM 5.99 42.782 0.398 7.92 1.98 11.17
2/14/2023 2:00:00 AM 5.96 42.728 0.398 7.92 2 11.15
2/14/2023 2:15:00 AM 5.94 42.692 0.398 7.91 2.07 11.15
2/14/2023 2:30:00 AM 5.92 42.656 0.398 7.91 2.2 11.15
2/14/2023 2:45:00 AM 5.9 42.62 0.398 7.91 2.09 11.14
2/14/2023 3:00:00 AM 5.88 42.584 0.398 7.9 2.18 11.14
2/14/2023 3:15:00 AM 5.85 42.53 0.398 7.9 2.21 11.14
2/14/2023 3:30:00 AM 5.81 42.458 0.398 7.9 2.33 11.14
2/14/2023 3:45:00 AM 5.78 42.404 0.398 7.9 2.35 11.14
2/14/2023 4:00:00 AM 5.75 42.35 0.398 7.89 2.26 11.16
2/14/2023 4:15:00 AM 5.73 42.314 0.398 7.89 2.21 11.16
2/14/2023 4:30:00 AM 5.69 42.242 0.398 7.89 2.35 11.16
2/14/2023 4:45:00 AM 5.64 42.152 0.398 7.88 2.26 11.17
2/14/2023 5:00:00 AM 5.61 42.098 0.398 7.88 2.23 11.17
2/14/2023 5:15:00 AM 5.57 42.026 0.398 7.88 3.12 11.18
2/14/2023 5:30:00 AM 5.54 41.972 0.399 7.88 3.62 11.17
2/14/2023 5:45:00 AM 5.51 41.918 0.399 7.87 3.1 11.16
2/14/2023 6:00:00 AM 5.46 41.828 0.399 7.87 2.48 11.19
2/14/2023 6:15:00 AM 5.42 41.756 0.399 7.87 2.46 11.2
2/14/2023 6:30:00 AM 5.38 41.684 0.399 7.87 2.68 11.2
2/14/2023 6:45:00 AM 5.34 41.612 0.399 7.87 2.6 11.21
2/14/2023 7:00:00 AM 5.3 41.54 0.399 7.87 2.64 11.26
2/14/2023 7:15:00 AM 5.26 41.468 0.399 7.87 2.48 11.31
2/14/2023 7:30:00 AM 5.23 41.414 0.4 7.87 2.41 11.35
2/14/2023 7:45:00 AM 5.2 41.36 0.399 7.88 2.26 11.43
2/14/2023 8:00:00 AM 5.18 41.324 0.399 7.9 2.27 11.61
2/14/2023 8:15:00 AM 5.19 41.342 0.399 7.92 2.24 11.8
2/14/2023 8:30:00 AM 5.22 41.396 0.399 7.95 2.24 12.07
2/14/2023 8:45:00 AM 5.27 41.486 0.399 7.98 2.29 12.34
2/14/2023 9:00:00 AM 5.34 41.612 0.399 8.02 2.39 12.74
2/14/2023 9:15:00 AM 5.42 41.756 0.399 8.05 2.13 12.97
2/14/2023 9:30:00 AM 5.49 41.882 0.398 8.09 2.11 13.23
2/14/2023 9:45:00 AM 5.58 42.044 0.398 8.13 2.04 13.44
2/14/2023 10:00:00 AM 5.69 42.242 0.398 8.17 2.01 13.68
2/14/2023 10:15:00 AM 5.8 42.44 0.398 8.2 2.24 13.89
2/14/2023 10:30:00 AM 5.92 42.656 0.398 8.24 2.36 14.08
2/14/2023 10:45:00 AM 6.04 42.872 0.398 8.28 2.92 14.25
2/14/2023 11:00:00 AM 6.16 43.088 0.397 8.31 2.13 14.39
2/14/2023 11:15:00 AM 6.28 43.304 0.397 8.34 2.06 14.5
2/14/2023 11:30:00 AM 6.41 43.538 0.397 8.36 1.95 14.6
2/14/2023 11:45:00 AM 6.53 43.754 0.397 8.39 1.88 14.68
2/14/2023 12:00:00 PM 6.66 43.988 0.396 8.41 1.94 14.73
2/14/2023 12:15:00 PM 6.8 44.24 0.396 8.43 1.9 14.78
2/14/2023 12:30:00 PM 6.93 44.474 0.396 8.46 1.75 14.85
2/14/2023 12:45:00 PM 7.06 44.708 0.396 8.48 1.73 14.92
2/14/2023 1:00:00 PM 7.17 44.906 0.396 8.51 1.57 15
2/14/2023 1:15:00 PM 7.28 45.104 0.396 8.53 1.57 15.03
2/14/2023 1:30:00 PM 7.36 45.248 0.395 8.54 1.66 15.05
2/14/2023 1:45:00 PM 7.43 45.374 0.395 8.56 1.62 15.07
2/14/2023 2:00:00 PM 7.47 45.446 0.395 8.57 3.26 15.08
2/14/2023 2:15:00 PM 7.49 45.482 0.395 8.58 1.84 15.06
2/14/2023 2:30:00 PM 7.49 45.482 0.395 8.59 2 15.05
2/14/2023 2:45:00 PM 7.51 45.518 0.395 8.6 1.98 15.06
2/14/2023 3:00:00 PM 7.51 45.518 0.395 8.61 9 15.05
2/14/2023 3:15:00 PM 7.52 45.536 0.395 8.61 1.94 15
2/14/2023 3:30:00 PM 7.53 45.554 0.395 8.61 2.08 14.92
2/14/2023 3:45:00 PM 7.52 45.536 0.395 8.6 6.11 14.83
2/14/2023 4:00:00 PM 7.52 45.536 0.395 8.59 1.7 14.7
2/14/2023 4:15:00 PM 7.5 45.5 0.396 8.55 1.77 14.52
2/14/2023 4:30:00 PM 7.49 45.482 0.396 8.52 9.65 14.32
2/14/2023 4:45:00 PM 7.48 45.464 0.396 8.48 1.68 14.09
2/14/2023 5:00:00 PM 7.46 45.428 0.397 8.43 1.96 13.81
2/14/2023 5:15:00 PM 7.45 45.41 0.397 8.39 10.16 13.56
2/14/2023 5:30:00 PM 7.43 45.374 0.397 8.34 1.79 13.28
2/14/2023 5:45:00 PM 7.41 45.338 0.398 8.29 1.77 13.01
2/14/2023 6:00:00 PM 7.39 45.302 0.398 8.25 1.9 12.77
2/14/2023 6:15:00 PM 7.37 45.266 0.398 8.21 2.04 12.56
2/14/2023 6:30:00 PM 7.35 45.23 0.398 8.18 1.93 12.37
2/14/2023 6:45:00 PM 7.33 45.194 0.398 8.16 1.85 12.23
2/14/2023 7:00:00 PM 7.31 45.158 0.399 8.14 1.78 12.13
2/14/2023 7:15:00 PM 7.3 45.14 0.399 8.13 1.77 12.05
2/14/2023 7:30:00 PM 7.28 45.104 0.399 8.12 1.74 11.99
2/14/2023 7:45:00 PM 7.27 45.086 0.399 8.11 1.69 11.94
2/14/2023 8:00:00 PM 7.24 45.032 0.399 8.1 1.83 11.89
2/14/2023 8:15:00 PM 7.21 44.978 0.399 8.09 1.78 11.85
2/14/2023 8:30:00 PM 7.18 44.924 0.399 8.08 1.75 11.8
2/14/2023 8:45:00 PM 7.14 44.852 0.399 8.07 1.89 11.75
2/14/2023 9:00:00 PM 7.11 44.798 0.399 8.06 1.91 11.71
2/14/2023 9:15:00 PM 7.07 44.726 0.399 8.05 1.78 11.66
2/14/2023 9:30:00 PM 7.03 44.654 0.399 8.04 1.87 11.61
2/14/2023 9:45:00 PM 7.01 44.618 0.399 8.03 1.84 11.54
2/14/2023 10:00:00 PM 6.98 44.564 0.4 8.01 1.83 11.48
2/14/2023 10:15:00 PM 6.96 44.528 0.4 8.01 1.9 11.44
2/14/2023 10:30:00 PM 6.93 44.474 0.4 7.99 1.93 11.39
2/14/2023 10:45:00 PM 6.92 44.456 0.4 7.98 2 11.35
2/14/2023 11:00:00 PM 6.9 44.42 0.4 7.97 1.98 11.31
2/14/2023 11:15:00 PM 6.9 44.42 0.4 7.96 1.94 11.26
2/14/2023 11:30:00 PM 6.89 44.402 0.4 7.95 1.94 11.23
2/14/2023 11:45:00 PM 6.9 44.42 0.4 7.95 1.95 11.18
2/15/2023 12:00:00 AM 6.9 44.42 0.4 7.94 2.03 11.15
2/15/2023 12:15:00 AM 6.9 44.42 0.4 7.94 2.01 11.12
2/15/2023 12:30:00 AM 6.9 44.42 0.4 7.93 2.04 11.09
2/15/2023 12:45:00 AM 6.9 44.42 0.4 7.93 2.04 11.06
2/15/2023 1:00:00 AM 6.9 44.42 0.4 7.92 2.06 11.02
2/15/2023 1:15:00 AM 6.9 44.42 0.4 7.92 1.97 11.02
2/15/2023 1:30:00 AM 6.89 44.402 0.4 7.91 1.86 10.99
2/15/2023 1:45:00 AM 6.88 44.384 0.4 7.91 1.94 10.98
2/15/2023 2:00:00 AM 6.88 44.384 0.401 7.9 1.98 10.97
2/15/2023 2:15:00 AM 6.88 44.384 0.401 7.9 2.05 10.95
2/15/2023 2:30:00 AM 6.88 44.384 0.401 7.9 2.05 10.94
2/15/2023 2:45:00 AM 6.87 44.366 0.401 7.89 1.99 10.92
2/15/2023 3:00:00 AM 6.86 44.348 0.401 7.89 2.07 10.88
2/15/2023 3:15:00 AM 6.86 44.348 0.401 7.89 2.12 10.89
2/15/2023 3:30:00 AM 6.85 44.33 0.401 7.88 4.26 10.87
2/15/2023 3:45:00 AM 6.84 44.312 0.401 7.88 2.02 10.87
2/15/2023 4:00:00 AM 6.84 44.312 0.401 7.88 2.09 10.86
2/15/2023 4:15:00 AM 6.83 44.294 0.401 7.88 2.1 10.87
2/15/2023 4:30:00 AM 6.83 44.294 0.401 7.88 2.32 10.84
2/15/2023 4:45:00 AM 6.83 44.294 0.401 7.87 2.46 10.82
2/15/2023 5:00:00 AM 6.83 44.294 0.401 7.87 2.29 10.82
2/15/2023 5:15:00 AM 6.83 44.294 0.401 7.87 2.1 10.81
2/15/2023 5:30:00 AM 6.83 44.294 0.401 7.87 2.22 10.8
2/15/2023 5:45:00 AM 6.83 44.294 0.401 7.87 3.04 10.79
2/15/2023 6:00:00 AM 6.83 44.294 0.401 7.86 2.9 10.78
2/15/2023 6:15:00 AM 6.83 44.294 0.401 7.86 3.87 10.79
2/15/2023 6:30:00 AM 6.83 44.294 0.401 7.86 2.13 10.8
2/15/2023 6:45:00 AM 6.83 44.294 0.402 7.86 2.09 10.79
2/15/2023 7:00:00 AM 6.83 44.294 0.402 7.86 2.08 10.78
2/15/2023 7:15:00 AM 6.82 44.276 0.402 7.86 2.03 10.79
2/15/2023 7:30:00 AM 6.83 44.294 0.402 7.86 2.29 10.84
2/15/2023 7:45:00 AM 6.84 44.312 0.402 7.87 2.95 10.91
2/15/2023 8:00:00 AM 6.85 44.33 0.402 7.87 2.55 11.01
2/15/2023 8:15:00 AM 6.86 44.348 0.402 7.88 2.48 11.03
2/15/2023 8:30:00 AM 6.89 44.402 0.401 7.9 2.61 11.15
2/15/2023 8:45:00 AM 6.93 44.474 0.401 7.92 2.69 11.41
2/15/2023 9:00:00 AM 6.99 44.582 0.401 7.96 2.73 11.79
2/15/2023 9:15:00 AM 7.07 44.726 0.4 8.01 2.45 12.11
2/15/2023 9:30:00 AM 7.19 44.942 0.4 8.08 2.98 12.63
2/15/2023 9:45:00 AM 7.3 45.14 0.399 8.14 2.45 13.11
2/15/2023 10:00:00 AM 7.38 45.284 0.399 8.2 2.44 13.4
2/15/2023 10:15:00 AM 7.48 45.464 0.399 8.26 2.15 13.63
2/15/2023 10:30:00 AM 7.61 45.698 0.398 8.31 1.97 13.88
2/15/2023 10:45:00 AM 7.74 45.932 0.398 8.35 2.47 14.04
2/15/2023 11:00:00 AM 7.86 46.148 0.398 8.38 2.06 14.25
2/15/2023 11:15:00 AM 7.98 46.364 0.398 8.41 2.3 14.29
2/15/2023 11:30:00 AM 8.13 46.634 0.398 8.44 2.12 14.37
2/15/2023 11:45:00 AM 8.26 46.868 0.397 8.46 2.17 14.45
2/15/2023 12:00:00 PM 8.43 47.174 0.397 8.49 2.25 14.54
2/15/2023 12:15:00 PM 8.59 47.462 0.397 8.52 2.06 14.6
2/15/2023 12:30:00 PM 8.77 47.786 0.396 8.55 1.99 14.69
2/15/2023 12:45:00 PM 8.93 48.074 0.396 8.58 1.97 14.75
2/15/2023 1:00:00 PM 9.07 48.326 0.396 8.6 1.93 14.85
2/15/2023 1:15:00 PM 9.21 48.578 0.395 8.64 2.18 14.9
2/15/2023 1:30:00 PM 9.32 48.776 0.395 8.66 1.96 14.96
2/15/2023 1:45:00 PM 9.41 48.938 0.394 8.67 5.38 14.98
2/15/2023 2:00:00 PM 9.48 49.064 0.394 8.68 3.17 14.92
2/15/2023 2:15:00 PM 9.54 49.172 0.394 8.69 1.85 14.91
2/15/2023 2:30:00 PM 9.6 49.28 0.394 8.7 1.69 14.81
2/15/2023 2:45:00 PM 9.64 49.352 0.394 8.7 1.35 14.75
2/15/2023 3:00:00 PM 9.68 49.424 0.394 8.7 1.68 14.7
2/15/2023 3:15:00 PM 9.69 49.442 0.394 8.71 1.95 14.6
2/15/2023 3:30:00 PM 9.72 49.496 0.394 8.69 3.75 14.52
2/15/2023 3:45:00 PM 9.72 49.496 0.394 8.69 1.99 14.41
2/15/2023 4:00:00 PM 9.72 49.496 0.394 8.68 2.55 14.27
2/15/2023 4:15:00 PM 9.72 49.496 0.394 8.65 2.15 14.1
2/15/2023 4:30:00 PM 9.71 49.478 0.394 8.62 1.48 13.9
2/15/2023 4:45:00 PM 9.71 49.478 0.395 8.59 6.42 13.68
2/15/2023 5:00:00 PM 9.71 49.478 0.395 8.55 2.18 13.41
2/15/2023 5:15:00 PM 9.71 49.478 0.395 8.5 1.5 13.15
2/15/2023 5:30:00 PM 9.72 49.496 0.396 8.46 1.41 12.89
2/15/2023 5:45:00 PM 9.73 49.514 0.396 8.4 1.33 12.59
2/15/2023 6:00:00 PM 9.73 49.514 0.397 8.35 1.26 12.29
2/15/2023 6:15:00 PM 9.74 49.532 0.397 8.3 1.31 12.02
2/15/2023 6:30:00 PM 9.75 49.55 0.398 8.26 1.56 11.78
2/15/2023 6:45:00 PM 9.76 49.568 0.398 8.23 1.5 11.6
2/15/2023 7:00:00 PM 9.76 49.568 0.398 8.21 1.84 11.45
2/15/2023 7:15:00 PM 9.77 49.586 0.397 8.19 2.04 11.33
2/15/2023 7:30:00 PM 9.76 49.568 0.397 8.18 1.52 11.25
2/15/2023 7:45:00 PM 9.76 49.568 0.397 8.17 1.6 11.15
2/15/2023 8:00:00 PM 9.75 49.55 0.397 8.16 1.61 11.09
2/15/2023 8:15:00 PM 9.74 49.532 0.397 8.15 2.62 11.04
2/15/2023 8:30:00 PM 9.74 49.532 0.397 8.14 1.64 10.98
2/15/2023 8:45:00 PM 9.72 49.496 0.398 8.13 1.65 10.95
2/15/2023 9:00:00 PM 9.69 49.442 0.398 8.12 1.65 10.87
2/15/2023 9:15:00 PM 9.65 49.37 0.398 8.11 1.64 10.81
2/15/2023 9:30:00 PM 9.61 49.298 0.398 8.1 1.78 10.74
2/15/2023 9:45:00 PM 9.55 49.19 0.398 8.08 2.06 10.69
2/15/2023 10:00:00 PM 9.5 49.1 0.398 8.06 1.64 10.62
2/15/2023 10:15:00 PM 9.45 49.01 0.398 8.05 2.65 10.56
2/15/2023 10:30:00 PM 9.4 48.92 0.398 8.04 1.86 10.51
2/15/2023 10:45:00 PM 9.35 48.83 0.398 8.03 4.49 10.47
2/15/2023 11:00:00 PM 9.29 48.722 0.398 8.01 2.1 10.41
2/15/2023 11:15:00 PM 9.25 48.65 0.399 8 2.12 10.38
2/15/2023 11:30:00 PM 9.21 48.578 0.399 7.99 1.88 10.32
2/15/2023 11:45:00 PM 9.17 48.506 0.399 7.98 7.58 10.28
2/16/2023 12:00:00 AM 9.13 48.434 0.399 7.97 8.04 10.26
2/16/2023 12:15:00 AM 9.08 48.344 0.399 7.96 8.35 10.23
2/16/2023 12:30:00 AM 9.04 48.272 0.399 7.96 7.72 10.2
2/16/2023 12:45:00 AM 9 48.2 0.4 7.95 8.79 10.18
2/16/2023 1:00:00 AM 8.96 48.128 0.4 7.94 20.66 10.14
2/16/2023 1:15:00 AM 8.92 48.056 0.399 7.93 4.16 10.12
2/16/2023 1:30:00 AM 8.87 47.966 0.399 7.93 8.53 10.16
2/16/2023 1:45:00 AM 8.83 47.894 0.4 7.92 4.62 10.16
2/16/2023 2:00:00 AM 8.78 47.804 0.4 7.92 5.93 10.13
2/16/2023 2:15:00 AM 8.74 47.732 0.4 7.91 6.89 10.14
2/16/2023 2:30:00 AM 8.69 47.642 0.4 7.91 2.54 10.13
2/16/2023 2:45:00 AM 8.64 47.552 0.4 7.9 14.37 10.12
2/16/2023 3:00:00 AM 8.59 47.462 0.4 7.9 8.41 10.14
2/16/2023 3:15:00 AM 8.55 47.39 0.4 7.89 1.88 10.13
2/16/2023 3:30:00 AM 8.5 47.3 0.4 7.89 1.92 10.14
2/16/2023 3:45:00 AM 8.46 47.228 0.4 7.89 2.09 10.13
2/16/2023 4:00:00 AM 8.42 47.156 0.4 7.88 2.39 10.13
2/16/2023 4:15:00 AM 8.38 47.084 0.4 7.88 2.22 10.14
2/16/2023 4:30:00 AM 8.34 47.012 0.4 7.87 2.13 10.12
2/16/2023 4:45:00 AM 8.3 46.94 0.4 7.87 2.11 10.13
2/16/2023 5:00:00 AM 8.26 46.868 0.4 7.87 2.23 10.11
2/16/2023 5:15:00 AM 8.23 46.814 0.4 7.86 2.35 10.1
2/16/2023 5:30:00 AM 8.2 46.76 0.4 7.86 2.18 10.15
2/16/2023 5:45:00 AM 8.16 46.688 0.4 7.86 2.14 10.12
2/16/2023 6:00:00 AM 8.13 46.634 0.4 7.86 2.09 10.14
2/16/2023 6:15:00 AM 8.1 46.58 0.4 7.85 2.02 10.1
2/16/2023 6:30:00 AM 8.06 46.508 0.401 7.85 2.05 10.1
2/16/2023 6:45:00 AM 8.02 46.436 0.401 7.85 2.11 10.08
2/16/2023 7:00:00 AM 7.99 46.382 0.401 7.85 1.97 10.08
2/16/2023 7:15:00 AM 7.96 46.328 0.401 7.85 7.04 10.12
2/16/2023 7:30:00 AM 7.94 46.292 0.401 7.85 2.22 10.25
2/16/2023 7:45:00 AM 7.93 46.274 0.401 7.87 60.75 10.38
2/16/2023 8:00:00 AM 7.93 46.274 0.401 7.89 6.74 10.51
2/16/2023 8:15:00 AM 7.94 46.292 0.401 7.91 5.75 10.67
2/16/2023 8:30:00 AM 7.97 46.346 0.401 7.94 6.72 11.12
2/16/2023 8:45:00 AM 8.01 46.418 0.401 7.99 11.26 11.41
2/16/2023 9:00:00 AM 8.07 46.526 0.4 8.02 1.68 11.79
2/16/2023 9:15:00 AM 8.13 46.634 0.4 8.07 1.7 12.17
2/16/2023 9:30:00 AM 8.19 46.742 0.4 8.11 2.35 12.45
2/16/2023 9:45:00 AM 8.27 46.886 0.4 8.16 2.89 12.88
2/16/2023 10:00:00 AM 8.34 47.012 0.399 8.2 5.25 13.14
2/16/2023 10:15:00 AM 8.41 47.138 0.399 8.24 6.62 13.26
2/16/2023 10:30:00 AM 8.48 47.264 0.399 8.29 3.17 13.49
2/16/2023 10:45:00 AM 8.52 47.336 0.399 8.31 2.94 13.6
2/16/2023 11:00:00 AM 8.58 47.444 0.399 8.35 12.91 13.62
2/16/2023 11:15:00 AM 8.63 47.534 0.398 8.37 4.95 13.83
2/16/2023 11:30:00 AM 8.65 47.57 0.398 8.38 5.08 13.87
2/16/2023 11:45:00 AM 8.67 47.606 0.398 8.39 1.93 13.88
2/16/2023 12:00:00 PM 8.69 47.642 0.398 8.41 4.11 13.88
2/16/2023 12:15:00 PM 8.67 47.606 0.398 8.39 3.51 13.79
2/16/2023 12:30:00 PM 8.66 47.588 0.398 8.36 3.36 13.66
2/16/2023 12:45:00 PM 8.65 47.57 0.398 8.33 3.11 13.47
2/16/2023 1:00:00 PM 8.63 47.534 0.398 8.29 3.71 13.25
2/16/2023 1:15:00 PM 8.63 47.534 0.398 8.26 5.25 13.04
2/16/2023 1:30:00 PM 8.64 47.552 0.397 8.23 9.37 12.82
2/16/2023 1:45:00 PM 8.64 47.552 0.396 8.2 197.95 12.63
2/16/2023 2:00:00 PM 8.66 47.588 0.394 8.18 11.23 12.52
2/16/2023 2:15:00 PM 8.69 47.642 0.392 8.19 4.47 12.45
2/16/2023 2:30:00 PM 8.72 47.696 0.392 8.2 4.92 12.59
2/16/2023 2:45:00 PM 8.76 47.768 0.391 8.23 2.66 12.68
2/16/2023 3:00:00 PM 8.82 47.876 0.391 8.28 2.48 12.9
2/16/2023 3:15:00 PM 8.89 48.002 0.391 8.34 2.44 13.14
2/16/2023 3:30:00 PM 8.92 48.056 0.391 8.35 7.69 13.17
2/16/2023 3:45:00 PM 8.94 48.092 0.391 8.35 13.4 13.11
2/16/2023 4:00:00 PM 8.95 48.11 0.392 8.33 8.94 12.93
2/16/2023 4:15:00 PM 8.97 48.146 0.393 8.3 1.73 12.75
2/16/2023 4:30:00 PM 8.97 48.146 0.393 8.28 1.9 12.58
2/16/2023 4:45:00 PM 8.97 48.146 0.393 8.26 1.92 12.42
2/16/2023 5:00:00 PM 8.96 48.128 0.393 8.22 2.2 12.22
2/16/2023 5:15:00 PM 8.96 48.128 0.393 8.19 2.24 12.02
2/16/2023 5:30:00 PM 8.95 48.11 0.392 8.16 2.38 11.82
2/16/2023 5:45:00 PM 8.95 48.11 0.392 8.13 2.32 11.67
2/16/2023 6:00:00 PM 8.94 48.092 0.392 8.1 8.32 11.49
2/16/2023 6:15:00 PM 8.94 48.092 0.391 8.08 2.44 11.39
2/16/2023 6:30:00 PM 8.93 48.074 0.391 8.07 2.56 11.29
2/16/2023 6:45:00 PM 8.93 48.074 0.39 8.06 2.69 11.24
2/16/2023 7:00:00 PM 8.93 48.074 0.39 8.04 2.66 11.2
2/16/2023 7:15:00 PM 8.93 48.074 0.39 8.04 2.79 11.16
2/16/2023 7:30:00 PM 8.93 48.074 0.389 8.03 2.74 11.11
2/16/2023 7:45:00 PM 8.92 48.056 0.389 8.03 2.88 11.04
2/16/2023 8:00:00 PM 8.92 48.056 0.389 8.03 2.83 11
2/16/2023 8:15:00 PM 8.92 48.056 0.388 8.02 2.96 10.96
2/16/2023 8:30:00 PM 8.91 48.038 0.388 8.02 2.95 10.91
2/16/2023 8:45:00 PM 8.91 48.038 0.388 8.01 4.17 10.82
2/16/2023 9:00:00 PM 8.9 48.02 0.388 7.99 3.83 10.79
2/16/2023 9:15:00 PM 8.9 48.02 0.388 7.98 3.88 10.76
2/16/2023 9:30:00 PM 8.9 48.02 0.388 7.97 3.96 10.71
2/16/2023 9:45:00 PM 8.89 48.002 0.388 7.96 4.29 10.66
2/16/2023 10:00:00 PM 8.89 48.002 0.388 7.95 4.03 10.6
2/16/2023 10:15:00 PM 8.89 48.002 0.388 7.94 3.75 10.56
2/16/2023 10:30:00 PM 8.88 47.984 0.388 7.94 3.77 10.54
2/16/2023 10:45:00 PM 8.88 47.984 0.388 7.93 3.73 10.51
2/16/2023 11:00:00 PM 8.88 47.984 0.387 7.93 3.79 10.47
2/16/2023 11:15:00 PM 8.88 47.984 0.387 7.92 3.67 10.41
2/16/2023 11:30:00 PM 8.88 47.984 0.387 7.91 3.77 10.37
2/16/2023 11:45:00 PM 8.89 48.002 0.387 7.91 3.68 10.29
2/17/2023 12:00:00 AM 8.88 47.984 0.386 7.91 3.76 10.28
2/17/2023 12:15:00 AM 8.88 47.984 0.386 7.9 3.55 10.28
2/17/2023 12:30:00 AM 8.88 47.984 0.386 7.9 3.68 10.3
2/17/2023 12:45:00 AM 8.87 47.966 0.386 7.89 3.68 10.28
2/17/2023 1:00:00 AM 8.87 47.966 0.386 7.89 3.65 10.26
2/17/2023 1:15:00 AM 8.86 47.948 0.386 7.89 3.67 10.25
2/17/2023 1:30:00 AM 8.86 47.948 0.386 7.88 3.83 10.22
2/17/2023 1:45:00 AM 8.86 47.948 0.385 7.88 3.81 10.18
2/17/2023 2:00:00 AM 8.85 47.93 0.385 7.87 3.85 10.15
2/17/2023 2:15:00 AM 8.85 47.93 0.385 7.87 4.01 10.13
2/17/2023 2:30:00 AM 8.85 47.93 0.385 7.87 3.76 10.14
2/17/2023 2:45:00 AM 8.84 47.912 0.385 7.87 3.76 10.11
2/17/2023 3:00:00 AM 8.84 47.912 0.385 7.86 4 10.07
2/17/2023 3:15:00 AM 8.84 47.912 0.385 7.86 3.95 10.1
2/17/2023 3:30:00 AM 8.83 47.894 0.385 7.86 3.97 10.06
2/17/2023 3:45:00 AM 8.83 47.894 0.385 7.86 14.86 10.05
2/17/2023 4:00:00 AM 8.83 47.894 0.386 7.85 12.76 10.1
2/17/2023 4:15:00 AM 8.82 47.876 0.386 7.85 4.27 10.08
2/17/2023 4:30:00 AM 8.81 47.858 0.386 7.85 3.98 10.09
2/17/2023 4:45:00 AM 8.81 47.858 0.386 7.85 3.91 10.05
2/17/2023 5:00:00 AM 8.8 47.84 0.386 7.84 3.98 10.04
2/17/2023 5:15:00 AM 8.8 47.84 0.386 7.84 3.91 10.05
2/17/2023 5:30:00 AM 8.8 47.84 0.386 7.84 4.02 10.05
2/17/2023 5:45:00 AM 8.8 47.84 0.386 7.84 3.99 10.06
2/17/2023 6:00:00 AM 8.81 47.858 0.386 7.84 4.09 10.05
2/17/2023 6:15:00 AM 8.82 47.876 0.385 7.84 4 10.04
2/17/2023 6:30:00 AM 8.86 47.948 0.385 7.83 4.19 10.05
2/17/2023 6:45:00 AM 8.87 47.966 0.385 7.83 4 10.03
2/17/2023 7:00:00 AM 8.89 48.002 0.385 7.83 4.39 10.03
2/17/2023 7:15:00 AM 8.9 48.02 0.385 7.83 4.98 10.03
2/17/2023 7:30:00 AM 8.92 48.056 0.385 7.83 4.44 10.01
2/17/2023 7:45:00 AM 8.94 48.092 0.385 7.83 4.33 10.04
2/17/2023 8:00:00 AM 8.96 48.128 0.385 7.84 3.93 10.01
2/17/2023 8:15:00 AM 8.99 48.182 0.385 7.84 4.05 10.05
2/17/2023 8:30:00 AM 9.02 48.236 0.385 7.85 12.14 10.11
2/17/2023 8:45:00 AM 9.05 48.29 0.385 7.86 4.17 10.21
2/17/2023 9:00:00 AM 9.05 48.29 0.385 7.87 9.44 10.34
2/17/2023 9:15:00 AM 9.06 48.308 0.385 7.89 6.69 10.49
2/17/2023 9:30:00 AM 9.1 48.38 0.385 7.91 8.68 10.66
2/17/2023 9:45:00 AM 9.12 48.416 0.385 7.92 11.09 10.85
2/17/2023 10:00:00 AM 9.14 48.452 0.385 7.93 10.58 10.89
2/17/2023 10:15:00 AM 9.16 48.488 0.385 7.92 3.03 10.87
2/17/2023 10:30:00 AM 9.17 48.506 0.386 7.92 3.25 10.86
2/17/2023 10:45:00 AM 9.23 48.614 0.384 7.93 3.92 10.85
2/17/2023 11:00:00 AM 9.24 48.632 0.384 7.93 3.48 10.84
2/17/2023 11:15:00 AM 9.26 48.668 0.384 7.93 5.64 10.79
2/17/2023 11:30:00 AM 9.25 48.65 0.384 7.95 151.22 10.91
2/17/2023 11:45:00 AM 9.24 48.632 0.384 7.97 99.98 11.03
2/17/2023 12:00:00 PM 9.21 48.578 0.384 7.99 6.87 11.26
2/17/2023 12:15:00 PM 9.18 48.524 0.384 8.01 3.14 11.38
2/17/2023 12:30:00 PM 9.15 48.47 0.384 8.02 12.86 11.47
2/17/2023 12:45:00 PM 9.17 48.506 0.384 8.07 19.85 11.7
2/17/2023 1:00:00 PM 9.22 48.596 0.383 8.13 13.05 12.06
2/17/2023 1:15:00 PM 9.28 48.704 0.383 8.22 9.46 12.51
2/17/2023 1:30:00 PM 9.35 48.83 0.383 8.29 113.63 12.89
2/17/2023 1:45:00 PM 9.38 48.884 0.382 8.35 5.56 13.09
2/17/2023 2:00:00 PM 9.45 49.01 0.382 8.41 4.94 13.3
2/17/2023 2:15:00 PM 9.47 49.046 0.381 8.45 2.79 13.49
2/17/2023 2:30:00 PM 9.45 49.01 0.381 8.46 5.1 13.4
2/17/2023 2:45:00 PM 9.45 49.01 0.38 8.48 3.91 13.52
2/17/2023 3:00:00 PM 9.42 48.956 0.38 8.49 2.92 13.52
2/17/2023 3:15:00 PM 9.37 48.866 0.381 8.49 4.36 13.44
2/17/2023 3:30:00 PM 9.29 48.722 0.381 8.47 5.38 13.39
2/17/2023 3:45:00 PM 9.21 48.578 0.381 8.44 2.93 13.22
2/17/2023 4:00:00 PM 9.14 48.452 0.381 8.42 48.59 13.08
2/17/2023 4:15:00 PM 9.07 48.326 0.381 8.39 4.67 12.92
2/17/2023 4:30:00 PM 9.02 48.236 0.38 8.36 9.17 12.76
2/17/2023 4:45:00 PM 9 48.2 0.38 8.35 6.09 12.67
2/17/2023 5:00:00 PM 8.95 48.11 0.381 8.32 11.26 12.52
2/17/2023 5:15:00 PM 8.9 48.02 0.381 8.3 6.64 12.4
2/17/2023 5:30:00 PM 8.85 47.93 0.381 8.27 5.68 12.21
2/17/2023 5:45:00 PM 8.8 47.84 0.381 8.24 2.98 12
2/17/2023 6:00:00 PM 8.75 47.75 0.381 8.21 3 11.83
2/17/2023 6:15:00 PM 8.69 47.642 0.381 8.18 3.02 11.68
2/17/2023 6:30:00 PM 8.64 47.552 0.381 8.17 2.99 11.57
2/17/2023 6:45:00 PM 8.57 47.426 0.381 8.15 3.06 11.49
2/17/2023 7:00:00 PM 8.51 47.318 0.381 8.14 2.99 11.42
2/17/2023 7:15:00 PM 8.44 47.192 0.382 8.14 3.08 11.38
2/17/2023 7:30:00 PM 8.37 47.066 0.382 8.13 3.16 11.34
2/17/2023 7:45:00 PM 8.31 46.958 0.382 8.13 3.13 11.32
2/17/2023 8:00:00 PM 8.27 46.886 0.382 8.12 3 11.29
2/17/2023 8:15:00 PM 8.22 46.796 0.382 8.11 3.05 11.26
2/17/2023 8:30:00 PM 8.15 46.67 0.382 8.11 3.62 11.22
2/17/2023 8:45:00 PM 8.09 46.562 0.382 8.1 3.2 11.2
2/17/2023 9:00:00 PM 8 46.4 0.382 8.08 3.17 11.15
2/17/2023 9:15:00 PM 7.93 46.274 0.382 8.07 3.15 11.11
2/17/2023 9:30:00 PM 7.85 46.13 0.383 8.06 3.16 11.05
2/17/2023 9:45:00 PM 7.78 46.004 0.383 8.05 3.1 11.04
2/17/2023 10:00:00 PM 7.71 45.878 0.383 8.03 3.13 11
2/17/2023 10:15:00 PM 7.66 45.788 0.383 8.02 3.19 10.95
2/17/2023 10:30:00 PM 7.6 45.68 0.384 8.01 3.32 10.92
2/17/2023 10:45:00 PM 7.54 45.572 0.384 8 3.3 10.89
2/17/2023 11:00:00 PM 7.47 45.446 0.384 7.99 3.26 10.88
2/17/2023 11:15:00 PM 7.4 45.32 0.384 7.98 3.18 10.88
2/17/2023 11:30:00 PM 7.33 45.194 0.385 7.97 3.17 10.89
2/17/2023 11:45:00 PM 7.24 45.032 0.385 7.97 3.27 10.86
2/18/2023 12:00:00 AM 7.17 44.906 0.385 7.96 3.24 10.86
2/18/2023 12:15:00 AM 7.08 44.744 0.385 7.95 3.27 10.87
2/18/2023 12:30:00 AM 6.99 44.582 0.385 7.95 3.26 10.88
2/18/2023 12:45:00 AM 6.91 44.438 0.385 7.95 3.23 10.9
2/18/2023 1:00:00 AM 6.83 44.294 0.385 7.94 3.35 10.9
2/18/2023 1:15:00 AM 6.76 44.168 0.386 7.93 3.23 10.89
2/18/2023 1:30:00 AM 6.7 44.06 0.386 7.93 3.2 10.87
2/18/2023 1:45:00 AM 6.62 43.916 0.386 7.93 4.21 10.86
2/18/2023 2:00:00 AM 6.54 43.772 0.386 7.92 3.65 10.85
2/18/2023 2:15:00 AM 6.46 43.628 0.386 7.92 3.95 10.9
2/18/2023 2:30:00 AM 6.38 43.484 0.386 7.91 6.39 10.9
2/18/2023 2:45:00 AM 6.28 43.304 0.386 7.91 4.51 10.94
2/18/2023 3:00:00 AM 6.19 43.142 0.386 7.91 3.67 10.95
2/18/2023 3:15:00 AM 6.1 42.98 0.387 7.91 3.56 10.98
2/18/2023 3:30:00 AM 6.01 42.818 0.387 7.9 3.63 10.97
2/18/2023 3:45:00 AM 5.92 42.656 0.387 7.9 3.69 11.03
2/18/2023 4:00:00 AM 5.85 42.53 0.388 7.9 3.52 10.99
2/18/2023 4:15:00 AM 5.77 42.386 0.388 7.9 3.37 10.98
2/18/2023 4:30:00 AM 5.72 42.296 0.388 7.89 3.27 11
2/18/2023 4:45:00 AM 5.66 42.188 0.389 7.89 3.28 11.09
2/18/2023 5:00:00 AM 5.6 42.08 0.389 7.89 3.17 11.06
2/18/2023 5:15:00 AM 5.54 41.972 0.389 7.89 3.3 11.09
2/18/2023 5:30:00 AM 5.48 41.864 0.39 7.88 3.26 11.12
2/18/2023 5:45:00 AM 5.42 41.756 0.39 7.88 3.15 11.11
2/18/2023 6:00:00 AM 5.36 41.648 0.39 7.88 3.12 11.15
2/18/2023 6:15:00 AM 5.29 41.522 0.391 7.88 3.23 11.17
2/18/2023 6:30:00 AM 5.23 41.414 0.391 7.88 3.3 11.21
2/18/2023 6:45:00 AM 5.16 41.288 0.391 7.87 3.48 11.21
2/18/2023 7:00:00 AM 5.08 41.144 0.392 7.87 3.29 11.24
2/18/2023 7:15:00 AM 5.01 41.018 0.392 7.87 3.09 11.24
2/18/2023 7:30:00 AM 4.95 40.91 0.392 7.88 3.21 11.26
2/18/2023 7:45:00 AM 4.92 40.856 0.392 7.89 3.13 11.44
2/18/2023 8:00:00 AM 4.88 40.784 0.392 7.91 2.99 11.62
2/18/2023 8:15:00 AM 4.86 40.748 0.392 7.93 2.9 11.81
2/18/2023 8:30:00 AM 4.85 40.73 0.392 7.96 2.99 12.1
2/18/2023 8:45:00 AM 4.85 40.73 0.392 7.99 3.01 12.29
2/18/2023 9:00:00 AM 4.86 40.748 0.392 8.02 3.09 12.57
2/18/2023 9:15:00 AM 4.88 40.784 0.392 8.05 3.4 12.81
2/18/2023 9:30:00 AM 4.91 40.838 0.392 8.08 3.37 13.14
2/18/2023 9:45:00 AM 4.95 40.91 0.392 8.12 3.45 13.36
2/18/2023 10:00:00 AM 5.03 41.054 0.392 8.15 3.33 13.49
2/18/2023 10:15:00 AM 5.12 41.216 0.392 8.18 2.91 13.71
2/18/2023 10:30:00 AM 5.22 41.396 0.392 8.21 3.04 13.87
2/18/2023 10:45:00 AM 5.32 41.576 0.392 8.23 3.29 14.11
2/18/2023 11:00:00 AM 5.43 41.774 0.392 8.26 3.1 14.24
2/18/2023 11:15:00 AM 5.53 41.954 0.392 8.28 3.17 14.31
2/18/2023 11:30:00 AM 5.64 42.152 0.392 8.3 3.25 14.44
2/18/2023 11:45:00 AM 5.74 42.332 0.392 8.32 3.21 14.5
2/18/2023 12:00:00 PM 5.86 42.548 0.392 8.34 3.21 14.56
2/18/2023 12:15:00 PM 5.97 42.746 0.391 8.36 3.23 14.65
2/18/2023 12:30:00 PM 6.1 42.98 0.391 8.39 3.27 14.69
2/18/2023 12:45:00 PM 6.21 43.178 0.391 8.41 3.12 14.78
2/18/2023 1:00:00 PM 6.3 43.34 0.391 8.43 3.3 14.82
2/18/2023 1:15:00 PM 6.39 43.502 0.391 8.45 3.59 14.83
2/18/2023 1:30:00 PM 6.45 43.61 0.391 8.46 3.62 14.87
2/18/2023 1:45:00 PM 6.5 43.7 0.391 8.48 3.54 14.88
2/18/2023 2:00:00 PM 6.52 43.736 0.391 8.49 3.15 14.94
2/18/2023 2:15:00 PM 6.51 43.718 0.392 8.5 3.2 14.91
2/18/2023 2:30:00 PM 6.52 43.736 0.392 8.51 3.21 14.93
2/18/2023 2:45:00 PM 6.55 43.79 0.392 8.52 2.93 14.98
2/18/2023 3:00:00 PM 6.56 43.808 0.392 8.53 3.26 14.94
2/18/2023 3:15:00 PM 6.56 43.808 0.392 8.53 3.29 14.87
2/18/2023 3:30:00 PM 6.54 43.772 0.392 8.53 2.88 14.94
2/18/2023 3:45:00 PM 6.5 43.7 0.392 8.53 2.74 14.84
2/18/2023 4:00:00 PM 6.47 43.646 0.393 8.52 2.67 14.74
2/18/2023 4:15:00 PM 6.43 43.574 0.393 8.5 2.76 14.62
2/18/2023 4:30:00 PM 6.39 43.502 0.393 8.48 2.88 14.53
2/18/2023 4:45:00 PM 6.35 43.43 0.394 8.46 3.04 14.38
2/18/2023 5:00:00 PM 6.33 43.394 0.394 8.43 3.19 14.21
2/18/2023 5:15:00 PM 6.31 43.358 0.394 8.4 3.23 14.06
2/18/2023 5:30:00 PM 6.3 43.34 0.395 8.37 3.68 13.86
2/18/2023 5:45:00 PM 6.28 43.304 0.395 8.33 3.36 13.66
2/18/2023 6:00:00 PM 6.27 43.286 0.395 8.28 2.85 13.4
2/18/2023 6:15:00 PM 6.26 43.268 0.396 8.25 2.69 13.17
2/18/2023 6:30:00 PM 6.25 43.25 0.396 8.22 2.8 12.96
2/18/2023 6:45:00 PM 6.23 43.214 0.396 8.19 2.92 12.77
2/18/2023 7:00:00 PM 6.21 43.178 0.396 8.16 2.75 12.6
2/18/2023 7:15:00 PM 6.18 43.124 0.396 8.15 2.72 12.46
2/18/2023 7:30:00 PM 6.15 43.07 0.397 8.14 2.72 12.39
2/18/2023 7:45:00 PM 6.11 42.998 0.396 8.13 2.67 12.32
2/18/2023 8:00:00 PM 6.07 42.926 0.397 8.12 2.75 12.28
2/18/2023 8:15:00 PM 6.02 42.836 0.397 8.12 2.99 12.21
2/18/2023 8:30:00 PM 5.98 42.764 0.397 8.11 2.91 12.2
2/18/2023 8:45:00 PM 5.94 42.692 0.397 8.1 2.79 12.2
2/18/2023 9:00:00 PM 5.9 42.62 0.397 8.09 3.1 12.19
2/18/2023 9:15:00 PM 5.86 42.548 0.397 8.09 2.94 12.12
2/18/2023 9:30:00 PM 5.81 42.458 0.397 8.08 2.81 12.09
2/18/2023 9:45:00 PM 5.76 42.368 0.397 8.07 3.2 12.05
2/18/2023 10:00:00 PM 5.69 42.242 0.397 8.06 3.16 11.99
2/18/2023 10:15:00 PM 5.63 42.134 0.398 8.04 2.85 11.94
2/18/2023 10:30:00 PM 5.57 42.026 0.398 8.03 2.73 11.89
2/18/2023 10:45:00 PM 5.51 41.918 0.398 8.02 3.36 11.86
2/18/2023 11:00:00 PM 5.46 41.828 0.398 8.01 2.96 11.82
2/18/2023 11:15:00 PM 5.41 41.738 0.398 8 2.83 11.79
2/18/2023 11:30:00 PM 5.37 41.666 0.398 7.99 2.83 11.74
2/18/2023 11:45:00 PM 5.33 41.594 0.399 7.98 2.98 11.7
2/19/2023 12:00:00 AM 5.29 41.522 0.399 7.97 2.87 11.67
2/19/2023 12:15:00 AM 5.26 41.468 0.399 7.96 2.96 11.58
2/19/2023 12:30:00 AM 5.23 41.414 0.399 7.96 3.22 11.58
2/19/2023 12:45:00 AM 5.21 41.378 0.399 7.95 4.15 11.56
2/19/2023 1:00:00 AM 5.18 41.324 0.399 7.94 3.56 11.57
2/19/2023 1:15:00 AM 5.15 41.27 0.399 7.94 3.05 11.57
2/19/2023 1:30:00 AM 5.13 41.234 0.399 7.93 3.05 11.57
2/19/2023 1:45:00 AM 5.11 41.198 0.399 7.93 2.93 11.52
2/19/2023 2:00:00 AM 5.08 41.144 0.399 7.92 2.87 11.5
2/19/2023 2:15:00 AM 5.05 41.09 0.4 7.92 2.87 11.48
2/19/2023 2:30:00 AM 5.02 41.036 0.4 7.92 3.03 11.44
2/19/2023 2:45:00 AM 4.99 40.982 0.4 7.91 3.28 11.45
2/19/2023 3:00:00 AM 4.96 40.928 0.4 7.91 3.2 11.45
2/19/2023 3:15:00 AM 4.93 40.874 0.4 7.9 3.17 11.45
2/19/2023 3:30:00 AM 4.9 40.82 0.4 7.9 3.03 11.43
2/19/2023 3:45:00 AM 4.88 40.784 0.4 7.9 3.09 11.39
2/19/2023 4:00:00 AM 4.85 40.73 0.4 7.89 3.16 11.38
2/19/2023 4:15:00 AM 4.82 40.676 0.4 7.89 3.08 11.37
2/19/2023 4:30:00 AM 4.79 40.622 0.4 7.89 3.26 11.43
2/19/2023 4:45:00 AM 4.77 40.586 0.4 7.89 3.25 11.43
2/19/2023 5:00:00 AM 4.75 40.55 0.401 7.88 3.13 11.45
2/19/2023 5:15:00 AM 4.72 40.496 0.401 7.88 3.37 11.45
2/19/2023 5:30:00 AM 4.7 40.46 0.401 7.88 3.1 11.45
2/19/2023 5:45:00 AM 4.67 40.406 0.401 7.88 2.86 11.43
2/19/2023 6:00:00 AM 4.65 40.37 0.401 7.87 3.05 11.44
2/19/2023 6:15:00 AM 4.63 40.334 0.401 7.87 2.9 11.49
2/19/2023 6:30:00 AM 4.6 40.28 0.401 7.87 3 11.54
2/19/2023 6:45:00 AM 4.57 40.226 0.401 7.87 2.96 11.56
2/19/2023 7:00:00 AM 4.56 40.208 0.401 7.87 2.93 11.56
2/19/2023 7:15:00 AM 4.54 40.172 0.402 7.87 2.86 11.55
2/19/2023 7:30:00 AM 4.53 40.154 0.402 7.88 3.95 11.62
2/19/2023 7:45:00 AM 4.53 40.154 0.402 7.89 5.49 11.68
2/19/2023 8:00:00 AM 4.53 40.154 0.402 7.91 3.26 11.81
2/19/2023 8:15:00 AM 4.57 40.226 0.401 7.94 4.42 12.08
2/19/2023 8:30:00 AM 4.63 40.334 0.401 7.97 4.1 12.3
2/19/2023 8:45:00 AM 4.68 40.424 0.401 8 3.54 12.47
2/19/2023 9:00:00 AM 4.71 40.478 0.401 8.03 3.72 12.69
2/19/2023 9:15:00 AM 4.76 40.568 0.401 8.06 3.71 12.83
2/19/2023 9:30:00 AM 4.83 40.694 0.401 8.1 3.59 13.15
2/19/2023 9:45:00 AM 4.91 40.838 0.401 8.13 3.03 13.37
2/19/2023 10:00:00 AM 4.98 40.964 0.401 8.16 3.3 13.58
2/19/2023 10:15:00 AM 5.08 41.144 0.4 8.2 3.28 13.7
2/19/2023 10:30:00 AM 5.22 41.396 0.4 8.23 5.12 13.92
2/19/2023 10:45:00 AM 5.38 41.684 0.4 8.26 4.64 14.04
2/19/2023 11:00:00 AM 5.55 41.99 0.4 8.28 3.32 14.23
2/19/2023 11:15:00 AM 5.69 42.242 0.4 8.3 3.43 14.39
2/19/2023 11:30:00 AM 5.81 42.458 0.399 8.32 5.31 14.45
2/19/2023 11:45:00 AM 5.93 42.674 0.399 8.34 3.94 14.54
2/19/2023 12:00:00 PM 6.07 42.926 0.399 8.36 3.69 14.62
2/19/2023 12:15:00 PM 6.2 43.16 0.398 8.38 5.6 14.7
2/19/2023 12:30:00 PM 6.36 43.448 0.398 8.4 3.58 14.72
2/19/2023 12:45:00 PM 6.53 43.754 0.398 8.42 3.68 14.74
2/19/2023 1:00:00 PM 6.64 43.952 0.398 8.44 6.95 14.79
2/19/2023 1:15:00 PM 6.77 44.186 0.398 8.46 5.8 14.88
2/19/2023 1:30:00 PM 6.87 44.366 0.398 8.48 4.7 14.85
2/19/2023 1:45:00 PM 6.91 44.438 0.398 8.49 3.13 14.8
2/19/2023 2:00:00 PM 6.93 44.474 0.398 8.49 5.02 14.91
2/19/2023 2:15:00 PM 7.02 44.636 0.397 8.51 3.13 14.9
2/19/2023 2:30:00 PM 6.99 44.582 0.397 8.51 4.13 14.87
2/19/2023 2:45:00 PM 7.04 44.672 0.397 8.52 3.88 14.86
2/19/2023 3:00:00 PM 7.07 44.726 0.397 8.53 8.42 14.8
2/19/2023 3:15:00 PM 7.05 44.69 0.397 8.53 6.49 14.79
2/19/2023 3:30:00 PM 7.03 44.654 0.397 8.53 5.66 14.73
2/19/2023 3:45:00 PM 7.04 44.672 0.397 8.53 4.78 14.66
2/19/2023 4:00:00 PM 7.05 44.69 0.397 8.53 6.25 14.61
2/19/2023 4:15:00 PM 7.04 44.672 0.397 8.52 3.1 14.53
2/19/2023 4:30:00 PM 7.04 44.672 0.397 8.51 9.2 14.42
2/19/2023 4:45:00 PM 7.04 44.672 0.397 8.5 9.24 14.33
2/19/2023 5:00:00 PM 7.07 44.726 0.398 8.47 9.68 14.17
2/19/2023 5:15:00 PM 7.11 44.798 0.398 8.43 9.19 13.96
2/19/2023 5:30:00 PM 7.12 44.816 0.398 8.4 57.92 13.69
2/19/2023 5:45:00 PM 7.12 44.816 0.398 8.37 3.59 13.24
2/19/2023 6:00:00 PM 7.12 44.816 0.399 8.31 951.96 12.85
2/19/2023 6:15:00 PM 7.11 44.798 0.399 8.27 23.41 12.07
2/19/2023 6:30:00 PM 7.11 44.798 0.399 8.24 2.94 11.86
2/19/2023 6:45:00 PM 7.11 44.798 0.399 8.22 2.92 12.22
2/19/2023 7:00:00 PM 7.11 44.798 0.399 8.19 2.97 12.19
2/19/2023 7:15:00 PM 7.11 44.798 0.399 8.18 2.78 12.03
2/19/2023 7:30:00 PM 7.11 44.798 0.399 8.17 2.88 11.84
2/19/2023 7:45:00 PM 7.11 44.798 0.399 8.16 2.7 11.71
2/19/2023 8:00:00 PM 7.11 44.798 0.399 8.15 2.74 11.71
2/19/2023 8:15:00 PM 7.11 44.798 0.399 8.14 2.78 11.65
2/19/2023 8:30:00 PM 7.1 44.78 0.399 8.14 2.69 11.7
2/19/2023 8:45:00 PM 7.1 44.78 0.399 8.13 2.82 11.72
2/19/2023 9:00:00 PM 7.09 44.762 0.399 8.12 2.79 11.68
2/19/2023 9:15:00 PM 7.07 44.726 0.399 8.11 2.71 11.6
2/19/2023 9:30:00 PM 7.05 44.69 0.399 8.1 2.82 11.56
2/19/2023 9:45:00 PM 7.02 44.636 0.4 8.09 2.86 11.54
2/19/2023 10:00:00 PM 7 44.6 0.4 8.08 2.97 11.5
2/19/2023 10:15:00 PM 6.97 44.546 0.4 8.07 3.04 11.44
2/19/2023 10:30:00 PM 6.94 44.492 0.4 8.06 3.1 11.34
2/19/2023 10:45:00 PM 6.91 44.438 0.4 8.04 2.9 11.25
2/19/2023 11:00:00 PM 6.88 44.384 0.4 8.03 3.12 11.22
2/19/2023 11:15:00 PM 6.84 44.312 0.4 8.02 2.88 11.17
2/19/2023 11:30:00 PM 6.8 44.24 0.4 8.01 2.95 11.12
2/19/2023 11:45:00 PM 6.77 44.186 0.4 8 2.96 11.08
2/20/2023 12:00:00 AM 6.73 44.114 0.4 7.99 3.42 11.05
2/20/2023 12:15:00 AM 6.69 44.042 0.4 7.99 2.83 10.99
2/20/2023 12:30:00 AM 6.65 43.97 0.401 7.98 2.89 10.95
2/20/2023 12:45:00 AM 6.61 43.898 0.4 7.97 3.05 10.91
2/20/2023 1:00:00 AM 6.58 43.844 0.401 7.96 3.05 10.91
2/20/2023 1:15:00 AM 6.56 43.808 0.401 7.96 3 10.88
2/20/2023 1:30:00 AM 6.53 43.754 0.401 7.95 3.03 10.85
2/20/2023 1:45:00 AM 6.51 43.718 0.401 7.94 3.02 10.84
2/20/2023 2:00:00 AM 6.49 43.682 0.401 7.94 3.17 10.81
2/20/2023 2:15:00 AM 6.46 43.628 0.401 7.93 3.01 10.79
2/20/2023 2:30:00 AM 6.43 43.574 0.401 7.93 2.98 10.81
2/20/2023 2:45:00 AM 6.41 43.538 0.401 7.92 2.92 10.81
2/20/2023 3:00:00 AM 6.37 43.466 0.401 7.92 3 10.76
2/20/2023 3:15:00 AM 6.34 43.412 0.401 7.91 3.02 10.74
2/20/2023 3:30:00 AM 6.31 43.358 0.401 7.91 2.95 10.74
2/20/2023 3:45:00 AM 6.29 43.322 0.401 7.91 3.11 10.72
2/20/2023 4:00:00 AM 6.26 43.268 0.401 7.9 3.14 10.69
2/20/2023 4:15:00 AM 6.23 43.214 0.401 7.9 3.14 10.72
2/20/2023 4:30:00 AM 6.2 43.16 0.401 7.89 3.14 10.74
2/20/2023 4:45:00 AM 6.18 43.124 0.401 7.89 3.22 10.74
2/20/2023 5:00:00 AM 6.16 43.088 0.401 7.89 3.06 10.69
2/20/2023 5:15:00 AM 6.14 43.052 0.401 7.89 3.24 10.68
2/20/2023 5:30:00 AM 6.11 42.998 0.401 7.88 3.31 10.66
2/20/2023 5:45:00 AM 6.09 42.962 0.401 7.88 3.51 10.71
2/20/2023 6:00:00 AM 6.07 42.926 0.401 7.88 3.12 10.69
2/20/2023 6:15:00 AM 6.05 42.89 0.401 7.87 3.04 10.68
2/20/2023 6:30:00 AM 6.02 42.836 0.401 7.87 3.18 10.69
2/20/2023 6:45:00 AM 6 42.8 0.401 7.87 3.94 10.69
2/20/2023 7:00:00 AM 5.98 42.764 0.402 7.87 3.29 10.67
2/20/2023 7:15:00 AM 5.95 42.71 0.402 7.87 3.2 10.65
2/20/2023 7:30:00 AM 5.94 42.692 0.402 7.87 3.25 10.7
2/20/2023 7:45:00 AM 5.93 42.674 0.402 7.88 4.47 10.76
2/20/2023 8:00:00 AM 5.94 42.692 0.401 7.9 3.6 10.85
2/20/2023 8:15:00 AM 5.97 42.746 0.401 7.92 3.78 10.95
2/20/2023 8:30:00 AM 6 42.8 0.401 7.94 3.19 11.13
2/20/2023 8:45:00 AM 6.04 42.872 0.401 7.97 3.13 11.35
2/20/2023 9:00:00 AM 6.09 42.962 0.401 8 3.09 11.55
2/20/2023 9:15:00 AM 6.13 43.034 0.401 8.03 2.99 11.87
2/20/2023 9:30:00 AM 6.19 43.142 0.4 8.07 2.97 12.15
2/20/2023 9:45:00 AM 6.25 43.25 0.4 8.11 4.55 12.4
2/20/2023 10:00:00 AM 6.31 43.358 0.4 8.14 3.74 12.63
2/20/2023 10:15:00 AM 6.44 43.592 0.4 8.17 2.99 12.86
2/20/2023 10:30:00 AM 6.61 43.898 0.399 8.21 4.35 13.03
2/20/2023 10:45:00 AM 6.75 44.15 0.399 8.25 4.79 13.17
2/20/2023 11:00:00 AM 6.85 44.33 0.399 8.28 2.98 13.31
2/20/2023 11:15:00 AM 7.08 44.744 0.399 8.32 3.37 13.6
2/20/2023 11:30:00 AM 7.24 45.032 0.398 8.34 2.83 13.79
2/20/2023 11:45:00 AM 7.37 45.266 0.399 8.36 2.91 13.85
2/20/2023 12:00:00 PM 7.56 45.608 0.398 8.38 3.09 13.88
2/20/2023 12:15:00 PM 7.78 46.004 0.398 8.41 2.85 13.99
2/20/2023 12:30:00 PM 7.99 46.382 0.397 8.45 5.67 14.05
2/20/2023 12:45:00 PM 8.11 46.598 0.397 8.47 2.93 14.28
2/20/2023 1:00:00 PM 8.27 46.886 0.397 8.49 3.1 14.35
2/20/2023 1:15:00 PM 8.41 47.138 0.396 8.52 3.13 14.45
2/20/2023 1:30:00 PM 8.46 47.228 0.396 8.54 3.71 14.43
2/20/2023 1:45:00 PM 8.56 47.408 0.396 8.56 4.68 14.4
2/20/2023 2:00:00 PM 8.54 47.372 0.396 8.57 3.69 14.45
2/20/2023 2:15:00 PM 8.58 47.444 0.396 8.59 3.76 14.4
2/20/2023 2:30:00 PM 8.69 47.642 0.396 8.61 3.61 14.45
2/20/2023 2:45:00 PM 8.65 47.57 0.396 8.62 9.71 14.45
2/20/2023 3:00:00 PM 8.65 47.57 0.396 8.62 3.06 14.43
2/20/2023 3:15:00 PM 8.63 47.534 0.396 8.6 3.1 14.4
2/20/2023 3:30:00 PM 8.59 47.462 0.396 8.57 2.99 14.23
2/20/2023 3:45:00 PM 8.56 47.408 0.397 8.52 6.14 14.01
2/20/2023 4:00:00 PM 8.53 47.354 0.397 8.47 6.22 13.74
2/20/2023 4:15:00 PM 8.53 47.354 0.397 8.44 10.48 13.47
2/20/2023 4:30:00 PM 8.57 47.426 0.397 8.44 5.82 13.3
2/20/2023 4:45:00 PM 8.57 47.426 0.397 8.43 2.9 13.18
2/20/2023 5:00:00 PM 8.61 47.498 0.397 8.4 4.55 13.05
2/20/2023 5:15:00 PM 8.66 47.588 0.398 8.38 3.5 12.9
2/20/2023 5:30:00 PM 8.7 47.66 0.398 8.35 2.72 12.7
2/20/2023 5:45:00 PM 8.74 47.732 0.398 8.31 2.69 12.53
2/20/2023 6:00:00 PM 8.76 47.768 0.398 8.29 2.77 12.32
2/20/2023 6:15:00 PM 8.77 47.786 0.398 8.26 2.85 12.12
2/20/2023 6:30:00 PM 8.77 47.786 0.398 8.24 2.92 11.88
2/20/2023 6:45:00 PM 8.76 47.768 0.398 8.22 2.8 11.71
2/20/2023 7:00:00 PM 8.77 47.786 0.398 8.2 2.81 11.57
2/20/2023 7:15:00 PM 8.77 47.786 0.398 8.19 2.7 11.44
2/20/2023 7:30:00 PM 8.78 47.804 0.398 8.18 2.91 11.34
2/20/2023 7:45:00 PM 8.77 47.786 0.398 8.17 2.73 11.25
2/20/2023 8:00:00 PM 8.77 47.786 0.399 8.16 2.84 11.16
2/20/2023 8:15:00 PM 8.77 47.786 0.399 8.15 2.88 11.08
2/20/2023 8:30:00 PM 8.74 47.732 0.399 8.14 2.72 11.03
2/20/2023 8:45:00 PM 8.7 47.66 0.398 8.13 2.72 10.98
2/20/2023 9:00:00 PM 8.65 47.57 0.399 8.12 3.06 10.92
2/20/2023 9:15:00 PM 8.58 47.444 0.399 8.11 2.9 10.87
2/20/2023 9:30:00 PM 8.5 47.3 0.399 8.1 2.74 10.82
2/20/2023 9:45:00 PM 8.42 47.156 0.399 8.09 2.77 10.78
2/20/2023 10:00:00 PM 8.35 47.03 0.399 8.07 2.72 10.74
2/20/2023 10:15:00 PM 8.3 46.94 0.399 8.06 3.16 10.72
2/20/2023 10:30:00 PM 8.26 46.868 0.399 8.04 4.05 10.65
2/20/2023 10:45:00 PM 8.21 46.778 0.4 8.03 3.94 10.6
2/20/2023 11:00:00 PM 8.19 46.742 0.4 8.02 4.1 10.55
2/20/2023 11:15:00 PM 8.17 46.706 0.4 8.01 7.34 10.51
2/20/2023 11:30:00 PM 8.16 46.688 0.4 8 5.89 10.44
2/20/2023 11:45:00 PM 8.16 46.688 0.4 7.99 3.81 10.38
2/21/2023 12:00:00 AM 8.15 46.67 0.4 7.98 6.3 10.33
2/21/2023 12:15:00 AM 8.15 46.67 0.4 7.97 4.87 10.31
2/21/2023 12:30:00 AM 8.14 46.652 0.4 7.96 3.28 10.29
2/21/2023 12:45:00 AM 8.14 46.652 0.4 7.95 3.24 10.26
2/21/2023 1:00:00 AM 8.14 46.652 0.4 7.94 3.3 10.2
2/21/2023 1:15:00 AM 8.13 46.634 0.4 7.94 3.37 10.17
2/21/2023 1:30:00 AM 8.13 46.634 0.4 7.94 3.52 10.13
2/21/2023 1:45:00 AM 8.12 46.616 0.4 7.93 3.26 10.11
2/21/2023 2:00:00 AM 8.1 46.58 0.4 7.93 2.98 10.08
2/21/2023 2:15:00 AM 8.08 46.544 0.399 7.92 3.01 10.09
2/21/2023 2:30:00 AM 8.06 46.508 0.399 7.92 3.02 10.08
2/21/2023 2:45:00 AM 8.04 46.472 0.397 7.91 2.87 10.05
2/21/2023 3:00:00 AM 8.03 46.454 0.397 7.91 2.97 10
2/21/2023 3:15:00 AM 8.01 46.418 0.397 7.91 3.09 9.96
2/21/2023 3:30:00 AM 8 46.4 0.397 7.9 3.06 9.95
2/21/2023 3:45:00 AM 7.99 46.382 0.397 7.9 3.1 9.93
2/21/2023 4:00:00 AM 7.98 46.364 0.397 7.9 3.11 9.93
2/21/2023 4:15:00 AM 7.97 46.346 0.397 7.89 3.15 10.08
2/21/2023 4:30:00 AM 7.95 46.31 0.397 7.89 5.57 10.08
2/21/2023 4:45:00 AM 7.93 46.274 0.398 7.88 3.08 10.06
2/21/2023 5:00:00 AM 7.91 46.238 0.398 7.88 3.11 10.05
2/21/2023 5:15:00 AM 7.88 46.184 0.398 7.88 3.15 10.05
2/21/2023 5:30:00 AM 7.84 46.112 0.398 7.88 2.93 10.06
2/21/2023 5:45:00 AM 7.8 46.04 0.398 7.87 3.15 10.06
2/21/2023 6:00:00 AM 7.77 45.986 0.398 7.87 3.01 10.06
2/21/2023 6:15:00 AM 7.75 45.95 0.397 7.87 3.08 10.07
2/21/2023 6:30:00 AM 7.75 45.95 0.397 7.87 3.19 10.06
2/21/2023 6:45:00 AM 7.75 45.95 0.397 7.87 3.44 10.05
2/21/2023 7:00:00 AM 7.76 45.968 0.397 7.87 4.04 10.05
2/21/2023 7:15:00 AM 7.77 45.986 0.397 7.87 7.14 10.03
2/21/2023 7:30:00 AM 7.79 46.022 0.396 7.87 10.09 10.08
2/21/2023 7:45:00 AM 7.8 46.04 0.396 7.88 4.66 10.15
2/21/2023 8:00:00 AM 7.83 46.094 0.396 7.9 3.26 10.37
2/21/2023 8:15:00 AM 7.86 46.148 0.396 7.93 3.35 10.68
2/21/2023 8:30:00 AM 7.9 46.22 0.395 7.97 3.23 10.88
2/21/2023 8:45:00 AM 7.92 46.256 0.395 8 3.26 11.1
2/21/2023 9:00:00 AM 7.98 46.364 0.394 8.05 3.78 11.57
2/21/2023 9:15:00 AM 8.03 46.454 0.394 8.09 3.21 11.92
2/21/2023 9:30:00 AM 8.08 46.544 0.394 8.14 9.01 12.23
2/21/2023 9:45:00 AM 8.16 46.688 0.393 8.19 4.19 12.55
2/21/2023 10:00:00 AM 8.25 46.85 0.393 8.23 3.47 12.76
2/21/2023 10:15:00 AM 8.33 46.994 0.393 8.27 3.37 13.06
2/21/2023 10:30:00 AM 8.39 47.102 0.393 8.31 10.79 13.23
2/21/2023 10:45:00 AM 8.43 47.174 0.392 8.33 3.4 13.23
2/21/2023 11:00:00 AM 8.56 47.408 0.392 8.36 3.51 13.43
2/21/2023 11:15:00 AM 8.6 47.48 0.392 8.39 20.75 13.49
2/21/2023 11:30:00 AM 8.67 47.606 0.391 8.41 3.6 13.59
2/21/2023 11:45:00 AM 8.69 47.642 0.391 8.42 3.88 13.6
2/21/2023 12:00:00 PM 8.67 47.606 0.391 8.41 21.53 13.48
2/21/2023 12:15:00 PM 8.72 47.696 0.391 8.44 14.13 13.55
2/21/2023 12:30:00 PM 8.84 47.912 0.39 8.48 7.79 13.74
2/21/2023 12:45:00 PM 8.91 48.038 0.39 8.53 6.31 13.94
2/21/2023 1:00:00 PM 8.98 48.164 0.389 8.55 4.29 13.99
2/21/2023 1:15:00 PM 9.08 48.344 0.389 8.58 4.1 14.06
2/21/2023 1:30:00 PM 9.21 48.578 0.388 8.61 4.14 14.2
2/21/2023 1:45:00 PM 9.36 48.848 0.388 8.65 4.2 14.3
2/21/2023 2:00:00 PM 9.46 49.028 0.387 8.68 3.69 14.36
2/21/2023 2:15:00 PM 9.58 49.244 0.387 8.7 3.91 14.36
2/21/2023 2:30:00 PM 9.71 49.478 0.386 8.73 5.09 14.4
2/21/2023 2:45:00 PM 9.66 49.388 0.386 8.72 7.43 14.29
2/21/2023 3:00:00 PM 9.71 49.478 0.386 8.73 6.28 14.29
2/21/2023 3:15:00 PM 9.7 49.46 0.386 8.72 5.1 14.13
2/21/2023 3:30:00 PM 9.68 49.424 0.386 8.73 1496.97 14.07
2/21/2023 3:45:00 PM 9.66 49.388 0.386 8.73 5.53 13.98
2/21/2023 4:00:00 PM 9.62 49.316 0.386 8.74 4.46 13.91
2/21/2023 4:15:00 PM 9.56 49.208 0.386 8.71 4.53 13.73
2/21/2023 4:30:00 PM 9.51 49.118 0.386 8.68 4.58 13.48
2/21/2023 4:45:00 PM 9.46 49.028 0.387 8.65 5.27 13.24
2/21/2023 5:00:00 PM 9.4 48.92 0.387 8.61 4.47 12.98
2/21/2023 5:15:00 PM 9.35 48.83 0.388 8.57 4.12 12.72
2/21/2023 5:30:00 PM 9.32 48.776 0.388 8.53 4.3 12.51
2/21/2023 5:45:00 PM 9.29 48.722 0.388 8.5 4.53 12.29
2/21/2023 6:00:00 PM 9.27 48.686 0.388 8.46 3.86 12.06
2/21/2023 6:15:00 PM 9.25 48.65 0.389 8.43 4.35 11.88
2/21/2023 6:30:00 PM 9.23 48.614 0.389 8.4 4.58 11.71
2/21/2023 6:45:00 PM 9.2 48.56 0.389 8.37 5.09 11.56
2/21/2023 7:00:00 PM 9.16 48.488 0.39 8.35 3.83 11.43
2/21/2023 7:15:00 PM 9.12 48.416 0.39 8.33 9.32 11.35
2/21/2023 7:30:00 PM 9.08 48.344 0.389 8.32 10.47 11.28
2/21/2023 7:45:00 PM 9.03 48.254 0.389 8.32 6.47 11.22
2/21/2023 8:00:00 PM 8.99 48.182 0.389 8.3 5.37 11.15
2/21/2023 8:15:00 PM 8.94 48.092 0.389 8.29 10.07 11.09
2/21/2023 8:30:00 PM 8.9 48.02 0.389 8.28 3.26 11.04
2/21/2023 8:45:00 PM 8.84 47.912 0.389 8.26 3.26 11
2/21/2023 9:00:00 PM 8.78 47.804 0.389 8.25 3.25 10.93
2/21/2023 9:15:00 PM 8.71 47.678 0.389 8.23 3.32 10.9
2/21/2023 9:30:00 PM 8.63 47.534 0.39 8.21 3.16 10.86
2/21/2023 9:45:00 PM 8.56 47.408 0.39 8.19 3.29 10.81
2/21/2023 10:00:00 PM 8.49 47.282 0.39 8.18 3.2 10.76
2/21/2023 10:15:00 PM 8.42 47.156 0.39 8.16 3.25 10.71
2/21/2023 10:30:00 PM 8.35 47.03 0.39 8.14 3.22 10.67
2/21/2023 10:45:00 PM 8.28 46.904 0.39 8.13 3.24 10.61
2/21/2023 11:00:00 PM 8.2 46.76 0.39 8.11 3.18 10.57
2/21/2023 11:15:00 PM 8.14 46.652 0.391 8.09 3.34 10.53
2/21/2023 11:30:00 PM 8.09 46.562 0.391 8.08 3.4 10.49
2/21/2023 11:45:00 PM 8.03 46.454 0.391 8.07 3.18 10.49
2/22/2023 12:00:00 AM 7.98 46.364 0.391 8.05 3.49 10.45
2/22/2023 12:15:00 AM 7.92 46.256 0.391 8.04 3.62 10.43
2/22/2023 12:30:00 AM 7.86 46.148 0.392 8.03 3.63 10.44
2/22/2023 12:45:00 AM 7.8 46.04 0.392 8.02 3.69 10.41
2/22/2023 1:00:00 AM 7.73 45.914 0.392 8.01 3.6 10.38
2/22/2023 1:15:00 AM 7.67 45.806 0.392 8 3.84 10.38
2/22/2023 1:30:00 AM 7.6 45.68 0.392 8 3.7 10.36
2/22/2023 1:45:00 AM 7.53 45.554 0.392 7.99 3.68 10.37
2/22/2023 2:00:00 AM 7.47 45.446 0.393 7.98 3.79 10.35
2/22/2023 2:15:00 AM 7.4 45.32 0.393 7.97 4.08 10.36
2/22/2023 2:30:00 AM 7.34 45.212 0.393 7.97 4.3 10.36
2/22/2023 2:45:00 AM 7.27 45.086 0.393 7.96 4.16 10.36
2/22/2023 3:00:00 AM 7.21 44.978 0.393 7.95 3.95 10.38
2/22/2023 3:15:00 AM 7.15 44.87 0.393 7.95 3.72 10.4
2/22/2023 3:30:00 AM 7.09 44.762 0.393 7.94 3.8 10.4
2/22/2023 3:45:00 AM 7.04 44.672 0.394 7.94 3.83 10.4
2/22/2023 4:00:00 AM 6.98 44.564 0.394 7.93 3.96 10.39
2/22/2023 4:15:00 AM 6.92 44.456 0.394 7.93 4.26 10.4
2/22/2023 4:30:00 AM 6.86 44.348 0.394 7.92 4.04 10.39
2/22/2023 4:45:00 AM 6.8 44.24 0.394 7.92 4.54 10.41
2/22/2023 5:00:00 AM 6.74 44.132 0.394 7.92 4.48 10.43
2/22/2023 5:15:00 AM 6.68 44.024 0.395 7.91 4.67 10.49
2/22/2023 5:30:00 AM 6.63 43.934 0.395 7.91 4.53 10.52
2/22/2023 5:45:00 AM 6.58 43.844 0.395 7.9 4.49 10.52
2/22/2023 6:00:00 AM 6.55 43.79 0.395 7.9 5.06 10.53
2/22/2023 6:15:00 AM 6.51 43.718 0.395 7.9 6.79 10.53
2/22/2023 6:30:00 AM 6.48 43.664 0.395 7.9 5.16 10.56
2/22/2023 6:45:00 AM 6.46 43.628 0.396 7.89 3.79 10.56
2/22/2023 7:00:00 AM 6.45 43.61 0.396 7.89 4.34 10.61
2/22/2023 7:15:00 AM 6.43 43.574 0.396 7.89 4.31 10.61
2/22/2023 7:30:00 AM 6.41 43.538 0.396 7.89 5.57 10.71
2/22/2023 7:45:00 AM 6.41 43.538 0.396 7.9 8.66 10.7
2/22/2023 8:00:00 AM 6.41 43.538 0.396 7.92 11.75 10.83
2/22/2023 8:15:00 AM 6.42 43.556 0.396 7.93 3.78 11.14
2/22/2023 8:30:00 AM 6.44 43.592 0.396 7.96 3.75 11.51
2/22/2023 8:45:00 AM 6.47 43.646 0.396 7.99 3.75 11.84
2/22/2023 9:00:00 AM 6.48 43.664 0.396 8.02 3.89 12.06
2/22/2023 9:15:00 AM 6.48 43.664 0.396 8.03 3.59 12.16
2/22/2023 9:30:00 AM 6.49 43.682 0.396 8.03 4.3 12.18
2/22/2023 9:45:00 AM 6.48 43.664 0.396 8.03 4.3 12.14
2/22/2023 10:00:00 AM 6.46 43.628 0.396 8.03 4.29 12.15
2/22/2023 10:15:00 AM 6.45 43.61 0.396 8.03 4.96 12.17
2/22/2023 10:30:00 AM 6.44 43.592 0.397 8.03 4.54 12.16
2/22/2023 10:45:00 AM 6.44 43.592 0.397 8.04 10.36 12.15
2/22/2023 11:00:00 AM 6.44 43.592 0.397 8.05 28.78 12.27
2/22/2023 11:15:00 AM 6.44 43.592 0.397 8.06 8.32 12.38
2/22/2023 11:30:00 AM 6.39 43.502 0.396 8.09 5.57 12.64
2/22/2023 11:45:00 AM 6.38 43.484 0.396 8.11 13.57 12.66
2/22/2023 12:00:00 PM 6.4 43.52 0.396 8.14 4.9 12.94
2/22/2023 12:15:00 PM 6.43 43.574 0.396 8.17 3.15 13.13
2/22/2023 12:30:00 PM 6.46 43.628 0.395 8.2 3.14 13.33
2/22/2023 12:45:00 PM 6.5 43.7 0.395 8.23 3.03 13.48
2/22/2023 1:00:00 PM 6.52 43.736 0.395 8.24 3.49 13.53
2/22/2023 1:15:00 PM 6.54 43.772 0.395 8.26 3.08 13.55
2/22/2023 1:30:00 PM 6.57 43.826 0.395 8.26 3.01 13.61
2/22/2023 1:45:00 PM 6.58 43.844 0.395 8.27 3.23 13.59
2/22/2023 2:00:00 PM 6.6 43.88 0.396 8.28 5.87 13.66
2/22/2023 2:15:00 PM 6.62 43.916 0.396 8.3 3.04 13.7
2/22/2023 2:30:00 PM 6.69 44.042 0.395 8.34 17.2 13.95
2/22/2023 2:45:00 PM 6.7 44.06 0.395 8.37 18.51 14.04
2/22/2023 3:00:00 PM 6.73 44.114 0.395 8.4 14.11 14.06
2/22/2023 3:15:00 PM 6.75 44.15 0.395 8.41 21.08 14.1
2/22/2023 3:30:00 PM 6.75 44.15 0.395 8.4 12.87 14.02
2/22/2023 3:45:00 PM 6.75 44.15 0.395 8.4 7.22 13.97
2/22/2023 4:00:00 PM 6.73 44.114 0.395 8.38 314.33 13.85
2/22/2023 4:15:00 PM 6.71 44.078 0.395 8.35 163.65 13.73
2/22/2023 4:30:00 PM 6.68 44.024 0.395 8.33 8.26 13.56
2/22/2023 4:45:00 PM 6.67 44.006 0.395 8.3 12.22 13.39
2/22/2023 5:00:00 PM 6.65 43.97 0.395 8.28 10.64 13.22
2/22/2023 5:15:00 PM 6.63 43.934 0.396 8.26 10.68 13.06
2/22/2023 5:30:00 PM 6.6 43.88 0.396 8.23 10.14 12.92
2/22/2023 5:45:00 PM 6.58 43.844 0.396 8.21 4.92 12.76
2/22/2023 6:00:00 PM 6.55 43.79 0.396 8.18 17 12.61
2/22/2023 6:15:00 PM 6.53 43.754 0.396 8.16 9.27 12.47
2/22/2023 6:30:00 PM 6.5 43.7 0.396 8.14 22.23 12.33
2/22/2023 6:45:00 PM 6.49 43.682 0.396 8.13 25.69 12.22
2/22/2023 7:00:00 PM 6.47 43.646 0.396 8.12 8.23 12.15
2/22/2023 7:15:00 PM 6.45 43.61 0.396 8.12 4.41 12.08
2/22/2023 7:30:00 PM 6.44 43.592 0.395 8.11 3.48 12.03
2/22/2023 7:45:00 PM 6.43 43.574 0.395 8.11 3.22 11.98
2/22/2023 8:00:00 PM 6.42 43.556 0.395 8.1 3.35 11.94
2/22/2023 8:15:00 PM 6.41 43.538 0.395 8.1 3.29 11.89
2/22/2023 8:30:00 PM 6.39 43.502 0.395 8.1 3.24 11.86
2/22/2023 8:45:00 PM 6.36 43.448 0.395 8.09 3.33 11.85
2/22/2023 9:00:00 PM 6.33 43.394 0.395 8.09 3.29 11.81
2/22/2023 9:15:00 PM 6.31 43.358 0.395 8.08 3.37 11.78
2/22/2023 9:30:00 PM 6.29 43.322 0.395 8.07 3.28 11.75
2/22/2023 9:45:00 PM 6.27 43.286 0.395 8.06 3.37 11.68
2/22/2023 10:00:00 PM 6.25 43.25 0.395 8.05 3.28 11.65
2/22/2023 10:15:00 PM 6.23 43.214 0.396 8.04 3.49 11.59
2/22/2023 10:30:00 PM 6.21 43.178 0.396 8.04 3.27 11.54
2/22/2023 10:45:00 PM 6.19 43.142 0.396 8.03 6.02 11.51
2/22/2023 11:00:00 PM 6.17 43.106 0.395 8.02 5.8 11.43
2/22/2023 11:15:00 PM 6.16 43.088 0.396 8.01 2.94 11.39
2/22/2023 11:30:00 PM 6.16 43.088 0.396 8 3 11.32
2/22/2023 11:45:00 PM 6.16 43.088 0.396 7.99 13.66 11.32
2/23/2023 12:00:00 AM 6.16 43.088 0.396 7.98 3.58 11.26
2/23/2023 12:15:00 AM 6.16 43.088 0.396 7.97 2.93 11.26
2/23/2023 12:30:00 AM 6.17 43.106 0.396 7.97 3.31 11.25
2/23/2023 12:45:00 AM 6.16 43.088 0.396 7.96 2.79 11.19
2/23/2023 1:00:00 AM 6.16 43.088 0.396 7.95 2.97 11.16
2/23/2023 1:15:00 AM 6.16 43.088 0.396 7.95 2.97 11.14
2/23/2023 1:30:00 AM 6.15 43.07 0.396 7.94 2.96 11.12
2/23/2023 1:45:00 AM 6.15 43.07 0.396 7.94 2.83 11.06
2/23/2023 2:00:00 AM 6.14 43.052 0.396 7.93 2.94 11.07
2/23/2023 2:15:00 AM 6.13 43.034 0.397 7.93 2.96 11.13
2/23/2023 2:30:00 AM 6.12 43.016 0.396 7.93 2.91 11.05
2/23/2023 2:45:00 AM 6.11 42.998 0.396 7.92 2.98 11.01
2/23/2023 3:00:00 AM 6.1 42.98 0.397 7.92 2.94 11.01
2/23/2023 3:15:00 AM 6.09 42.962 0.397 7.92 3.19 10.99
2/23/2023 3:30:00 AM 6.09 42.962 0.397 7.91 3.04 10.98
2/23/2023 3:45:00 AM 6.08 42.944 0.397 7.91 3.07 10.96
2/23/2023 4:00:00 AM 6.08 42.944 0.397 7.91 3 10.96
2/23/2023 4:15:00 AM 6.08 42.944 0.397 7.9 3.13 10.96
2/23/2023 4:30:00 AM 6.08 42.944 0.397 7.9 3.08 10.96
2/23/2023 4:45:00 AM 6.08 42.944 0.397 7.9 3.26 10.99
2/23/2023 5:00:00 AM 6.08 42.944 0.397 7.9 5.62 10.99
2/23/2023 5:15:00 AM 6.09 42.962 0.397 7.89 11.58 11
2/23/2023 5:30:00 AM 6.08 42.944 0.397 7.89 4.71 10.97
2/23/2023 5:45:00 AM 6.08 42.944 0.397 7.89 4.66 10.97
2/23/2023 6:00:00 AM 6.08 42.944 0.398 7.89 5.93 10.97
2/23/2023 6:15:00 AM 6.08 42.944 0.398 7.89 3.67 10.96
2/23/2023 6:30:00 AM 6.08 42.944 0.398 7.89 3.58 10.93
2/23/2023 6:45:00 AM 6.07 42.926 0.398 7.88 3.36 10.88
2/23/2023 7:00:00 AM 6.06 42.908 0.398 7.89 3.24 10.89
2/23/2023 7:15:00 AM 6.06 42.908 0.398 7.89 3.31 10.89
2/23/2023 7:30:00 AM 6.06 42.908 0.398 7.9 3.48 10.98
2/23/2023 7:45:00 AM 6.07 42.926 0.398 7.91 3.62 11.02
2/23/2023 8:00:00 AM 6.1 42.98 0.398 7.93 3.83 11.22
2/23/2023 8:15:00 AM 6.13 43.034 0.398 7.96 3.69 11.41
2/23/2023 8:30:00 AM 6.18 43.124 0.398 7.99 3.69 11.61
2/23/2023 8:45:00 AM 6.23 43.214 0.397 8.03 3.32 11.93
2/23/2023 9:00:00 AM 6.3 43.34 0.397 8.08 3.38 12.5
2/23/2023 9:15:00 AM 6.4 43.52 0.397 8.13 3.2 12.9
2/23/2023 9:30:00 AM 6.47 43.646 0.397 8.17 3.16 13.19
2/23/2023 9:45:00 AM 6.58 43.844 0.397 8.21 3.24 13.39
2/23/2023 10:00:00 AM 6.7 44.06 0.396 8.25 3.36 13.5
2/23/2023 10:15:00 AM 6.85 44.33 0.396 8.29 3.95 13.73
2/23/2023 10:30:00 AM 7.01 44.618 0.396 8.32 3.39 13.91
2/23/2023 10:45:00 AM 7.14 44.852 0.396 8.35 3.31 14
2/23/2023 11:00:00 AM 7.29 45.122 0.396 8.37 3.44 14.11
2/23/2023 11:15:00 AM 7.45 45.41 0.396 8.39 3.39 14.2
2/23/2023 11:30:00 AM 7.63 45.734 0.396 8.42 3.49 14.27
2/23/2023 11:45:00 AM 7.8 46.04 0.396 8.44 3.61 14.33
2/23/2023 12:00:00 PM 7.99 46.382 0.395 8.46 3.77 14.39
2/23/2023 12:15:00 PM 8.17 46.706 0.395 8.49 3.98 14.49
2/23/2023 12:30:00 PM 8.35 47.03 0.395 8.51 3.26 14.48
2/23/2023 12:45:00 PM 8.53 47.354 0.395 8.54 3.94 14.52
2/23/2023 1:00:00 PM 8.68 47.624 0.395 8.56 3.3 14.62
2/23/2023 1:15:00 PM 8.82 47.876 0.394 8.58 3.32 14.64
2/23/2023 1:30:00 PM 8.95 48.11 0.394 8.61 3.35 14.7
2/23/2023 1:45:00 PM 9.06 48.308 0.394 8.62 3.21 14.69
2/23/2023 2:00:00 PM 9.15 48.47 0.394 8.64 3.28 14.78
2/23/2023 2:15:00 PM 9.23 48.614 0.393 8.66 3.41 14.72
2/23/2023 2:30:00 PM 9.3 48.74 0.393 8.67 4.42 14.74
2/23/2023 2:45:00 PM 9.36 48.848 0.393 8.68 5.27 14.68
2/23/2023 3:00:00 PM 9.42 48.956 0.393 8.69 5.07 14.64
2/23/2023 3:15:00 PM 9.47 49.046 0.393 8.69 5.03 14.54
2/23/2023 3:30:00 PM 9.5 49.1 0.393 8.7 4.93 14.47
2/23/2023 3:45:00 PM 9.52 49.136 0.393 8.7 5.04 14.39
2/23/2023 4:00:00 PM 9.53 49.154 0.392 8.69 4.45 14.24
2/23/2023 4:15:00 PM 9.51 49.118 0.393 8.68 4.17 14.12
2/23/2023 4:30:00 PM 9.51 49.118 0.393 8.66 3.73 13.93
2/23/2023 4:45:00 PM 9.5 49.1 0.393 8.63 4.28 13.7
2/23/2023 5:00:00 PM 9.51 49.118 0.393 8.59 4.26 13.45
2/23/2023 5:15:00 PM 9.51 49.118 0.394 8.55 3.98 13.2
2/23/2023 5:30:00 PM 9.51 49.118 0.394 8.52 5.34 12.95
2/23/2023 5:45:00 PM 9.51 49.118 0.394 8.48 5.37 12.7
2/23/2023 6:00:00 PM 9.52 49.136 0.394 8.43 3.94 12.43
2/23/2023 6:15:00 PM 9.54 49.172 0.394 8.39 3.94 12.18
2/23/2023 6:30:00 PM 9.56 49.208 0.395 8.36 3.81 11.96
2/23/2023 6:45:00 PM 9.58 49.244 0.395 8.32 3.16 11.77
2/23/2023 7:00:00 PM 9.6 49.28 0.395 8.3 3.1 11.59
2/23/2023 7:15:00 PM 9.62 49.316 0.395 8.28 3.11 11.45
2/23/2023 7:30:00 PM 9.63 49.334 0.395 8.26 3.02 11.35
2/23/2023 7:45:00 PM 9.64 49.352 0.395 8.25 3.18 11.27
2/23/2023 8:00:00 PM 9.66 49.388 0.395 8.25 3.2 11.19
2/23/2023 8:15:00 PM 9.66 49.388 0.395 8.24 3.18 11.11
2/23/2023 8:30:00 PM 9.66 49.388 0.395 8.23 3.48 11.06
2/23/2023 8:45:00 PM 9.66 49.388 0.395 8.22 3.14 10.99
2/23/2023 9:00:00 PM 9.65 49.37 0.395 8.21 3.44 10.95
2/23/2023 9:15:00 PM 9.63 49.334 0.395 8.2 3.23 10.87
2/23/2023 9:30:00 PM 9.61 49.298 0.395 8.18 10.24 10.79
2/23/2023 9:45:00 PM 9.6 49.28 0.395 8.17 7.02 10.73
2/23/2023 10:00:00 PM 9.59 49.262 0.395 8.15 6.97 10.65
2/23/2023 10:15:00 PM 9.58 49.244 0.396 8.13 4.33 10.6
2/23/2023 10:30:00 PM 9.57 49.226 0.396 8.12 5.45 10.52
2/23/2023 10:45:00 PM 9.54 49.172 0.396 8.1 4.62 10.45
2/23/2023 11:00:00 PM 9.52 49.136 0.396 8.08 4.78 10.37
2/23/2023 11:15:00 PM 9.49 49.082 0.396 8.07 3.33 10.3
2/23/2023 11:30:00 PM 9.46 49.028 0.397 8.05 3.11 10.21
2/23/2023 11:45:00 PM 9.43 48.974 0.397 8.04 3.31 10.14
2/24/2023 12:00:00 AM 9.41 48.938 0.397 8.03 3.37 10.09
2/24/2023 12:15:00 AM 9.38 48.884 0.397 8.01 3.21 10.06
2/24/2023 12:30:00 AM 9.36 48.848 0.397 8 3.19 9.99
2/24/2023 12:45:00 AM 9.34 48.812 0.397 7.99 3.36 9.94
2/24/2023 1:00:00 AM 9.33 48.794 0.397 7.98 3.38 9.9
2/24/2023 1:15:00 AM 9.33 48.794 0.397 7.97 3.2 9.87
2/24/2023 1:30:00 AM 9.32 48.776 0.397 7.96 3.24 9.83
2/24/2023 1:45:00 AM 9.32 48.776 0.397 7.95 3.29 9.81
2/24/2023 2:00:00 AM 9.31 48.758 0.397 7.94 3.2 9.76
2/24/2023 2:15:00 AM 9.33 48.794 0.397 7.94 3.15 9.72
2/24/2023 2:30:00 AM 9.35 48.83 0.398 7.93 3.14 9.7
2/24/2023 2:45:00 AM 9.35 48.83 0.398 7.93 3.47 9.74
2/24/2023 3:00:00 AM 9.36 48.848 0.398 7.93 3.55 9.73
2/24/2023 3:15:00 AM 9.35 48.83 0.398 7.92 3.53 9.66
2/24/2023 3:30:00 AM 9.32 48.776 0.398 7.92 3.45 9.67
2/24/2023 3:45:00 AM 9.28 48.704 0.398 7.92 3.91 9.64
2/24/2023 4:00:00 AM 9.23 48.614 0.398 7.92 3.73 9.66
2/24/2023 4:15:00 AM 9.17 48.506 0.398 7.91 7.25 9.61
2/24/2023 4:30:00 AM 9.09 48.362 0.398 7.91 12.86 9.71
2/24/2023 4:45:00 AM 9.01 48.218 0.398 7.91 10.79 9.73
2/24/2023 5:00:00 AM 8.95 48.11 0.398 7.91 12.3 9.74
2/24/2023 5:15:00 AM 8.88 47.984 0.398 7.91 11.67 9.77
2/24/2023 5:30:00 AM 8.82 47.876 0.398 7.9 13.53 9.78
2/24/2023 5:45:00 AM 8.77 47.786 0.398 7.9 9.77 9.77
2/24/2023 6:00:00 AM 8.72 47.696 0.398 7.89 13.27 9.76
2/24/2023 6:15:00 AM 8.68 47.624 0.398 7.89 13.8 9.76
2/24/2023 6:30:00 AM 8.64 47.552 0.399 7.89 10.17 9.77
2/24/2023 6:45:00 AM 8.61 47.498 0.399 7.89 8.96 9.76
2/24/2023 7:00:00 AM 8.59 47.462 0.399 7.89 19.77 9.78
2/24/2023 7:15:00 AM 8.56 47.408 0.399 7.89 9.13 9.82
2/24/2023 7:30:00 AM 8.52 47.336 0.399 7.9 15.93 9.89
2/24/2023 7:45:00 AM 8.48 47.264 0.399 7.91 6.02 10.1
2/24/2023 8:00:00 AM 8.44 47.192 0.399 7.93 4.91 10.18
2/24/2023 8:15:00 AM 8.43 47.174 0.399 7.96 3.54 10.27
2/24/2023 8:30:00 AM 8.41 47.138 0.399 7.99 3.43 10.62
2/24/2023 8:45:00 AM 8.41 47.138 0.399 8.02 3.42 10.89
2/24/2023 9:00:00 AM 8.43 47.174 0.398 8.06 3.57 11.12
2/24/2023 9:15:00 AM 8.45 47.21 0.398 8.1 4.09 11.4
2/24/2023 9:30:00 AM 8.48 47.264 0.398 8.14 3.9 11.76
2/24/2023 9:45:00 AM 8.55 47.39 0.398 8.18 3.55 11.95
2/24/2023 10:00:00 AM 8.63 47.534 0.398 8.23 3.38 12.34
2/24/2023 10:15:00 AM 8.72 47.696 0.398 8.27 3.33 12.55
2/24/2023 10:30:00 AM 8.82 47.876 0.398 8.32 3.33 12.81
2/24/2023 10:45:00 AM 8.95 48.11 0.398 8.36 3.84 13
2/24/2023 11:00:00 AM 9.05 48.29 0.398 8.39 3.52 13.12
2/24/2023 11:15:00 AM 9.15 48.47 0.397 8.42 3.34 13.28
2/24/2023 11:30:00 AM 9.26 48.668 0.397 8.44 3.52 13.47
2/24/2023 11:45:00 AM 9.36 48.848 0.397 8.46 3.51 13.61
2/24/2023 12:00:00 PM 9.48 49.064 0.397 8.49 3.9 13.77
2/24/2023 12:15:00 PM 9.6 49.28 0.397 8.51 4.14 13.75
2/24/2023 12:30:00 PM 9.7 49.46 0.397 8.54 3.77 13.86
2/24/2023 12:45:00 PM 9.79 49.622 0.397 8.56 3.85 13.91
2/24/2023 1:00:00 PM 9.86 49.748 0.396 8.58 10.97 14.01
2/24/2023 1:15:00 PM 9.92 49.856 0.396 8.6 6.3 13.98
2/24/2023 1:30:00 PM 9.96 49.928 0.396 8.61 8.56 14.17
2/24/2023 1:45:00 PM 9.97 49.946 0.396 8.63 5.52 14.11
2/24/2023 2:00:00 PM 9.95 49.91 0.396 8.64 4.82 14.11
2/24/2023 2:15:00 PM 9.91 49.838 0.396 8.65 8.23 14.15
2/24/2023 2:30:00 PM 9.9 49.82 0.395 8.66 8.18 14.12
2/24/2023 2:45:00 PM 9.87 49.766 0.396 8.67 5.54 14.15
2/24/2023 3:00:00 PM 9.84 49.712 0.396 8.67 5.82 14.16
2/24/2023 3:15:00 PM 9.8 49.64 0.396 8.67 10.31 14.08
2/24/2023 3:30:00 PM 9.76 49.568 0.396 8.67 5.74 14.07
2/24/2023 3:45:00 PM 9.69 49.442 0.396 8.67 4.01 14.01
2/24/2023 4:00:00 PM 9.6 49.28 0.396 8.66 3.8 13.93
2/24/2023 4:15:00 PM 9.51 49.118 0.396 8.65 7.3 13.75
2/24/2023 4:30:00 PM 9.4 48.92 0.397 8.63 9 13.59
2/24/2023 4:45:00 PM 9.3 48.74 0.397 8.59 8.24 13.38
2/24/2023 5:00:00 PM 9.19 48.542 0.398 8.56 5.48 13.18
2/24/2023 5:15:00 PM 9.09 48.362 0.398 8.52 7.64 12.97
2/24/2023 5:30:00 PM 9.01 48.218 0.399 8.48 9.21 12.72
2/24/2023 5:45:00 PM 8.94 48.092 0.399 8.44 4.27 12.49
2/24/2023 6:00:00 PM 8.88 47.984 0.4 8.4 7.1 12.26
2/24/2023 6:15:00 PM 8.84 47.912 0.4 8.36 3.23 12.04
2/24/2023 6:30:00 PM 8.81 47.858 0.4 8.33 3.58 11.86
2/24/2023 6:45:00 PM 8.78 47.804 0.4 8.31 3.42 11.69
2/24/2023 7:00:00 PM 8.76 47.768 0.4 8.29 3.23 11.57
2/24/2023 7:15:00 PM 8.73 47.714 0.401 8.27 3.28 11.46
2/24/2023 7:30:00 PM 8.71 47.678 0.401 8.27 6.29 11.36
2/24/2023 7:45:00 PM 8.69 47.642 0.401 8.26 10.3 11.26
2/24/2023 8:00:00 PM 8.65 47.57 0.401 8.26 7.48 11.17
2/24/2023 8:15:00 PM 8.61 47.498 0.401 8.25 3.42 11.19
2/24/2023 8:30:00 PM 8.56 47.408 0.401 8.25 3.4 11.16
2/24/2023 8:45:00 PM 8.49 47.282 0.402 8.24 6 11.11
2/24/2023 9:00:00 PM 8.43 47.174 0.402 8.23 4.9 11.11
2/24/2023 9:15:00 PM 8.35 47.03 0.402 8.22 9.68 11.15
2/24/2023 9:30:00 PM 8.29 46.922 0.402 8.21 6.74 11.11
2/24/2023 9:45:00 PM 8.2 46.76 0.403 8.2 6.02 11.09
2/24/2023 10:00:00 PM 8.12 46.616 0.403 8.19 7.97 11.01
2/24/2023 10:15:00 PM 8.03 46.454 0.403 8.18 4 10.95
2/24/2023 10:30:00 PM 7.94 46.292 0.403 8.16 3.19 10.97
2/24/2023 10:45:00 PM 7.85 46.13 0.403 8.15 3.2 10.94
2/24/2023 11:00:00 PM 7.76 45.968 0.403 8.13 3.32 10.93
2/24/2023 11:15:00 PM 7.68 45.824 0.404 8.12 3.08 10.85
2/24/2023 11:30:00 PM 7.59 45.662 0.404 8.1 3.3 10.77
2/24/2023 11:45:00 PM 7.51 45.518 0.404 8.09 3.26 10.76
2/25/2023 12:00:00 AM 7.43 45.374 0.404 8.07 3.24 10.73
2/25/2023 12:15:00 AM 7.35 45.23 0.404 8.06 3.27 10.74
2/25/2023 12:30:00 AM 7.27 45.086 0.405 8.05 3.44 10.7
2/25/2023 12:45:00 AM 7.19 44.942 0.405 8.04 3.72 10.68
2/25/2023 1:00:00 AM 7.12 44.816 0.405 8.03 3.52 10.65
2/25/2023 1:15:00 AM 7.05 44.69 0.405 8.02 4.94 10.67
2/25/2023 1:30:00 AM 6.99 44.582 0.405 8.01 3.86 10.67
2/25/2023 1:45:00 AM 6.93 44.474 0.405 8 3.63 10.65
2/25/2023 2:00:00 AM 6.88 44.384 0.405 7.99 4.32 10.63
2/25/2023 2:15:00 AM 6.84 44.312 0.405 7.99 3.65 10.61
2/25/2023 2:30:00 AM 6.8 44.24 0.405 7.98 3.59 10.63
2/25/2023 2:45:00 AM 6.75 44.15 0.405 7.97 3.31 10.62
2/25/2023 3:00:00 AM 6.71 44.078 0.406 7.97 3.19 10.6
2/25/2023 3:15:00 AM 6.67 44.006 0.406 7.96 3.1 10.6
2/25/2023 3:30:00 AM 6.62 43.916 0.406 7.95 3.18 10.62
2/25/2023 3:45:00 AM 6.57 43.826 0.406 7.95 3.65 10.63
2/25/2023 4:00:00 AM 6.52 43.736 0.406 7.95 3.2 10.63
2/25/2023 4:15:00 AM 6.47 43.646 0.406 7.94 3.15 10.65
2/25/2023 4:30:00 AM 6.41 43.538 0.406 7.94 3.18 10.65
2/25/2023 4:45:00 AM 6.33 43.394 0.406 7.93 3.32 10.65
2/25/2023 5:00:00 AM 6.26 43.268 0.406 7.93 3.34 10.69
2/25/2023 5:15:00 AM 6.2 43.16 0.406 7.93 3.3 10.71
2/25/2023 5:30:00 AM 6.14 43.052 0.406 7.92 3.3 10.73
2/25/2023 5:45:00 AM 6.09 42.962 0.406 7.92 3.17 10.72
2/25/2023 6:00:00 AM 6.03 42.854 0.406 7.92 3.53 10.73
2/25/2023 6:15:00 AM 5.97 42.746 0.406 7.92 3.37 10.75
2/25/2023 6:30:00 AM 5.93 42.674 0.407 7.92 3.21 10.75
2/25/2023 6:45:00 AM 5.87 42.566 0.407 7.91 3.29 10.77
2/25/2023 7:00:00 AM 5.82 42.476 0.407 7.91 3.26 10.83
2/25/2023 7:15:00 AM 5.78 42.404 0.407 7.92 3.13 10.86
2/25/2023 7:30:00 AM 5.73 42.314 0.407 7.92 9.22 10.91
2/25/2023 7:45:00 AM 5.7 42.26 0.407 7.93 3.15 11.02
2/25/2023 8:00:00 AM 5.67 42.206 0.407 7.95 3.1 11.18
2/25/2023 8:15:00 AM 5.66 42.188 0.407 7.97 3.16 11.37
2/25/2023 8:30:00 AM 5.64 42.152 0.407 7.99 3.06 11.54
2/25/2023 8:45:00 AM 5.64 42.152 0.407 8.01 3.15 11.81
2/25/2023 9:00:00 AM 5.67 42.206 0.407 8.05 3.28 12
2/25/2023 9:15:00 AM 5.68 42.224 0.407 8.08 3.58 12.26
2/25/2023 9:30:00 AM 5.71 42.278 0.406 8.11 3.44 12.59
2/25/2023 9:45:00 AM 5.72 42.296 0.406 8.14 3.23 12.83
2/25/2023 10:00:00 AM 5.77 42.386 0.406 8.18 4.55 13.05
2/25/2023 10:15:00 AM 5.83 42.494 0.406 8.21 3.08 13.27
2/25/2023 10:30:00 AM 5.87 42.566 0.406 8.24 3.04 13.46
2/25/2023 10:45:00 AM 5.88 42.584 0.406 8.26 3.12 13.59
2/25/2023 11:00:00 AM 5.87 42.566 0.406 8.26 3.03 13.66
2/25/2023 11:15:00 AM 5.84 42.512 0.406 8.26 3.19 13.65
2/25/2023 11:30:00 AM 5.8 42.44 0.407 8.25 3.06 13.64
2/25/2023 11:45:00 AM 5.78 42.404 0.407 8.27 3.74 13.61
2/25/2023 12:00:00 PM 5.76 42.368 0.407 8.27 2.96 13.72
2/25/2023 12:15:00 PM 5.74 42.332 0.406 8.28 2.95 13.71
2/25/2023 12:30:00 PM 5.72 42.296 0.406 8.28 2.96 13.72
2/25/2023 12:45:00 PM 5.69 42.242 0.406 8.29 2.95 13.8
2/25/2023 1:00:00 PM 5.65 42.17 0.407 8.28 3 13.81
2/25/2023 1:15:00 PM 5.63 42.134 0.406 8.28 3.04 13.82
2/25/2023 1:30:00 PM 5.62 42.116 0.406 8.29 2.99 13.84
2/25/2023 1:45:00 PM 5.64 42.152 0.406 8.31 3.01 13.92
2/25/2023 2:00:00 PM 5.69 42.242 0.406 8.35 3.03 14.09
2/25/2023 2:15:00 PM 5.76 42.368 0.405 8.39 3.1 14.29
2/25/2023 2:30:00 PM 5.87 42.566 0.405 8.44 2.97 14.48
2/25/2023 2:45:00 PM 5.96 42.728 0.404 8.48 3 14.68
2/25/2023 3:00:00 PM 6.06 42.908 0.404 8.51 3.14 14.79
2/25/2023 3:15:00 PM 6.1 42.98 0.404 8.54 3.17 14.9
2/25/2023 3:30:00 PM 6.11 42.998 0.403 8.55 3.18 14.96
2/25/2023 3:45:00 PM 6.11 42.998 0.403 8.56 3.47 14.94
2/25/2023 4:00:00 PM 6.12 43.016 0.403 8.57 3.12 14.91
2/25/2023 4:15:00 PM 6.11 42.998 0.403 8.57 11.73 14.88
2/25/2023 4:30:00 PM 6.06 42.908 0.404 8.55 3.22 14.72
2/25/2023 4:45:00 PM 6.02 42.836 0.404 8.52 3.23 14.5
2/25/2023 5:00:00 PM 5.96 42.728 0.405 8.48 3.28 14.32
2/25/2023 5:15:00 PM 5.91 42.638 0.405 8.44 3.54 14.08
2/25/2023 5:30:00 PM 5.86 42.548 0.405 8.4 3.45 13.85
2/25/2023 5:45:00 PM 5.82 42.476 0.405 8.35 3.54 13.61
2/25/2023 6:00:00 PM 5.77 42.386 0.406 8.31 3.41 13.37
2/25/2023 6:15:00 PM 5.75 42.35 0.406 8.27 3.42 13.16
2/25/2023 6:30:00 PM 5.73 42.314 0.406 8.24 3.26 12.96
2/25/2023 6:45:00 PM 5.72 42.296 0.406 8.22 3.38 12.8
2/25/2023 7:00:00 PM 5.72 42.296 0.406 8.2 3.89 12.69
2/25/2023 7:15:00 PM 5.72 42.296 0.406 8.19 3.38 12.59
2/25/2023 7:30:00 PM 5.72 42.296 0.406 8.18 3.42 12.52
2/25/2023 7:45:00 PM 5.71 42.278 0.406 8.18 3.47 12.45
2/25/2023 8:00:00 PM 5.69 42.242 0.406 8.17 3.53 12.42
2/25/2023 8:15:00 PM 5.67 42.206 0.406 8.17 3.46 12.37
2/25/2023 8:30:00 PM 5.65 42.17 0.406 8.17 3.38 12.36
2/25/2023 8:45:00 PM 5.62 42.116 0.406 8.17 3.47 12.36
2/25/2023 9:00:00 PM 5.6 42.08 0.406 8.17 3.32 12.32
2/25/2023 9:15:00 PM 5.58 42.044 0.406 8.17 3.35 12.3
2/25/2023 9:30:00 PM 5.57 42.026 0.406 8.17 3.52 12.26
2/25/2023 9:45:00 PM 5.56 42.008 0.406 8.16 3.33 12.22
2/25/2023 10:00:00 PM 5.56 42.008 0.406 8.16 3.31 12.18
2/25/2023 10:15:00 PM 5.55 41.99 0.406 8.15 3.37 12.13
2/25/2023 10:30:00 PM 5.54 41.972 0.406 8.14 3.36 12.09
2/25/2023 10:45:00 PM 5.53 41.954 0.406 8.13 3.24 12.01
2/25/2023 11:00:00 PM 5.52 41.936 0.407 8.12 3.22 11.95
2/25/2023 11:15:00 PM 5.5 41.9 0.407 8.11 3.19 11.91
2/25/2023 11:30:00 PM 5.48 41.864 0.407 8.1 3.18 11.86
2/25/2023 11:45:00 PM 5.45 41.81 0.407 8.08 3.12 11.8
2/26/2023 12:00:00 AM 5.42 41.756 0.407 8.07 3.09 11.76
2/26/2023 12:15:00 AM 5.39 41.702 0.407 8.06 3.26 11.71
2/26/2023 12:30:00 AM 5.36 41.648 0.407 8.05 3.18 11.67
2/26/2023 12:45:00 AM 5.34 41.612 0.407 8.04 3.07 11.62
2/26/2023 1:00:00 AM 5.32 41.576 0.407 8.03 3.08 11.57
2/26/2023 1:15:00 AM 5.3 41.54 0.407 8.02 3.18 11.55
2/26/2023 1:30:00 AM 5.28 41.504 0.407 8.01 3.21 11.52
2/26/2023 1:45:00 AM 5.27 41.486 0.407 8 3.31 11.48
2/26/2023 2:00:00 AM 5.26 41.468 0.407 7.99 3.12 11.46
2/26/2023 2:15:00 AM 5.25 41.45 0.407 7.99 3.09 11.43
2/26/2023 2:30:00 AM 5.23 41.414 0.407 7.98 3.11 11.4
2/26/2023 2:45:00 AM 5.21 41.378 0.407 7.97 3.2 11.39
2/26/2023 3:00:00 AM 5.2 41.36 0.407 7.97 3.47 11.39
2/26/2023 3:15:00 AM 5.19 41.342 0.408 7.96 3.33 11.36
2/26/2023 3:30:00 AM 5.18 41.324 0.408 7.96 3.27 11.33
2/26/2023 3:45:00 AM 5.17 41.306 0.407 7.95 3.16 11.32
2/26/2023 4:00:00 AM 5.16 41.288 0.407 7.95 3.15 11.31
2/26/2023 4:15:00 AM 5.15 41.27 0.407 7.94 3.24 11.29
2/26/2023 4:30:00 AM 5.14 41.252 0.407 7.94 3.2 11.24
2/26/2023 4:45:00 AM 5.13 41.234 0.408 7.94 3.42 11.21
2/26/2023 5:00:00 AM 5.12 41.216 0.407 7.93 3.36 11.21
2/26/2023 5:15:00 AM 5.12 41.216 0.408 7.93 3.43 11.21
2/26/2023 5:30:00 AM 5.11 41.198 0.408 7.93 3.46 11.19
2/26/2023 5:45:00 AM 5.1 41.18 0.407 7.92 3.64 11.21
2/26/2023 6:00:00 AM 5.1 41.18 0.408 7.92 3.74 11.23
2/26/2023 6:15:00 AM 5.09 41.162 0.407 7.92 3.71 11.22
2/26/2023 6:30:00 AM 5.08 41.144 0.408 7.91 3.71 11.21
2/26/2023 6:45:00 AM 5.08 41.144 0.408 7.91 3.38 11.21
2/26/2023 7:00:00 AM 5.08 41.144 0.408 7.91 3.36 11.18
2/26/2023 7:15:00 AM 5.08 41.144 0.408 7.91 3.24 11.23
2/26/2023 7:30:00 AM 5.08 41.144 0.408 7.92 3.27 11.27
2/26/2023 7:45:00 AM 5.09 41.162 0.408 7.92 3.41 11.32
2/26/2023 8:00:00 AM 5.1 41.18 0.408 7.94 3.39 11.47
2/26/2023 8:15:00 AM 5.12 41.216 0.407 7.96 3.48 11.58
2/26/2023 8:30:00 AM 5.16 41.288 0.407 7.98 3.42 11.87
2/26/2023 8:45:00 AM 5.2 41.36 0.407 8 3.51 11.92
2/26/2023 9:00:00 AM 5.25 41.45 0.407 8.04 3.59 12.12
2/26/2023 9:15:00 AM 5.31 41.558 0.407 8.08 3.37 12.42
2/26/2023 9:30:00 AM 5.38 41.684 0.406 8.12 3.62 12.89
2/26/2023 9:45:00 AM 5.47 41.846 0.406 8.16 3.27 13.16
2/26/2023 10:00:00 AM 5.62 42.116 0.406 8.2 3.56 13.34
2/26/2023 10:15:00 AM 5.78 42.404 0.405 8.24 3.24 13.55
2/26/2023 10:30:00 AM 5.97 42.746 0.405 8.28 3.18 13.7
2/26/2023 10:45:00 AM 6.15 43.07 0.405 8.31 3.35 13.76
2/26/2023 11:00:00 AM 6.33 43.394 0.404 8.33 4.02 14.03
2/26/2023 11:15:00 AM 6.54 43.772 0.404 8.35 3.36 14.05
2/26/2023 11:30:00 AM 6.74 44.132 0.404 8.37 3.43 14.14
2/26/2023 11:45:00 AM 6.86 44.348 0.404 8.39 3.44 14.2
2/26/2023 12:00:00 PM 7.03 44.654 0.404 8.4 4.29 14.24
2/26/2023 12:15:00 PM 7.15 44.87 0.403 8.41 3.86 14.29
2/26/2023 12:30:00 PM 7.19 44.942 0.403 8.42 7.82 14.27
2/26/2023 12:45:00 PM 7.34 45.212 0.403 8.44 4.06 14.17
2/26/2023 1:00:00 PM 7.44 45.392 0.403 8.45 8.52 14.21
2/26/2023 1:15:00 PM 7.51 45.518 0.403 8.47 3.73 14.2
2/26/2023 1:30:00 PM 7.57 45.626 0.403 8.48 5.17 14.26
2/26/2023 1:45:00 PM 7.62 45.716 0.402 8.49 4.45 14.25
2/26/2023 2:00:00 PM 7.69 45.842 0.402 8.5 4.95 14.23
2/26/2023 2:15:00 PM 7.74 45.932 0.402 8.51 5.58 14.23
2/26/2023 2:30:00 PM 7.82 46.076 0.402 8.53 4.93 14.23
2/26/2023 2:45:00 PM 7.89 46.202 0.401 8.54 5.3 14.41
2/26/2023 3:00:00 PM 7.97 46.346 0.401 8.56 6.26 14.41
2/26/2023 3:15:00 PM 8.02 46.436 0.401 8.57 7.31 14.41
2/26/2023 3:30:00 PM 8.05 46.49 0.401 8.58 18.3 14.27
2/26/2023 3:45:00 PM 8.06 46.508 0.401 8.58 5.77 14.18
2/26/2023 4:00:00 PM 8.03 46.454 0.401 8.58 6.17 14.22
2/26/2023 4:15:00 PM 7.98 46.364 0.401 8.56 3.5 14.08
2/26/2023 4:30:00 PM 7.92 46.256 0.401 8.54 3.66 13.96
2/26/2023 4:45:00 PM 7.86 46.148 0.401 8.52 3.79 13.79
2/26/2023 5:00:00 PM 7.8 46.04 0.401 8.49 5.4 13.62
2/26/2023 5:15:00 PM 7.76 45.968 0.402 8.45 3.65 13.41
2/26/2023 5:30:00 PM 7.72 45.896 0.402 8.42 6.68 13.2
2/26/2023 5:45:00 PM 7.68 45.824 0.402 8.38 3.32 12.96
2/26/2023 6:00:00 PM 7.66 45.788 0.403 8.35 12.54 12.74
2/26/2023 6:15:00 PM 7.65 45.77 0.403 8.31 3.51 12.47
2/26/2023 6:30:00 PM 7.64 45.752 0.403 8.28 3.6 12.28
2/26/2023 6:45:00 PM 7.64 45.752 0.403 8.26 3.53 12.1
2/26/2023 7:00:00 PM 7.65 45.77 0.403 8.24 3.5 11.95
2/26/2023 7:15:00 PM 7.65 45.77 0.403 8.23 3.99 11.77
2/26/2023 7:30:00 PM 7.65 45.77 0.403 8.22 3.37 11.62
2/26/2023 7:45:00 PM 7.66 45.788 0.403 8.21 3.69 11.6
2/26/2023 8:00:00 PM 7.67 45.806 0.403 8.21 3.43 11.5
2/26/2023 8:15:00 PM 7.67 45.806 0.403 8.2 3.49 11.47
2/26/2023 8:30:00 PM 7.65 45.77 0.403 8.2 3.42 11.43
2/26/2023 8:45:00 PM 7.64 45.752 0.403 8.2 3.51 11.34
2/26/2023 9:00:00 PM 7.62 45.716 0.403 8.2 3.45 11.3
2/26/2023 9:15:00 PM 7.6 45.68 0.403 8.19 3.49 11.29
2/26/2023 9:30:00 PM 7.56 45.608 0.403 8.18 3.61 11.21
2/26/2023 9:45:00 PM 7.52 45.536 0.403 8.17 3.51 11.11
2/26/2023 10:00:00 PM 7.49 45.482 0.403 8.16 3.53 11.02
2/26/2023 10:15:00 PM 7.45 45.41 0.404 8.15 3.57 11.01
2/26/2023 10:30:00 PM 7.42 45.356 0.404 8.14 3.49 11.02
2/26/2023 10:45:00 PM 7.37 45.266 0.403 8.13 3.62 11.05
2/26/2023 11:00:00 PM 7.32 45.176 0.404 8.11 3.45 10.97
2/26/2023 11:15:00 PM 7.28 45.104 0.404 8.1 3.72 10.94
2/26/2023 11:30:00 PM 7.24 45.032 0.404 8.09 3.52 10.9
2/26/2023 11:45:00 PM 7.2 44.96 0.404 8.08 3.39 10.88
2/27/2023 12:00:00 AM 7.14 44.852 0.404 8.06 3.52 10.82
2/27/2023 12:15:00 AM 7.09 44.762 0.404 8.05 3.35 10.77
2/27/2023 12:30:00 AM 7.05 44.69 0.404 8.04 3.39 10.74
2/27/2023 12:45:00 AM 7.01 44.618 0.404 8.03 3.35 10.7
2/27/2023 1:00:00 AM 6.97 44.546 0.404 8.02 3.4 10.55
2/27/2023 1:15:00 AM 6.94 44.492 0.404 8.01 3.8 10.56
2/27/2023 1:30:00 AM 6.9 44.42 0.404 8 3.58 10.58
2/27/2023 1:45:00 AM 6.87 44.366 0.405 8 3.61 10.54
2/27/2023 2:00:00 AM 6.83 44.294 0.405 7.99 3.57 10.48
2/27/2023 2:15:00 AM 6.79 44.222 0.405 7.98 3.68 10.5
2/27/2023 2:30:00 AM 6.74 44.132 0.405 7.98 28.12 10.43
2/27/2023 2:45:00 AM 6.69 44.042 0.405 7.97 9.9 10.37
2/27/2023 3:00:00 AM 6.64 43.952 0.405 7.96 10.42 10.45
2/27/2023 3:15:00 AM 6.58 43.844 0.405 7.95 18.24 10.44
2/27/2023 3:30:00 AM 6.54 43.772 0.405 7.94 11.86 10.41
2/27/2023 3:45:00 AM 6.49 43.682 0.405 7.94 11.24 10.39
2/27/2023 4:00:00 AM 6.44 43.592 0.405 7.94 17.26 10.4
2/27/2023 4:15:00 AM 6.39 43.502 0.405 7.93 100.37 10.39
2/27/2023 4:30:00 AM 6.34 43.412 0.405 7.93 4.11 10.43
2/27/2023 4:45:00 AM 6.29 43.322 0.406 7.93 3.84 10.42
2/27/2023 5:00:00 AM 6.23 43.214 0.405 7.92 3.69 10.43
2/27/2023 5:15:00 AM 6.18 43.124 0.405 7.92 3.67 10.41
2/27/2023 5:30:00 AM 6.14 43.052 0.406 7.92 3.72 10.48
2/27/2023 5:45:00 AM 6.09 42.962 0.406 7.91 3.69 10.53
2/27/2023 6:00:00 AM 6.04 42.872 0.406 7.91 3.88 10.54
2/27/2023 6:15:00 AM 6 42.8 0.406 7.9 4.17 10.58
2/27/2023 6:30:00 AM 5.96 42.728 0.407 7.9 4.16 10.62
2/27/2023 6:45:00 AM 5.91 42.638 0.407 7.9 4.03 10.63
2/27/2023 7:00:00 AM 5.87 42.566 0.407 7.9 4.12 10.67
2/27/2023 7:15:00 AM 5.84 42.512 0.407 7.91 4.1 10.72
2/27/2023 7:30:00 AM 5.82 42.476 0.407 7.92 3.83 10.82
2/27/2023 7:45:00 AM 5.81 42.458 0.408 7.93 4.77 11.02
2/27/2023 8:00:00 AM 5.82 42.476 0.408 7.96 9.61 11.31
2/27/2023 8:15:00 AM 5.83 42.494 0.408 7.98 4.3 11.49
2/27/2023 8:30:00 AM 5.87 42.566 0.407 8.01 3.77 11.78
2/27/2023 8:45:00 AM 5.93 42.674 0.407 8.05 3.8 12.09
2/27/2023 9:00:00 AM 5.99 42.782 0.407 8.08 3.67 12.33
2/27/2023 9:15:00 AM 6.06 42.908 0.407 8.12 3.65 12.58
2/27/2023 9:30:00 AM 6.14 43.052 0.407 8.16 3.67 12.82
2/27/2023 9:45:00 AM 6.24 43.232 0.406 8.19 3.73 13.11
2/27/2023 10:00:00 AM 6.33 43.394 0.406 8.22 3.68 13.29
2/27/2023 10:15:00 AM 6.45 43.61 0.406 8.26 3.61 13.49
2/27/2023 10:30:00 AM 6.61 43.898 0.406 8.29 6.65 13.63
2/27/2023 10:45:00 AM 6.7 44.06 0.405 8.32 3.87 13.7
2/27/2023 11:00:00 AM 6.79 44.222 0.405 8.35 7.04 13.86
2/27/2023 11:15:00 AM 6.97 44.546 0.405 8.38 6.8 13.79
2/27/2023 11:30:00 AM 7.09 44.762 0.404 8.4 3.96 13.94
2/27/2023 11:45:00 AM 7.21 44.978 0.404 8.41 3.74 13.92
2/27/2023 12:00:00 PM 7.35 45.23 0.404 8.44 3.88 14
2/27/2023 12:15:00 PM 7.53 45.554 0.404 8.47 4.61 14.06
2/27/2023 12:30:00 PM 7.74 45.932 0.403 8.5 4.18 14.18
2/27/2023 12:45:00 PM 7.86 46.148 0.403 8.52 4.69 14.3
2/27/2023 1:00:00 PM 7.96 46.328 0.403 8.54 4.59 14.31
2/27/2023 1:15:00 PM 7.96 46.328 0.403 8.54 4.71 14.49
2/27/2023 1:30:00 PM 7.94 46.292 0.403 8.54 5.28 14.37
2/27/2023 1:45:00 PM 7.9 46.22 0.403 8.53 5.69 14.29
2/27/2023 2:00:00 PM 7.85 46.13 0.403 8.54 6.96 14.19
2/27/2023 2:15:00 PM 7.76 45.968 0.403 8.54 5.03 14.19
2/27/2023 2:30:00 PM 7.66 45.788 0.403 8.51 4.12 14.1
2/27/2023 2:45:00 PM 7.6 45.68 0.403 8.49 3.99 14.03
2/27/2023 3:00:00 PM 7.52 45.536 0.403 8.47 3.82 13.83
2/27/2023 3:15:00 PM 7.45 45.41 0.404 8.44 4.01 13.62
2/27/2023 3:30:00 PM 7.39 45.302 0.403 8.41 4.01 13.47
2/27/2023 3:45:00 PM 7.34 45.212 0.403 8.39 3.75 13.29
2/27/2023 4:00:00 PM 7.32 45.176 0.403 8.36 6.86 13.12
2/27/2023 4:15:00 PM 7.31 45.158 0.403 8.34 3.34 13.01
2/27/2023 4:30:00 PM 7.31 45.158 0.403 8.32 6.57 12.84
2/27/2023 4:45:00 PM 7.33 45.194 0.403 8.29 3.24 12.68
2/27/2023 5:00:00 PM 7.35 45.23 0.403 8.27 3.45 12.5
2/27/2023 5:15:00 PM 7.37 45.266 0.404 8.25 3.31 12.36
2/27/2023 5:30:00 PM 7.38 45.284 0.404 8.24 3.34 12.2
2/27/2023 5:45:00 PM 7.39 45.302 0.404 8.23 3.45 12.07
2/27/2023 6:00:00 PM 7.36 45.248 0.404 8.22 3.59 11.97
2/27/2023 6:15:00 PM 7.35 45.23 0.404 8.21 5.79 11.85
2/27/2023 6:30:00 PM 7.33 45.194 0.403 8.2 26.96 11.7
2/27/2023 6:45:00 PM 7.25 45.05 0.402 8.2 9.13 11.59
2/27/2023 7:00:00 PM 6.95 44.51 0.4 8.19 9.49 11.56
2/27/2023 7:15:00 PM 6.85 44.33 0.399 8.19 11.98 11.57
2/27/2023 7:30:00 PM 6.75 44.15 0.398 8.18 3.5 11.56
2/27/2023 7:45:00 PM 6.7 44.06 0.398 8.18 3.43 11.46
2/27/2023 8:00:00 PM 6.67 44.006 0.398 8.18 3.78 11.37
2/27/2023 8:15:00 PM 6.67 44.006 0.398 8.17 3.5 11.31
2/27/2023 8:30:00 PM 6.68 44.024 0.398 8.17 3.57 11.29
2/27/2023 8:45:00 PM 6.67 44.006 0.398 8.16 3.53 11.24
2/27/2023 9:00:00 PM 6.68 44.024 0.399 8.15 3.64 11.19
2/27/2023 9:15:00 PM 6.68 44.024 0.399 8.14 3.39 11.14
2/27/2023 9:30:00 PM 6.68 44.024 0.4 8.13 3.51 11.09
2/27/2023 9:45:00 PM 6.68 44.024 0.4 8.12 3.56 11.07
2/27/2023 10:00:00 PM 6.65 43.97 0.4 8.11 3.57 10.98
2/27/2023 10:15:00 PM 6.63 43.934 0.4 8.09 3.52 10.97
2/27/2023 10:30:00 PM 6.57 43.826 0.399 8.08 3.8 10.87
2/27/2023 10:45:00 PM 6.48 43.664 0.397 8.06 4.29 10.84
2/27/2023 11:00:00 PM 6.34 43.412 0.395 8.06 4.28 10.82
2/27/2023 11:15:00 PM 6.3 43.34 0.395 8.04 4.17 10.75
2/27/2023 11:30:00 PM 6.25 43.25 0.394 8.03 4.33 10.73
2/27/2023 11:45:00 PM 6.21 43.178 0.394 8.02 4.45 10.8
2/28/2023 12:00:00 AM 6.19 43.142 0.394 8.01 4.05 10.75
2/28/2023 12:15:00 AM 6.17 43.106 0.394 8 3.92 10.72
2/28/2023 12:30:00 AM 6.14 43.052 0.394 7.99 3.95 10.69
2/28/2023 12:45:00 AM 6.13 43.034 0.394 7.98 3.93 10.63
2/28/2023 1:00:00 AM 6.12 43.016 0.394 7.98 3.92 10.6
2/28/2023 1:15:00 AM 6.11 42.998 0.394 7.97 4.12 10.57
2/28/2023 1:30:00 AM 6.1 42.98 0.394 7.97 4.02 10.5
2/28/2023 1:45:00 AM 6.08 42.944 0.394 7.96 4.27 10.47
2/28/2023 2:00:00 AM 6.06 42.908 0.393 7.95 4.13 10.48
2/28/2023 2:15:00 AM 6.03 42.854 0.392 7.95 4.19 10.82
2/28/2023 2:30:00 AM 6.01 42.818 0.391 7.95 4.15 10.76
2/28/2023 2:45:00 AM 5.98 42.764 0.391 7.95 4.35 10.73
2/28/2023 3:00:00 AM 5.96 42.728 0.39 7.94 4.63 10.73
2/28/2023 3:15:00 AM 5.93 42.674 0.389 7.94 4.32 10.65
2/28/2023 3:30:00 AM 5.9 42.62 0.389 7.94 4.43 10.66
2/28/2023 3:45:00 AM 5.89 42.602 0.388 7.94 4.48 10.76
2/28/2023 4:00:00 AM 5.87 42.566 0.388 7.93 4.79 10.77
2/28/2023 4:15:00 AM 5.85 42.53 0.387 7.93 4.76 10.79
2/28/2023 4:30:00 AM 5.83 42.494 0.387 7.93 4.69 10.81
2/28/2023 4:45:00 AM 5.81 42.458 0.387 7.93 5.1 10.79
2/28/2023 5:00:00 AM 5.8 42.44 0.386 7.92 5.84 10.83
2/28/2023 5:15:00 AM 5.79 42.422 0.386 7.92 4.84 10.78
2/28/2023 5:30:00 AM 5.77 42.386 0.386 7.92 5.97 10.74
2/28/2023 5:45:00 AM 5.75 42.35 0.385 7.92 6.11 10.82
2/28/2023 6:00:00 AM 5.73 42.314 0.385 7.92 5.81 10.76
2/28/2023 6:15:00 AM 5.72 42.296 0.384 7.92 5.4 10.74
2/28/2023 6:30:00 AM 5.7 42.26 0.384 7.91 5.61 10.75
2/28/2023 6:45:00 AM 5.68 42.224 0.384 7.91 6.07 10.77
2/28/2023 7:00:00 AM 5.66 42.188 0.384 7.91 6.12 10.81
2/28/2023 7:15:00 AM 5.64 42.152 0.384 7.91 5.7 10.9
2/28/2023 7:30:00 AM 5.63 42.134 0.383 7.91 5.67 10.93
2/28/2023 7:45:00 AM 5.61 42.098 0.383 7.91 5.38 10.89
2/28/2023 8:00:00 AM 5.6 42.08 0.382 7.92 5.18 10.97
2/28/2023 8:15:00 AM 5.6 42.08 0.382 7.93 5.16 11.03
2/28/2023 8:30:00 AM 5.6 42.08 0.382 7.94 5.11 11.07
2/28/2023 8:45:00 AM 5.61 42.098 0.381 7.95 4.97 11.17
2/28/2023 9:00:00 AM 5.62 42.116 0.381 7.96 4.77 11.26
2/28/2023 9:15:00 AM 5.62 42.116 0.38 7.97 4.63 11.31
2/28/2023 9:30:00 AM 5.63 42.134 0.38 7.98 6.53 11.43
2/28/2023 9:45:00 AM 5.64 42.152 0.38 7.99 5.1 11.57
2/28/2023 10:00:00 AM 5.65 42.17 0.38 8.01 5.34 11.67
2/28/2023 10:15:00 AM 5.66 42.188 0.38 8.02 5.17 11.66
2/28/2023 10:30:00 AM 5.66 42.188 0.38 8.03 5.43 11.84
2/28/2023 10:45:00 AM 5.67 42.206 0.379 8.04 5.46 12
2/28/2023 11:00:00 AM 5.68 42.224 0.379 8.04 7.13 12.05
2/28/2023 11:15:00 AM 5.7 42.26 0.379 8.05 5.85 11.94
2/28/2023 11:30:00 AM 5.73 42.314 0.379 8.07 5.37 11.87
2/28/2023 11:45:00 AM 5.79 42.422 0.379 8.11 5.57 11.88
2/28/2023 12:00:00 PM 5.84 42.512 0.378 8.14 5.45 11.94
2/28/2023 12:15:00 PM 5.9 42.62 0.378 8.17 5.42 12.06
2/28/2023 12:30:00 PM 5.94 42.692 0.378 8.19 5.31 12.36
2/28/2023 12:45:00 PM 5.97 42.746 0.378 8.21 5.51 12.46
2/28/2023 1:00:00 PM 6.07 42.926 0.378 8.25 4.9 12.43
2/28/2023 1:15:00 PM 6.18 43.124 0.377 8.29 5.12 12.64
2/28/2023 1:30:00 PM 6.26 43.268 0.377 8.33 5.06 12.99
2/28/2023 1:45:00 PM 6.33 43.394 0.377 8.35 4.98 13.23
2/28/2023 2:00:00 PM 6.41 43.538 0.376 8.38 5.22 13.24
2/28/2023 2:15:00 PM 6.49 43.682 0.376 8.4 5.21 13.24
2/28/2023 2:30:00 PM 6.57 43.826 0.376 8.43 5.28 13.29
2/28/2023 2:45:00 PM 6.67 44.006 0.375 8.46 5.4 13.41
2/28/2023 3:00:00 PM 6.71 44.078 0.375 8.48 5.38 13.55
2/28/2023 3:15:00 PM 6.75 44.15 0.374 8.5 5.58 13.58
2/28/2023 3:30:00 PM 6.8 44.24 0.374 8.52 12.47 13.51
2/28/2023 3:45:00 PM 6.83 44.294 0.374 8.53 5.48 13.56
2/28/2023 4:00:00 PM 6.88 44.384 0.374 8.54 17.52 13.76
2/28/2023 4:15:00 PM 6.84 44.312 0.374 8.53 5.71 13.81
2/28/2023 4:30:00 PM 6.82 44.276 0.374 8.51 5.64 13.7
2/28/2023 4:45:00 PM 6.78 44.204 0.374 8.48 5.68 13.55
2/28/2023 5:00:00 PM 6.75 44.15 0.374 8.46 5.56 13.42
2/28/2023 5:15:00 PM 6.75 44.15 0.374 8.44 5.59 13.31
2/28/2023 5:30:00 PM 6.73 44.114 0.374 8.41 5.39 13.23
2/28/2023 5:45:00 PM 6.71 44.078 0.374 8.38 5.45 13.04
2/28/2023 6:00:00 PM 6.68 44.024 0.374 8.35 5.46 12.84
2/28/2023 6:15:00 PM 6.66 43.988 0.374 8.32 7.14 12.66
2/28/2023 6:30:00 PM 6.65 43.97 0.374 8.29 6.81 12.49
2/28/2023 6:45:00 PM 6.65 43.97 0.374 8.27 6.84 12.41
2/28/2023 7:00:00 PM 6.65 43.97 0.374 8.25 5.29 12.34
2/28/2023 7:15:00 PM 6.65 43.97 0.374 8.25 5.43 12.24
2/28/2023 7:30:00 PM 6.64 43.952 0.374 8.24 5.11 12.16
2/28/2023 7:45:00 PM 6.63 43.934 0.374 8.23 4.9 12.08
2/28/2023 8:00:00 PM 6.61 43.898 0.374 8.23 5 12.02
2/28/2023 8:15:00 PM 6.59 43.862 0.374 8.22 4.83 11.96
2/28/2023 8:30:00 PM 6.56 43.808 0.374 8.22 4.87 11.93
2/28/2023 8:45:00 PM 6.52 43.736 0.374 8.21 4.91 11.92
2/28/2023 9:00:00 PM 6.48 43.664 0.374 8.2 5 11.88
2/28/2023 9:15:00 PM 6.44 43.592 0.374 8.19 4.71 11.83
2/28/2023 9:30:00 PM 6.39 43.502 0.375 8.17 5.04 11.73
2/28/2023 9:45:00 PM 6.34 43.412 0.375 8.16 4.87 11.68
2/28/2023 10:00:00 PM 6.3 43.34 0.375 8.14 4.99 11.64
2/28/2023 10:15:00 PM 6.26 43.268 0.375 8.12 4.77 11.57
2/28/2023 10:30:00 PM 6.21 43.178 0.375 8.1 5.36 11.48
2/28/2023 10:45:00 PM 6.16 43.088 0.376 8.09 4.95 11.38
2/28/2023 11:00:00 PM 6.11 42.998 0.376 8.08 51.42 11.32
2/28/2023 11:15:00 PM 6.06 42.908 0.376 8.06 4.71 11.3
2/28/2023 11:30:00 PM 6.01 42.818 0.376 8.04 5.09 11.25
2/28/2023 11:45:00 PM 5.96 42.728 0.376 8.03 4.93 11.2
3/1/2023 12:00:00 AM 5.91 42.638 0.376 8.02 4.79 11.17
3/1/2023 12:15:00 AM 5.86 42.548 0.377 8.01 4.95 11.19
3/1/2023 12:30:00 AM 5.82 42.476 0.377 8 4.81 11.23
3/1/2023 12:45:00 AM 5.77 42.386 0.377 7.99 4.86 11.23
3/1/2023 1:00:00 AM 5.73 42.314 0.377 7.98 5.48 11.23
3/1/2023 1:15:00 AM 5.68 42.224 0.378 7.97 5.09 11.2
3/1/2023 1:30:00 AM 5.63 42.134 0.378 7.96 5.01 11.2
3/1/2023 1:45:00 AM 5.59 42.062 0.378 7.96 4.81 11.18
3/1/2023 2:00:00 AM 5.54 41.972 0.378 7.95 4.91 11.16
3/1/2023 2:15:00 AM 5.5 41.9 0.378 7.95 4.77 11.13
3/1/2023 2:30:00 AM 5.45 41.81 0.378 7.94 6.18 11.02
3/1/2023 2:45:00 AM 5.4 41.72 0.378 7.94 4.71 10.99
3/1/2023 3:00:00 AM 5.36 41.648 0.379 7.93 4.92 10.99
3/1/2023 3:15:00 AM 5.31 41.558 0.379 7.92 4.85 10.92
3/1/2023 3:30:00 AM 5.26 41.468 0.379 7.92 4.91 11
3/1/2023 3:45:00 AM 5.22 41.396 0.379 7.92 4.7 11.03
3/1/2023 4:00:00 AM 5.17 41.306 0.379 7.91 4.68 11.04
3/1/2023 4:15:00 AM 5.12 41.216 0.379 7.91 4.78 11.06
3/1/2023 4:30:00 AM 5.08 41.144 0.379 7.9 4.9 11.07
3/1/2023 4:45:00 AM 5.03 41.054 0.38 7.9 5.1 11.1
3/1/2023 5:00:00 AM 4.99 40.982 0.38 7.9 4.8 11.05
3/1/2023 5:15:00 AM 4.93 40.874 0.38 7.9 5 11.04
3/1/2023 5:30:00 AM 4.89 40.802 0.38 7.89 5.11 11.06
3/1/2023 5:45:00 AM 4.85 40.73 0.38 7.89 6.15 11.1
3/1/2023 6:00:00 AM 4.81 40.658 0.381 7.89 5 11.02
3/1/2023 6:15:00 AM 4.77 40.586 0.381 7.89 4.99 10.96
3/1/2023 6:30:00 AM 4.73 40.514 0.381 7.88 5.09 10.92
3/1/2023 6:45:00 AM 4.69 40.442 0.381 7.88 5.1 11.01
3/1/2023 7:00:00 AM 4.65 40.37 0.382 7.89 4.83 11.09
3/1/2023 7:15:00 AM 4.63 40.334 0.382 7.89 5 11.15
3/1/2023 7:30:00 AM 4.61 40.298 0.382 7.9 4.77 11.21
3/1/2023 7:45:00 AM 4.61 40.298 0.382 7.92 4.76 11.36
3/1/2023 8:00:00 AM 4.64 40.352 0.382 7.94 4.9 11.6
3/1/2023 8:15:00 AM 4.69 40.442 0.382 7.97 5.21 12.03
3/1/2023 8:30:00 AM 4.75 40.55 0.383 7.99 5.49 12.22
3/1/2023 8:45:00 AM 4.83 40.694 0.382 8.02 4.63 12.4
3/1/2023 9:00:00 AM -99999.99 -179968 -99999.99 -99999.99 -99999.99 -99999.99
3/1/2023 9:15:00 AM -99999.99 -179968 -99999.99 -99999.99 -99999.99 -99999.99
3/1/2023 9:30:00 AM -99999.99 -179968 -99999.99 -99999.99 -99999.99 -99999.99
3/1/2023 9:45:00 AM -99999.99 -179968 -99999.99 -99999.99 -99999.99 -99999.99
3/1/2023 10:00:00 AM -99999.99 -179968 -99999.99 -99999.99 -99999.99 -99999.99
3/1/2023 10:15:00 AM -99999.99 -179968 -99999.99 -99999.99 -99999.99 -99999.99
3/1/2023 10:30:00 AM -99999.99 -179968 -99999.99 -99999.99 -99999.99 -99999.99
3/1/2023 10:45:00 AM -99999.99 -179968 -99999.99 -99999.99 -99999.99 -99999.99
3/1/2023 11:00:00 AM -99999.99 -179968 -99999.99 -99999.99 -99999.99 -99999.99
3/1/2023 11:15:00 AM -99999.99 -179968 -99999.99 -99999.99 -99999.99 -99999.99
3/1/2023 11:30:00 AM 5.86 42.548 0.383 7.71 1.29 14.29
3/1/2023 11:45:00 AM 6.08 42.944 0.383 7.86 1.18 14.46
3/1/2023 12:00:00 PM 6.26 43.268 0.383 7.97 1.12 14.53
3/1/2023 12:15:00 PM 6.37 43.466 0.382 8.05 1.23 14.6
3/1/2023 12:30:00 PM 6.53 43.754 0.382 8.11 1.34 14.69
3/1/2023 12:45:00 PM 6.65 43.97 0.382 8.17 1.22 14.75
3/1/2023 1:00:00 PM 6.8 44.24 0.382 8.21 1.25 14.85
3/1/2023 1:15:00 PM 6.87 44.366 0.382 8.24 1.2 14.88
3/1/2023 1:30:00 PM 7.02 44.636 0.382 8.28 1.2 14.94
3/1/2023 1:45:00 PM 7.14 44.852 0.382 8.32 1.13 14.97
3/1/2023 2:00:00 PM 7.22 44.996 0.382 8.35 1.11 14.98
3/1/2023 2:15:00 PM 7.3 45.14 0.382 8.38 1.24 14.98
3/1/2023 2:30:00 PM 7.39 45.302 0.382 8.41 1.19 15.02
3/1/2023 2:45:00 PM 7.44 45.392 0.381 8.43 1.22 15.02
3/1/2023 3:00:00 PM 7.51 45.518 0.381 8.46 1.27 15
3/1/2023 3:15:00 PM 7.53 45.554 0.381 8.48 1.57 14.96
3/1/2023 3:30:00 PM 7.54 45.572 0.381 8.5 1.25 14.93
3/1/2023 3:45:00 PM 7.54 45.572 0.381 8.52 1.25 14.87
3/1/2023 4:00:00 PM 7.53 45.554 0.381 8.52 1.32 14.78
3/1/2023 4:15:00 PM 7.51 45.518 0.381 8.53 1.28 14.64
3/1/2023 4:30:00 PM 7.47 45.446 0.381 8.53 3.13 14.49
3/1/2023 4:45:00 PM 7.44 45.392 0.381 8.51 1.23 14.29
3/1/2023 5:00:00 PM 7.41 45.338 0.381 8.5 1.32 14.08
3/1/2023 5:15:00 PM 7.39 45.302 0.383 8.48 1.29 13.87
3/1/2023 5:30:00 PM 7.37 45.266 0.384 8.46 1.34 13.64
3/1/2023 5:45:00 PM 7.35 45.23 0.385 8.44 1.13 13.4
3/1/2023 6:00:00 PM 7.34 45.212 0.385 8.41 1.28 13.16
3/1/2023 6:15:00 PM 7.34 45.212 0.386 8.38 1.35 12.92
3/1/2023 6:30:00 PM 7.34 45.212 0.387 8.35 1.34 12.72
3/1/2023 6:45:00 PM 7.34 45.212 0.387 8.32 1.32 12.54
3/1/2023 7:00:00 PM 7.34 45.212 0.387 8.29 1.27 12.4
3/1/2023 7:15:00 PM 7.34 45.212 0.387 8.28 1.31 12.29
3/1/2023 7:30:00 PM 7.35 45.23 0.388 8.26 1.23 12.21
3/1/2023 7:45:00 PM 7.35 45.23 0.388 8.25 1.62 12.13
3/1/2023 8:00:00 PM 7.35 45.23 0.389 8.25 1.75 12.07
3/1/2023 8:15:00 PM 7.35 45.23 0.389 8.24 1.47 12.03
3/1/2023 8:30:00 PM 7.34 45.212 0.39 8.23 1.25 11.98
3/1/2023 8:45:00 PM 7.33 45.194 0.39 8.23 1.28 11.94
3/1/2023 9:00:00 PM 7.32 45.176 0.391 8.23 1.43 11.88
3/1/2023 9:15:00 PM 7.3 45.14 0.391 8.22 1.31 11.82
3/1/2023 9:30:00 PM 7.28 45.104 0.392 8.22 1.36 11.77
3/1/2023 9:45:00 PM 7.25 45.05 0.393 8.21 1.34 11.7
3/1/2023 10:00:00 PM 7.21 44.978 0.393 8.2 1.3 11.64
3/1/2023 10:15:00 PM 7.17 44.906 0.394 8.18 1.34 11.58
3/1/2023 10:30:00 PM 7.13 44.834 0.394 8.17 1.33 11.5
3/1/2023 10:45:00 PM 7.1 44.78 0.395 8.16 1.25 11.44
3/1/2023 11:00:00 PM 7.08 44.744 0.395 8.14 1.54 11.37
3/1/2023 11:15:00 PM 7.07 44.726 0.396 8.13 1.28 11.31
3/1/2023 11:30:00 PM 7.06 44.708 0.396 8.11 1.4 11.25
3/1/2023 11:45:00 PM 7.05 44.69 0.397 8.1 1.26 11.18
3/2/2023 12:00:00 AM 7.06 44.708 0.397 8.08 1.24 11.13
3/2/2023 12:15:00 AM 7.07 44.726 0.398 8.07 1.25 11.07
3/2/2023 12:30:00 AM 7.07 44.726 0.399 8.06 1.23 11.02
3/2/2023 12:45:00 AM 7.08 44.744 0.399 8.05 1.26 10.97
3/2/2023 1:00:00 AM 7.08 44.744 0.4 8.04 1.25 10.92
3/2/2023 1:15:00 AM 7.09 44.762 0.4 8.02 1.19 10.88
3/2/2023 1:30:00 AM 7.09 44.762 0.4 8.01 1.32 10.84
3/2/2023 1:45:00 AM 7.09 44.762 0.401 8.01 1.35 10.81
3/2/2023 2:00:00 AM 7.09 44.762 0.401 8 1.19 10.77
3/2/2023 2:15:00 AM 7.09 44.762 0.402 7.99 1.19 10.74
3/2/2023 2:30:00 AM 7.09 44.762 0.402 7.98 1.29 10.71
3/2/2023 2:45:00 AM 7.09 44.762 0.403 7.97 1.67 10.69
3/2/2023 3:00:00 AM 7.09 44.762 0.403 7.97 1.44 10.66
3/2/2023 3:15:00 AM 7.09 44.762 0.403 7.96 1.64 10.64
3/2/2023 3:30:00 AM 7.09 44.762 0.404 7.96 1.32 10.62
3/2/2023 3:45:00 AM 7.09 44.762 0.404 7.95 1.34 10.6
3/2/2023 4:00:00 AM 7.1 44.78 0.404 7.95 1.21 10.58
3/2/2023 4:15:00 AM 7.1 44.78 0.405 7.94 1.45 10.56
3/2/2023 4:30:00 AM 7.1 44.78 0.405 7.94 1.28 10.55
3/2/2023 4:45:00 AM 7.1 44.78 0.405 7.94 1.48 10.53
3/2/2023 5:00:00 AM 7.11 44.798 0.405 7.93 1.21 10.52
3/2/2023 5:15:00 AM 7.11 44.798 0.405 7.93 1.3 10.5
3/2/2023 5:30:00 AM 7.12 44.816 0.405 7.93 1.46 10.49
3/2/2023 5:45:00 AM 7.12 44.816 0.406 7.92 1.21 10.48
3/2/2023 6:00:00 AM 7.13 44.834 0.405 7.92 1.37 10.47
3/2/2023 6:15:00 AM 7.13 44.834 0.405 7.92 1.32 10.45
3/2/2023 6:30:00 AM 7.13 44.834 0.406 7.91 1.31 10.44
3/2/2023 6:45:00 AM 7.14 44.852 0.406 7.91 1.42 10.44
3/2/2023 7:00:00 AM 7.14 44.852 0.406 7.91 2.72 10.44
3/2/2023 7:15:00 AM 7.14 44.852 0.406 7.91 2.07 10.46
3/2/2023 7:30:00 AM 7.14 44.852 0.406 7.91 1.72 10.51
3/2/2023 7:45:00 AM 7.15 44.87 0.406 7.91 2.02 10.57
3/2/2023 8:00:00 AM 7.16 44.888 0.406 7.92 1.68 10.63
3/2/2023 8:15:00 AM 7.17 44.906 0.406 7.92 1.25 10.72
3/2/2023 8:30:00 AM 7.2 44.96 0.406 7.93 1.31 10.85
3/2/2023 8:45:00 AM 7.22 44.996 0.406 7.94 1.33 10.99
3/2/2023 9:00:00 AM 7.25 45.05 0.406 7.95 1.68 11.15
3/2/2023 9:15:00 AM 7.29 45.122 0.406 7.97 1.21 11.36
3/2/2023 9:30:00 AM 7.34 45.212 0.406 7.99 1.36 11.56
3/2/2023 9:45:00 AM 7.38 45.284 0.405 8.01 2.53 11.76
3/2/2023 10:00:00 AM 7.44 45.392 0.405 8.03 1.11 11.99
3/2/2023 10:15:00 AM 7.51 45.518 0.404 8.06 1.05 12.27
3/2/2023 10:30:00 AM 7.64 45.752 0.404 8.1 1.04 12.64
3/2/2023 10:45:00 AM 7.75 45.95 0.403 8.14 1.11 12.96
3/2/2023 11:00:00 AM 7.88 46.184 0.403 8.19 1.2 13.18
3/2/2023 11:15:00 AM 7.96 46.328 0.403 8.22 1.24 13.33
3/2/2023 11:30:00 AM 8.11 46.598 0.402 8.26 1.24 13.52
3/2/2023 11:45:00 AM 8.22 46.796 0.402 8.3 1.21 13.67
3/2/2023 12:00:00 PM 8.34 47.012 0.401 8.34 1.31 13.84
3/2/2023 12:15:00 PM 8.48 47.264 0.401 8.38 1.43 13.97
3/2/2023 12:30:00 PM 8.57 47.426 0.401 8.41 1.7 14.04
3/2/2023 12:45:00 PM 8.64 47.552 0.401 8.44 1.45 14.08
3/2/2023 1:00:00 PM 8.7 47.66 0.4 8.45 1.3 14.11
3/2/2023 1:15:00 PM 8.76 47.768 0.4 8.47 1.47 14.15
3/2/2023 1:30:00 PM 8.8 47.84 0.399 8.5 1.5 14.21
3/2/2023 1:45:00 PM 8.84 47.912 0.399 8.52 1.37 14.27
3/2/2023 2:00:00 PM 8.88 47.984 0.399 8.54 1.48 14.32
3/2/2023 2:15:00 PM 8.92 48.056 0.399 8.56 1.76 14.36
3/2/2023 2:30:00 PM 8.97 48.146 0.398 8.57 1.25 14.42
3/2/2023 2:45:00 PM 9 48.2 0.398 8.59 1.52 14.41
3/2/2023 3:00:00 PM 9.03 48.254 0.397 8.61 1.35 14.44
3/2/2023 3:15:00 PM 9.07 48.326 0.397 8.63 1.39 14.42
3/2/2023 3:30:00 PM 9.09 48.362 0.397 8.65 2.3 14.36
3/2/2023 3:45:00 PM 9.09 48.362 0.397 8.65 1.99 14.23
3/2/2023 4:00:00 PM 9.09 48.362 0.397 8.64 1.21 14.11
3/2/2023 4:15:00 PM 9.1 48.38 0.396 8.64 1.39 13.99
3/2/2023 4:30:00 PM 9.1 48.38 0.396 8.63 1.37 13.86
3/2/2023 4:45:00 PM 9.1 48.38 0.395 8.63 1.4 13.72
3/2/2023 5:00:00 PM 9.1 48.38 0.395 8.62 1.48 13.55
3/2/2023 5:15:00 PM 9.1 48.38 0.395 8.61 1.96 13.34
3/2/2023 5:30:00 PM 9.09 48.362 0.395 8.59 1.54 13.11
3/2/2023 5:45:00 PM 9.07 48.326 0.395 8.57 1.5 12.84
3/2/2023 6:00:00 PM 9.05 48.29 0.396 8.53 1.5 12.57
3/2/2023 6:15:00 PM 9.03 48.254 0.396 8.5 1.46 12.32
3/2/2023 6:30:00 PM 9.01 48.218 0.396 8.47 5.45 12.1
3/2/2023 6:45:00 PM 8.99 48.182 0.396 8.44 1.37 11.92
3/2/2023 7:00:00 PM 8.97 48.146 0.396 8.41 1.38 11.77
3/2/2023 7:15:00 PM 8.94 48.092 0.396 8.39 40.73 11.66
3/2/2023 7:30:00 PM 8.91 48.038 0.396 8.38 354.81 11.58
3/2/2023 7:45:00 PM 8.87 47.966 0.396 8.37 15.38 11.52
3/2/2023 8:00:00 PM 8.83 47.894 0.396 8.36 1.46 11.46
3/2/2023 8:15:00 PM 8.79 47.822 0.396 8.35 1.51 11.43
3/2/2023 8:30:00 PM 8.75 47.75 0.396 8.34 1.51 11.39
3/2/2023 8:45:00 PM 8.7 47.66 0.395 8.34 1.49 11.35
3/2/2023 9:00:00 PM 8.66 47.588 0.395 8.34 10.42 11.3
3/2/2023 9:15:00 PM 8.63 47.534 0.395 8.33 266.53 11.26
3/2/2023 9:30:00 PM 8.61 47.498 0.396 8.32 257.3 11.2
3/2/2023 9:45:00 PM 8.59 47.462 0.396 8.31 34.46 11.14
3/2/2023 10:00:00 PM 8.57 47.426 0.396 8.3 1.62 11.08
3/2/2023 10:15:00 PM 8.54 47.372 0.396 8.28 1.28 11.02
3/2/2023 10:30:00 PM 8.51 47.318 0.396 8.26 1.39 10.95
3/2/2023 10:45:00 PM 8.47 47.246 0.396 8.25 1.47 10.89
3/2/2023 11:00:00 PM 8.42 47.156 0.396 8.23 1.7 10.83
3/2/2023 11:15:00 PM 8.37 47.066 0.396 8.21 1.31 10.77
3/2/2023 11:30:00 PM 8.31 46.958 0.397 8.19 1.24 10.72
3/2/2023 11:45:00 PM 8.26 46.868 0.397 8.17 1.24 10.67
3/3/2023 12:00:00 AM 8.2 46.76 0.397 8.16 1.24 10.62
3/3/2023 12:15:00 AM 8.14 46.652 0.397 8.14 1.28 10.58
3/3/2023 12:30:00 AM 8.08 46.544 0.397 8.13 1.32 10.54
3/3/2023 12:45:00 AM 8.02 46.436 0.397 8.11 1.38 10.5
3/3/2023 1:00:00 AM 7.96 46.328 0.397 8.09 1.32 10.48
3/3/2023 1:15:00 AM 7.9 46.22 0.397 8.08 1.23 10.44
3/3/2023 1:30:00 AM 7.83 46.094 0.397 8.07 1.27 10.43
3/3/2023 1:45:00 AM 7.78 46.004 0.397 8.06 1.25 10.42
3/3/2023 2:00:00 AM 7.72 45.896 0.397 8.05 1.29 10.4
3/3/2023 2:15:00 AM 7.68 45.824 0.397 8.04 1.37 10.39
3/3/2023 2:30:00 AM 7.63 45.734 0.397 8.03 1.3 10.38
3/3/2023 2:45:00 AM 7.61 45.698 0.397 8.02 1.25 10.37
3/3/2023 3:00:00 AM 7.58 45.644 0.397 8.01 1.9 10.36
3/3/2023 3:15:00 AM 7.55 45.59 0.397 8.01 1.36 10.34
3/3/2023 3:30:00 AM 7.53 45.554 0.397 8 1.36 10.35
3/3/2023 3:45:00 AM 7.5 45.5 0.397 7.99 1.31 10.34
3/3/2023 4:00:00 AM 7.47 45.446 0.397 7.99 1.48 10.34
3/3/2023 4:15:00 AM 7.44 45.392 0.397 7.98 1.35 10.33
3/3/2023 4:30:00 AM 7.38 45.284 0.397 7.98 1.55 10.33
3/3/2023 4:45:00 AM 7.33 45.194 0.397 7.97 2.25 10.33
3/3/2023 5:00:00 AM 7.28 45.104 0.397 7.97 1.38 10.34
3/3/2023 5:15:00 AM 7.22 44.996 0.397 7.96 1.29 10.34
3/3/2023 5:30:00 AM 7.15 44.87 0.397 7.96 1.57 10.36
3/3/2023 5:45:00 AM 7.09 44.762 0.397 7.95 1.32 10.37
3/3/2023 6:00:00 AM 7.02 44.636 0.397 7.95 1.32 10.38
3/3/2023 6:15:00 AM 6.96 44.528 0.397 7.95 5.27 10.39
3/3/2023 6:30:00 AM 6.89 44.402 0.397 7.94 1.39 10.41
3/3/2023 6:45:00 AM 6.84 44.312 0.398 7.94 1.34 10.44
3/3/2023 7:00:00 AM 6.8 44.24 0.397 7.94 1.54 10.51
3/3/2023 7:15:00 AM 6.76 44.168 0.397 7.94 1.55 10.61
3/3/2023 7:30:00 AM 6.75 44.15 0.397 7.95 1.77 10.8
3/3/2023 7:45:00 AM 6.76 44.168 0.397 7.97 2.22 11.02
3/3/2023 8:00:00 AM 6.78 44.204 0.397 7.98 1.6 11.28
3/3/2023 8:15:00 AM 6.82 44.276 0.397 8.01 1.52 11.59
3/3/2023 8:30:00 AM 6.86 44.348 0.397 8.04 1.56 11.89
3/3/2023 8:45:00 AM 6.9 44.42 0.397 8.07 1.42 12.14
3/3/2023 9:00:00 AM 6.96 44.528 0.397 8.1 1.61 12.45
3/3/2023 9:15:00 AM 7 44.6 0.397 8.14 1.26 12.71
3/3/2023 9:30:00 AM 7.05 44.69 0.396 8.17 1.21 12.92
3/3/2023 9:45:00 AM 7.09 44.762 0.396 8.2 2.07 13.11
3/3/2023 10:00:00 AM 7.14 44.852 0.396 8.22 1.36 13.21
3/3/2023 10:15:00 AM 7.18 44.924 0.396 8.25 1.29 13.39
3/3/2023 10:30:00 AM 7.23 45.014 0.396 8.28 1.29 13.55
3/3/2023 10:45:00 AM 7.31 45.158 0.396 8.31 1.3 13.75
3/3/2023 11:00:00 AM 7.33 45.194 0.396 8.35 1.2 13.8
3/3/2023 11:15:00 AM 7.36 45.248 0.396 8.37 1.22 13.89
3/3/2023 11:30:00 AM 7.37 45.266 0.396 8.38 1.29 13.91
3/3/2023 11:45:00 AM 7.38 45.284 0.396 8.4 1.28 13.97
3/3/2023 12:00:00 PM 7.39 45.302 0.396 8.41 1.24 14.01
3/3/2023 12:15:00 PM 7.41 45.338 0.396 8.44 1.61 14.11
3/3/2023 12:30:00 PM 7.41 45.338 0.396 8.44 1.3 14.09
3/3/2023 12:45:00 PM 7.4 45.32 0.396 8.45 1.23 14.11
3/3/2023 1:00:00 PM 7.36 45.248 0.396 8.45 1.35 13.91
3/3/2023 1:15:00 PM 7.31 45.158 0.397 8.43 1.52 13.73
3/3/2023 1:30:00 PM 7.28 45.104 0.397 8.41 1.48 13.59
3/3/2023 1:45:00 PM 7.22 44.996 0.397 8.38 1.38 13.41
3/3/2023 2:00:00 PM 7.19 44.942 0.398 8.36 1.2 13.26
3/3/2023 2:15:00 PM 7.14 44.852 0.397 8.34 1.52 13.15
3/3/2023 2:30:00 PM 7.11 44.798 0.397 8.32 1.47 13.06
3/3/2023 2:45:00 PM 7.09 44.762 0.397 8.31 2.82 12.99
3/3/2023 3:00:00 PM 7.07 44.726 0.397 8.3 1.63 12.97
3/3/2023 3:15:00 PM 7.06 44.708 0.397 8.3 1.83 12.98
3/3/2023 3:30:00 PM 7.05 44.69 0.396 8.29 1.65 12.9
3/3/2023 3:45:00 PM 7.02 44.636 0.396 8.29 1.82 12.85
3/3/2023 4:00:00 PM 7.01 44.618 0.396 8.29 1.81 12.77
3/3/2023 4:15:00 PM 6.99 44.582 0.396 8.28 1.51 12.68
3/3/2023 4:30:00 PM 6.99 44.582 0.395 8.27 1.35 12.63
3/3/2023 4:45:00 PM 6.99 44.582 0.395 8.27 1.36 12.55
3/3/2023 5:00:00 PM 6.99 44.582 0.395 8.26 1.26 12.49
3/3/2023 5:15:00 PM 6.98 44.564 0.395 8.26 1.16 12.41
3/3/2023 5:30:00 PM 6.97 44.546 0.395 8.25 1.45 12.31
3/3/2023 5:45:00 PM 6.94 44.492 0.395 8.24 1.24 12.2
3/3/2023 6:00:00 PM 6.93 44.474 0.395 8.24 1.17 12.1
3/3/2023 6:15:00 PM 6.9 44.42 0.396 8.23 1.25 12
3/3/2023 6:30:00 PM 6.87 44.366 0.396 8.22 1.05 11.92
3/3/2023 6:45:00 PM 6.84 44.312 0.396 8.21 1.26 11.84
3/3/2023 7:00:00 PM 6.8 44.24 0.395 8.2 1.16 11.78
3/3/2023 7:15:00 PM 6.77 44.186 0.395 8.19 1.21 11.73
3/3/2023 7:30:00 PM 6.72 44.096 0.394 8.18 1.4 11.68
3/3/2023 7:45:00 PM 6.68 44.024 0.394 8.17 1.48 11.63
3/3/2023 8:00:00 PM 6.62 43.916 0.392 8.16 1.88 11.6
3/3/2023 8:15:00 PM 6.59 43.862 0.392 8.15 1.98 11.56
3/3/2023 8:30:00 PM 6.57 43.826 0.392 8.14 1.83 11.52
3/3/2023 8:45:00 PM 6.55 43.79 0.392 8.13 1.76 11.47
3/3/2023 9:00:00 PM 6.53 43.754 0.391 8.12 2 11.43
3/3/2023 9:15:00 PM 6.52 43.736 0.391 8.11 1.94 11.39
3/3/2023 9:30:00 PM 6.51 43.718 0.39 8.1 2.1 11.34
3/3/2023 9:45:00 PM 6.5 43.7 0.389 8.09 2.16 11.31
3/3/2023 10:00:00 PM 6.5 43.7 0.389 8.08 1.89 11.27
3/3/2023 10:15:00 PM 6.49 43.682 0.387 8.07 2.27 11.23
3/3/2023 10:30:00 PM 6.48 43.664 0.385 8.06 3.64 11.21
3/3/2023 10:45:00 PM 6.45 43.61 0.38 8.06 7.16 11.21
3/3/2023 11:00:00 PM 6.44 43.592 0.377 8.05 9.27 11.19
3/3/2023 11:15:00 PM 6.42 43.556 0.372 8.05 11.67 11.2
3/3/2023 11:30:00 PM 6.41 43.538 0.369 8.05 10.92 11.18
3/3/2023 11:45:00 PM 6.38 43.484 0.364 8.04 14.83 11.19
3/4/2023 12:00:00 AM 6.35 43.43 0.36 8.02 17.61 11.18
3/4/2023 12:15:00 AM 6.31 43.358 0.357 8.01 22.27 11.16
3/4/2023 12:30:00 AM 6.26 43.268 0.353 8 46.11 11.15
3/4/2023 12:45:00 AM 6.2 43.16 0.349 7.98 53.56 11.14
3/4/2023 1:00:00 AM 6.17 43.106 0.347 7.97 68.66 11.14
3/4/2023 1:15:00 AM 6.14 43.052 0.345 7.96 83.59 11.17
3/4/2023 1:30:00 AM 6.11 42.998 0.341 7.96 94.61 11.19
3/4/2023 1:45:00 AM 6.05 42.89 0.332 7.95 97.99 11.24
3/4/2023 2:00:00 AM 5.94 42.692 0.319 7.94 161.67 11.3
3/4/2023 2:15:00 AM 5.85 42.53 0.311 7.93 177.91 11.34
3/4/2023 2:30:00 AM 5.79 42.422 0.306 7.9 194.98 11.34
3/4/2023 2:45:00 AM 5.76 42.368 0.3 7.88 283.2 11.31
3/4/2023 3:00:00 AM 5.72 42.296 0.291 7.88 409.43 11.29
3/4/2023 3:15:00 AM 5.65 42.17 0.286 7.87 471.18 11.29
3/4/2023 3:30:00 AM 5.62 42.116 0.284 7.87 390.95 11.3
3/4/2023 3:45:00 AM 5.56 42.008 0.274 7.85 477.08 11.31
3/4/2023 4:00:00 AM 5.47 41.846 0.255 7.86 550.96 11.34
3/4/2023 4:15:00 AM 5.39 41.702 0.238 7.82 1011.01 11.39
3/4/2023 4:30:00 AM 5.34 41.612 0.225 7.78 1365.44 11.42
3/4/2023 4:45:00 AM 5.29 41.522 0.212 7.75 3081.2 11.44
3/4/2023 5:00:00 AM 5.24 41.432 0.2 7.73 635.17 11.47
3/4/2023 5:15:00 AM 5.22 41.396 0.193 7.72 614.72 11.5
3/4/2023 5:30:00 AM 5.2 41.36 0.188 7.7 588.26 11.5
3/4/2023 5:45:00 AM 5.2 41.36 0.185 7.69 525.39 11.51
3/4/2023 6:00:00 AM 5.19 41.342 0.183 7.68 507.31 11.52
3/4/2023 6:15:00 AM 5.19 41.342 0.182 7.67 499.71 11.52
3/4/2023 6:30:00 AM 5.2 41.36 0.183 7.67 540.53 11.51
3/4/2023 6:45:00 AM 5.21 41.378 0.184 7.67 491.22 11.51
3/4/2023 7:00:00 AM 5.23 41.414 0.186 7.65 378.46 11.5
3/4/2023 7:15:00 AM 5.26 41.468 0.188 7.65 366.1 11.49
3/4/2023 7:30:00 AM 5.29 41.522 0.19 7.65 336.63 11.47
3/4/2023 7:45:00 AM 5.32 41.576 0.191 7.66 356.1 11.46
3/4/2023 8:00:00 AM 5.35 41.63 0.193 7.66 311.37 11.45
3/4/2023 8:15:00 AM 5.39 41.702 0.195 7.65 277.67 11.44
3/4/2023 8:30:00 AM 5.42 41.756 0.197 7.65 394.87 11.43
3/4/2023 8:45:00 AM 5.45 41.81 0.199 7.63 272.72 11.42
3/4/2023 9:00:00 AM 5.49 41.882 0.201 7.63 270.45 11.42
3/4/2023 9:15:00 AM 5.52 41.936 0.203 7.64 238.78 11.42
3/4/2023 9:30:00 AM 5.56 42.008 0.206 7.64 234.22 11.42
3/4/2023 9:45:00 AM 5.6 42.08 0.208 7.64 228.04 11.42
3/4/2023 10:00:00 AM 5.65 42.17 0.211 7.64 264.21 11.42
3/4/2023 10:15:00 AM 5.68 42.224 0.213 7.63 187.76 11.43
3/4/2023 10:30:00 AM 5.71 42.278 0.216 7.63 186.28 11.44
3/4/2023 10:45:00 AM 5.74 42.332 0.219 7.63 182.05 11.44
3/4/2023 11:00:00 AM 5.8 42.44 0.222 7.63 165.93 11.44
3/4/2023 11:15:00 AM 5.88 42.584 0.225 7.63 140.45 11.44
3/4/2023 11:30:00 AM 5.95 42.71 0.227 7.63 150.76 11.45
3/4/2023 11:45:00 AM 6.05 42.89 0.23 7.63 145.99 11.44
3/4/2023 12:00:00 PM 6.13 43.034 0.232 7.63 129.21 11.44
3/4/2023 12:15:00 PM 6.18 43.124 0.235 7.63 125.96 11.45
3/4/2023 12:30:00 PM 6.26 43.268 0.238 7.63 125.29 11.45
3/4/2023 12:45:00 PM 6.45 43.61 0.24 7.63 130.05 11.44
3/4/2023 1:00:00 PM 6.68 44.024 0.243 7.63 95.32 11.43
3/4/2023 1:15:00 PM 6.86 44.348 0.245 7.63 95.51 11.43
3/4/2023 1:30:00 PM 6.99 44.582 0.247 7.63 95.98 11.42
3/4/2023 1:45:00 PM 7.03 44.654 0.25 7.63 95.89 11.41
3/4/2023 2:00:00 PM 7.03 44.654 0.252 7.63 92.82 11.4
3/4/2023 2:15:00 PM 7.11 44.798 0.254 7.64 78.04 11.39
3/4/2023 2:30:00 PM 7.19 44.942 0.257 7.64 85.32 11.38
3/4/2023 2:45:00 PM 7.28 45.104 0.259 7.64 77.54 11.35
3/4/2023 3:00:00 PM 7.37 45.266 0.261 7.64 72.76 11.34
3/4/2023 3:15:00 PM 7.46 45.428 0.263 7.64 76.42 11.33
3/4/2023 3:30:00 PM 7.47 45.446 0.266 7.64 78.71 11.32
3/4/2023 3:45:00 PM 7.49 45.482 0.268 7.64 65.88 11.31
3/4/2023 4:00:00 PM 7.53 45.554 0.27 7.64 61.38 11.3
3/4/2023 4:15:00 PM 7.57 45.626 0.272 7.64 53.05 11.29
3/4/2023 4:30:00 PM 7.6 45.68 0.274 7.64 49.61 11.27
3/4/2023 4:45:00 PM 7.61 45.698 0.276 7.64 47.54 11.25
3/4/2023 5:00:00 PM 7.63 45.734 0.277 7.64 65.91 11.23
3/4/2023 5:15:00 PM 7.65 45.77 0.279 7.65 52.94 11.2
3/4/2023 5:30:00 PM 7.66 45.788 0.281 7.65 58.85 11.19
3/4/2023 5:45:00 PM 7.67 45.806 0.253 7.63 51.27 11.17
3/4/2023 6:00:00 PM 7.66 45.788 0.136 7.74 44.85 11.17
3/4/2023 6:15:00 PM 7.64 45.752 0.135 7.75 48.69 11.16
3/4/2023 6:30:00 PM 7.62 45.716 0.136 7.75 39.53 11.03
3/4/2023 6:45:00 PM 7.61 45.698 0.137 7.76 39.18 11.13
3/4/2023 7:00:00 PM 7.6 45.68 0.137 7.76 37.15 11.12
3/4/2023 7:15:00 PM 7.58 45.644 0.138 7.76 36.35 11.11
3/4/2023 7:30:00 PM 7.55 45.59 0.139 7.76 38.14 11.11
3/4/2023 7:45:00 PM 7.52 45.536 0.139 7.76 41.71 11.1
3/4/2023 8:00:00 PM 7.49 45.482 0.14 7.77 33.04 11.1
3/4/2023 8:15:00 PM 7.46 45.428 0.14 7.77 38 11.09
3/4/2023 8:30:00 PM 7.43 45.374 0.141 7.76 43.05 11.1
3/4/2023 8:45:00 PM 7.39 45.302 0.141 7.77 34.62 11.1
3/4/2023 9:00:00 PM 7.35 45.23 0.142 7.77 27.01 11.1
3/4/2023 9:15:00 PM 7.31 45.158 0.142 7.77 29.98 11.1
3/4/2023 9:30:00 PM 7.27 45.086 0.143 7.77 30.05 11.12
3/4/2023 9:45:00 PM 7.23 45.014 0.299 7.77 33.42 11.12
3/4/2023 10:00:00 PM 7.18 44.924 0.302 7.77 25.46 11.13
3/4/2023 10:15:00 PM 7.13 44.834 0.304 7.77 26.85 11.13
3/4/2023 10:30:00 PM 7.09 44.762 0.306 7.77 25.91 11.14
3/4/2023 10:45:00 PM 7.04 44.672 0.307 7.77 27.38 11.15
3/4/2023 11:00:00 PM 6.99 44.582 0.308 7.77 28.36 11.16
3/4/2023 11:15:00 PM 6.95 44.51 0.311 7.77 25.71 11.17
3/4/2023 11:30:00 PM 6.9 44.42 0.312 7.77 25.32 11.18
3/4/2023 11:45:00 PM 6.85 44.33 0.313 7.77 24.68 11.19
3/5/2023 12:00:00 AM 6.79 44.222 0.314 7.77 24.31 11.2
3/5/2023 12:15:00 AM 6.73 44.114 0.315 7.77 24.5 11.22
3/5/2023 12:30:00 AM 6.67 44.006 0.315 7.77 23.51 11.23
3/5/2023 12:45:00 AM 6.62 43.916 0.316 7.77 22.29 11.25
3/5/2023 1:00:00 AM 6.57 43.826 0.317 7.77 22.37 11.25
3/5/2023 1:15:00 AM 6.52 43.736 0.318 7.78 20.84 11.27
3/5/2023 1:30:00 AM 6.46 43.628 0.319 7.77 22.43 11.29
3/5/2023 1:45:00 AM 6.42 43.556 0.32 7.78 21.24 11.3
3/5/2023 2:00:00 AM 6.36 43.448 0.32 7.78 17.84 11.32
3/5/2023 2:15:00 AM 6.32 43.376 0.321 7.78 19.93 11.33
3/5/2023 2:30:00 AM 6.27 43.286 0.322 7.78 21.07 11.34
3/5/2023 2:45:00 AM 6.22 43.196 0.323 7.78 22.6 11.36
3/5/2023 3:00:00 AM 6.16 43.088 0.323 7.78 19.55 11.38
3/5/2023 3:15:00 AM 6.11 42.998 0.324 7.78 18.45 11.4
3/5/2023 3:30:00 AM 6.06 42.908 0.325 7.78 18.39 11.41
3/5/2023 3:45:00 AM 6.01 42.818 0.326 7.78 17.92 11.43
3/5/2023 4:00:00 AM 5.96 42.728 0.326 7.78 17.99 11.45
3/5/2023 4:15:00 AM 5.91 42.638 0.327 7.78 18.03 11.47
3/5/2023 4:30:00 AM 5.86 42.548 0.328 7.78 17.71 11.5
3/5/2023 4:45:00 AM 5.8 42.44 0.328 7.78 17.5 11.52
3/5/2023 5:00:00 AM 5.75 42.35 0.329 7.78 18.11 11.53
3/5/2023 5:15:00 AM 5.7 42.26 0.329 7.78 17.14 11.54
3/5/2023 5:30:00 AM 5.65 42.17 0.33 7.78 21.58 11.56
3/5/2023 5:45:00 AM 5.59 42.062 0.33 7.78 19.24 11.58
3/5/2023 6:00:00 AM 5.54 41.972 0.331 7.78 16.79 11.6
3/5/2023 6:15:00 AM 5.5 41.9 0.331 7.78 16.97 11.62
3/5/2023 6:30:00 AM 5.45 41.81 0.328 7.78 4.3 11.63
3/5/2023 6:45:00 AM 5.4 41.72 0.319 7.78 13.79 11.66
3/5/2023 7:00:00 AM 5.35 41.63 0.333 7.78 16.4 11.69
3/5/2023 7:15:00 AM 5.31 41.558 0.333 7.78 28.36 11.72
3/5/2023 7:30:00 AM 5.29 41.522 0.334 7.78 15.05 11.76
3/5/2023 7:45:00 AM 5.28 41.504 0.335 7.79 15.73 11.8
3/5/2023 8:00:00 AM 5.27 41.486 0.316 7.8 14.47 11.85
3/5/2023 8:15:00 AM 5.28 41.504 0.335 7.8 9.91 11.88
3/5/2023 8:30:00 AM 5.3 41.54 0.336 7.81 12.44 11.93
3/5/2023 8:45:00 AM 5.34 41.612 0.336 7.81 8.25 11.97
3/5/2023 9:00:00 AM 5.39 41.702 0.336 7.81 13.68 12.01
3/5/2023 9:15:00 AM 5.44 41.792 0.337 7.82 7.36 12.03
3/5/2023 9:30:00 AM 5.52 41.936 0.335 7.83 13.17 12.08
3/5/2023 9:45:00 AM 5.6 42.08 0.334 7.84 10.8 12.11
3/5/2023 10:00:00 AM 5.68 42.224 0.337 7.84 12.66 12.14
3/5/2023 10:15:00 AM 5.79 42.422 0.337 7.85 10.78 12.18
3/5/2023 10:30:00 AM 5.88 42.584 0.133 7.85 12.86 12.19
3/5/2023 10:45:00 AM 6.01 42.818 0.338 7.85 12.14 12.21
3/5/2023 11:00:00 AM 6.16 43.088 0.224 7.87 12.1 12.24
3/5/2023 11:15:00 AM 6.33 43.394 0.339 7.77 11.67 12.25
3/5/2023 11:30:00 AM 6.49 43.682 0.319 7.88 11.49 12.26
3/5/2023 11:45:00 AM 6.68 44.024 0.339 7.88 11.74 12.26
3/5/2023 12:00:00 PM 6.77 44.186 0.339 7.88 11.56 12.24
3/5/2023 12:15:00 PM 6.85 44.33 0.339 7.89 11.59 12.22
3/5/2023 12:30:00 PM 6.98 44.564 0.34 7.89 9.99 12.23
3/5/2023 12:45:00 PM 7.05 44.69 0.33 7.9 10.81 12.2
3/5/2023 1:00:00 PM 7.26 45.068 0.34 7.9 11.23 12.2
3/5/2023 1:15:00 PM 7.45 45.41 0.129 7.74 10.47 12.19
3/5/2023 1:30:00 PM 7.59 45.662 0.341 7.91 10.8 12.15
3/5/2023 1:45:00 PM 7.7 45.86 0.341 7.91 10.29 12.12
3/5/2023 2:00:00 PM 7.86 46.148 0.211 7.92 9.79 12.11
3/5/2023 2:15:00 PM 7.87 46.166 0.337 7.92 10.07 12.05
3/5/2023 2:30:00 PM 7.95 46.31 0.154 7.92 10.63 12.04
3/5/2023 2:45:00 PM 8.05 46.49 0.342 7.93 9.8 12.02
3/5/2023 3:00:00 PM 8.21 46.778 0.342 7.93 11.54 12
3/5/2023 3:15:00 PM 8.28 46.904 0.337 7.93 10.2 11.93
3/5/2023 3:30:00 PM 8.36 47.048 0.343 7.94 10.02 11.91
3/5/2023 3:45:00 PM 8.42 47.156 0.343 7.94 10.95 11.87
3/5/2023 4:00:00 PM 8.47 47.246 0.273 7.94 9.9 11.82
3/5/2023 4:15:00 PM 8.52 47.336 0.343 7.94 11.68 11.64
3/5/2023 4:30:00 PM 8.58 47.444 0.344 7.94 9.8 11.69
3/5/2023 4:45:00 PM 8.64 47.552 0.342 7.93 9.96 11.63
3/5/2023 5:00:00 PM 8.68 47.624 0.344 7.93 9.62 11.57
3/5/2023 5:15:00 PM 8.72 47.696 0.344 7.93 9.81 11.51
3/5/2023 5:30:00 PM 8.75 47.75 0.345 7.93 9.11 11.45
3/5/2023 5:45:00 PM 8.78 47.804 0.345 7.92 8.81 11.39
3/5/2023 6:00:00 PM 8.8 47.84 0.345 7.92 9.32 11.33
3/5/2023 6:15:00 PM 8.81 47.858 0.345 7.91 9.07 11.26
3/5/2023 6:30:00 PM 8.81 47.858 0.346 7.91 9.55 11.21
3/5/2023 6:45:00 PM 8.8 47.84 0.346 7.9 9.4 11.16
3/5/2023 7:00:00 PM 8.77 47.786 0.346 7.9 9.19 11.12
3/5/2023 7:15:00 PM 8.75 47.75 0.346 7.9 13.13 11.09
3/5/2023 7:30:00 PM 8.72 47.696 0.346 7.9 9.75 11.06
3/5/2023 7:45:00 PM 8.69 47.642 0.347 7.89 10.07 11.04
3/5/2023 8:00:00 PM 8.66 47.588 0.347 7.89 9.42 11.01
3/5/2023 8:15:00 PM 8.62 47.516 0.347 7.88 9.46 10.99
3/5/2023 8:30:00 PM 8.59 47.462 0.347 7.88 9.63 10.97
3/5/2023 8:45:00 PM 8.54 47.372 0.348 7.88 9.21 10.96
3/5/2023 9:00:00 PM 8.51 47.318 0.348 7.88 9.06 10.94
3/5/2023 9:15:00 PM 8.47 47.246 0.348 7.87 8.93 10.94
3/5/2023 9:30:00 PM 8.43 47.174 0.348 7.87 9.14 10.92
3/5/2023 9:45:00 PM 8.39 47.102 0.349 7.87 8.77 10.92
3/5/2023 10:00:00 PM 8.35 47.03 0.349 7.87 9.34 10.92
3/5/2023 10:15:00 PM 8.31 46.958 0.349 7.86 9.06 10.92
3/5/2023 10:30:00 PM 8.26 46.868 0.349 7.86 8.81 10.91
3/5/2023 10:45:00 PM 8.22 46.796 0.349 7.86 9.35 10.92
3/5/2023 11:00:00 PM 8.16 46.688 0.35 7.86 8.81 10.92
3/5/2023 11:15:00 PM 8.12 46.616 0.35 7.86 8.72 10.92
3/5/2023 11:30:00 PM 8.06 46.508 0.35 7.86 8.75 10.92
3/5/2023 11:45:00 PM 8.01 46.418 0.35 7.85 8.69 10.93
3/6/2023 12:00:00 AM 7.95 46.31 0.35 7.85 9.29 10.95
3/6/2023 12:15:00 AM 7.88 46.184 0.351 7.85 8.79 10.96
3/6/2023 12:30:00 AM 7.82 46.076 0.351 7.85 8.89 10.98
3/6/2023 12:45:00 AM 7.75 45.95 0.351 7.85 8.55 10.98
3/6/2023 1:00:00 AM 7.69 45.842 0.352 7.85 9.04 10.99
3/6/2023 1:15:00 AM 7.63 45.734 0.352 7.85 8.94 11
3/6/2023 1:30:00 AM 7.56 45.608 0.352 7.84 9 11.02
3/6/2023 1:45:00 AM 7.49 45.482 0.352 7.84 9.19 11.02
3/6/2023 2:00:00 AM 7.43 45.374 0.353 7.84 8.74 11.05
3/6/2023 2:15:00 AM 7.35 45.23 0.353 7.85 8.65 11.06
3/6/2023 2:30:00 AM 7.28 45.104 0.353 7.85 9.36 11.08
3/6/2023 2:45:00 AM 7.21 44.978 0.353 7.84 9.04 11.1
3/6/2023 3:00:00 AM 7.14 44.852 0.354 7.84 9 11.12
3/6/2023 3:15:00 AM 7.07 44.726 0.354 7.83 8.92 11.14
3/6/2023 3:30:00 AM 7 44.6 0.354 7.83 9.46 11.15
3/6/2023 3:45:00 AM 6.92 44.456 0.354 7.83 8.75 11.18
3/6/2023 4:00:00 AM 6.84 44.312 0.355 7.83 9.01 11.2
3/6/2023 4:15:00 AM 6.77 44.186 0.355 7.83 8.37 11.22
3/6/2023 4:30:00 AM 6.7 44.06 0.355 7.83 8.7 11.24
3/6/2023 4:45:00 AM 6.62 43.916 0.355 7.83 8.74 11.27
3/6/2023 5:00:00 AM 6.56 43.808 0.356 7.83 8.51 11.28
3/6/2023 5:15:00 AM 6.49 43.682 0.356 7.83 8.99 11.31
3/6/2023 5:30:00 AM 6.42 43.556 0.356 7.83 8.35 11.33
3/6/2023 5:45:00 AM 6.35 43.43 0.356 7.83 8.73 11.35
3/6/2023 6:00:00 AM 6.28 43.304 0.357 7.83 8.34 11.38
3/6/2023 6:15:00 AM 6.22 43.196 0.357 7.83 8.67 11.39
3/6/2023 6:30:00 AM 6.15 43.07 0.357 7.83 8.55 11.41
3/6/2023 6:45:00 AM 6.09 42.962 0.357 7.83 9.27 11.44
3/6/2023 7:00:00 AM 6.03 42.854 0.357 7.83 8.47 11.48
3/6/2023 7:15:00 AM 5.98 42.764 0.358 7.83 9.11 11.52
3/6/2023 7:30:00 AM 5.94 42.692 0.358 7.84 7.75 11.56
3/6/2023 7:45:00 AM 5.92 42.656 0.358 7.84 7.92 11.62
3/6/2023 8:00:00 AM 5.91 42.638 0.358 7.85 7.23 11.67
3/6/2023 8:15:00 AM 5.92 42.656 0.358 7.85 7.5 11.73
3/6/2023 8:30:00 AM 5.95 42.71 0.358 7.86 7.49 11.79
3/6/2023 8:45:00 AM 5.98 42.764 0.358 7.87 10.49 11.84
3/6/2023 9:00:00 AM 6.02 42.836 0.359 7.87 6.86 11.9
3/6/2023 9:15:00 AM 6.08 42.944 0.359 7.88 6.95 11.95
3/6/2023 9:30:00 AM 6.14 43.052 0.358 7.88 6.5 12
3/6/2023 9:45:00 AM 6.21 43.178 0.359 7.89 7.84 12.04
3/6/2023 10:00:00 AM 6.28 43.304 0.359 7.9 6 12.09
3/6/2023 10:15:00 AM 6.37 43.466 0.359 7.9 5.97 12.13
3/6/2023 10:30:00 AM 6.48 43.664 0.359 7.91 5.75 12.16
3/6/2023 10:45:00 AM 6.59 43.862 0.359 7.92 6 12.19
3/6/2023 11:00:00 AM 6.71 44.078 0.359 7.92 6.05 12.21
3/6/2023 11:15:00 AM 6.86 44.348 0.359 7.93 6.03 12.24
3/6/2023 11:30:00 AM 7 44.6 0.359 7.93 9 12.25
3/6/2023 11:45:00 AM 7.15 44.87 0.359 7.93 5.81 12.26
3/6/2023 12:00:00 PM 7.3 45.14 0.359 7.94 5.72 12.27
3/6/2023 12:15:00 PM 7.46 45.428 0.359 7.95 5.36 12.28
3/6/2023 12:30:00 PM 7.61 45.698 0.359 7.95 6.08 12.28
3/6/2023 12:45:00 PM 7.76 45.968 0.36 7.96 5.8 12.27
3/6/2023 1:00:00 PM 7.89 46.202 0.36 7.96 5.73 12.26
3/6/2023 1:15:00 PM 8.02 46.436 0.359 7.97 6.36 12.24
3/6/2023 1:30:00 PM 8.11 46.598 0.359 7.97 6.04 12.23
3/6/2023 1:45:00 PM 8.2 46.76 0.36 7.97 5.78 12.21
3/6/2023 2:00:00 PM 8.3 46.94 0.36 7.98 5.74 12.18
3/6/2023 2:15:00 PM 8.39 47.102 0.36 7.98 5.51 12.16
3/6/2023 2:30:00 PM 8.45 47.21 0.36 7.98 5.67 12.13
3/6/2023 2:45:00 PM 8.51 47.318 0.36 7.98 5.49 12.09
3/6/2023 3:00:00 PM 8.56 47.408 0.36 7.99 5.82 12.06
3/6/2023 3:15:00 PM 8.59 47.462 0.36 7.99 6.2 12.02
3/6/2023 3:30:00 PM 8.62 47.516 0.36 7.99 6.14 11.97
3/6/2023 3:45:00 PM 8.65 47.57 0.36 7.99 5.53 11.92
3/6/2023 4:00:00 PM 8.67 47.606 0.36 7.99 5.65 11.87
3/6/2023 4:15:00 PM 8.69 47.642 0.36 7.99 5.53 11.82
3/6/2023 4:30:00 PM 8.71 47.678 0.361 7.98 5.59 11.75
3/6/2023 4:45:00 PM 8.73 47.714 0.361 7.98 6.79 11.68
3/6/2023 5:00:00 PM 8.74 47.732 0.361 7.97 6.44 11.63
3/6/2023 5:15:00 PM 8.77 47.786 0.361 7.97 5.94 11.57
3/6/2023 5:30:00 PM 8.8 47.84 0.361 7.97 6.22 11.52
3/6/2023 5:45:00 PM 8.81 47.858 0.361 7.96 6.05 11.45
3/6/2023 6:00:00 PM 8.8 47.84 0.361 7.96 5.96 11.38
3/6/2023 6:15:00 PM 8.78 47.804 0.361 7.95 6.25 11.31
3/6/2023 6:30:00 PM 8.78 47.804 0.361 7.94 5.94 11.25
3/6/2023 6:45:00 PM 8.77 47.786 0.361 7.94 5.93 11.2
3/6/2023 7:00:00 PM 8.77 47.786 0.361 7.93 6.11 11.14
3/6/2023 7:15:00 PM 8.77 47.786 0.361 7.93 6.75 11.1
3/6/2023 7:30:00 PM 8.77 47.786 0.361 7.92 6.24 11.07
3/6/2023 7:45:00 PM 8.75 47.75 0.361 7.92 6.98 11.04
3/6/2023 8:00:00 PM 8.73 47.714 0.361 7.91 6.55 11.01
3/6/2023 8:15:00 PM 8.7 47.66 0.361 7.91 6.33 10.99
3/6/2023 8:30:00 PM 8.67 47.606 0.361 7.91 6.32 10.96
3/6/2023 8:45:00 PM 8.64 47.552 0.361 7.9 6.89 10.93
3/6/2023 9:00:00 PM 8.6 47.48 0.361 7.9 6.56 10.91
3/6/2023 9:15:00 PM 8.56 47.408 0.361 7.9 6.18 10.89
3/6/2023 9:30:00 PM 8.52 47.336 0.361 7.89 6.39 10.88
3/6/2023 9:45:00 PM 8.48 47.264 0.361 7.89 6.63 10.87
3/6/2023 10:00:00 PM 8.44 47.192 0.362 7.88 6.39 10.85
3/6/2023 10:15:00 PM 8.4 47.12 0.362 7.88 6.59 10.84
3/6/2023 10:30:00 PM 8.37 47.066 0.362 7.88 6.38 10.83
3/6/2023 10:45:00 PM 8.34 47.012 0.362 7.87 6.15 10.82
3/6/2023 11:00:00 PM 8.31 46.958 0.362 7.87 6.1 10.81
3/6/2023 11:15:00 PM 8.28 46.904 0.362 7.87 6.19 10.8
3/6/2023 11:30:00 PM 8.26 46.868 0.362 7.87 6.28 10.79
3/6/2023 11:45:00 PM 8.24 46.832 0.362 7.87 6.21 10.79
3/7/2023 12:00:00 AM 8.24 46.832 0.362 7.87 6.51 10.78
3/7/2023 12:15:00 AM 8.23 46.814 0.362 7.87 6.05 10.78
3/7/2023 12:30:00 AM 8.21 46.778 0.363 7.86 5.98 10.77
3/7/2023 12:45:00 AM 8.19 46.742 0.363 7.86 6.29 10.77
3/7/2023 1:00:00 AM 8.17 46.706 0.363 7.86 6.3 10.77
3/7/2023 1:15:00 AM 8.16 46.688 0.363 7.86 6.24 10.77
3/7/2023 1:30:00 AM 8.13 46.634 0.363 7.86 6.34 10.77
3/7/2023 1:45:00 AM 8.1 46.58 0.363 7.86 6.31 10.77
3/7/2023 2:00:00 AM 8.08 46.544 0.363 7.86 6.4 10.77
3/7/2023 2:15:00 AM 8.06 46.508 0.363 7.86 6.36 10.77
3/7/2023 2:30:00 AM 8.03 46.454 0.364 7.86 6.38 10.77
3/7/2023 2:45:00 AM 8.01 46.418 0.364 7.86 6.46 10.78
3/7/2023 3:00:00 AM 7.97 46.346 0.365 7.86 6.45 10.78
3/7/2023 3:15:00 AM 7.92 46.256 0.365 7.86 6.37 10.78
3/7/2023 3:30:00 AM 7.89 46.202 0.365 7.86 5.9 10.79
3/7/2023 3:45:00 AM 7.86 46.148 0.366 7.86 6.17 10.8
3/7/2023 4:00:00 AM 7.83 46.094 0.366 7.85 6.11 10.76
3/7/2023 4:15:00 AM 7.8 46.04 0.366 7.86 5.88 10.81
3/7/2023 4:30:00 AM 7.78 46.004 0.366 7.86 6.3 10.81
3/7/2023 4:45:00 AM 7.75 45.95 0.367 7.86 5.98 10.82
3/7/2023 5:00:00 AM 7.72 45.896 0.367 7.86 6.12 10.83
3/7/2023 5:15:00 AM 7.69 45.842 0.367 7.86 6.36 10.84
3/7/2023 5:30:00 AM 7.65 45.77 0.367 7.86 5.75 10.85
3/7/2023 5:45:00 AM 7.62 45.716 0.367 7.86 6.16 10.85
3/7/2023 6:00:00 AM 7.58 45.644 0.367 7.86 6.09 10.82
3/7/2023 6:15:00 AM 7.55 45.59 0.367 7.86 6.31 10.88
3/7/2023 6:30:00 AM 7.51 45.518 0.367 7.86 6.13 10.89
3/7/2023 6:45:00 AM 7.46 45.428 0.368 7.86 5.89 10.91
3/7/2023 7:00:00 AM 7.42 45.356 0.368 7.86 6.02 10.92
3/7/2023 7:15:00 AM 7.4 45.32 0.368 7.86 6.41 10.96
3/7/2023 7:30:00 AM 7.38 45.284 0.368 7.87 6.06 11
3/7/2023 7:45:00 AM 7.35 45.23 0.368 7.87 6.36 11.04
3/7/2023 8:00:00 AM 7.31 45.158 0.368 7.87 6.13 11.07
3/7/2023 8:15:00 AM 7.28 45.104 0.368 7.88 6.22 11.12
3/7/2023 8:30:00 AM 7.25 45.05 0.368 7.88 5.55 11.17
3/7/2023 8:45:00 AM 7.24 45.032 0.368 7.89 5.41 11.23
3/7/2023 9:00:00 AM 7.25 45.05 0.369 7.89 5.55 11.3
3/7/2023 9:15:00 AM 7.28 45.104 0.369 7.9 5.87 11.38
3/7/2023 9:30:00 AM 7.31 45.158 0.369 7.91 5.38 11.46
3/7/2023 9:45:00 AM 7.35 45.23 0.368 7.92 5.44 11.52
3/7/2023 10:00:00 AM 7.43 45.374 0.368 7.93 5.46 11.59
3/7/2023 10:15:00 AM 7.51 45.518 0.368 7.93 5.28 11.65
3/7/2023 10:30:00 AM 7.6 45.68 0.369 7.94 4.92 11.69
3/7/2023 10:45:00 AM 7.71 45.878 0.369 7.95 4.91 11.72
3/7/2023 11:00:00 AM 7.81 46.058 0.369 7.95 4.67 11.75
3/7/2023 11:15:00 AM 7.92 46.256 0.369 7.96 4.69 11.77
3/7/2023 11:30:00 AM 8.03 46.454 0.369 7.97 4.74 11.8
3/7/2023 11:45:00 AM 8.16 46.688 0.369 7.98 4.61 11.83
3/7/2023 12:00:00 PM 8.29 46.922 0.369 7.98 4.63 11.86
3/7/2023 12:15:00 PM 8.41 47.138 0.369 7.99 4.48 11.88
3/7/2023 12:30:00 PM 8.53 47.354 0.369 8 5.01 11.91
3/7/2023 12:45:00 PM 8.65 47.57 0.369 8.01 4.71 11.92
3/7/2023 1:00:00 PM 8.73 47.714 0.369 8.01 4.84 11.92
3/7/2023 1:15:00 PM 8.82 47.876 0.369 8.02 4.65 11.92
3/7/2023 1:30:00 PM 8.89 48.002 0.369 8.02 4.74 11.93
3/7/2023 1:45:00 PM 8.94 48.092 0.369 8.03 4.48 11.92
3/7/2023 2:00:00 PM 8.99 48.182 0.369 8.03 4.14 11.9
3/7/2023 2:15:00 PM 9.04 48.272 0.369 8.04 4.55 11.89
3/7/2023 2:30:00 PM 9.08 48.344 0.369 8.04 4.66 11.88
3/7/2023 2:45:00 PM 9.09 48.362 0.369 8.04 4.51 11.86
3/7/2023 3:00:00 PM 9.09 48.362 0.369 8.04 4.71 11.83
3/7/2023 3:15:00 PM 9.08 48.344 0.369 8.05 4.52 11.81
3/7/2023 3:30:00 PM 9.07 48.326 0.369 8.05 4.6 11.78
3/7/2023 3:45:00 PM 9.04 48.272 0.369 8.05 4.64 11.74
3/7/2023 4:00:00 PM 9.01 48.218 0.369 8.04 4.89 11.7
3/7/2023 4:15:00 PM 8.98 48.164 0.369 8.04 4.82 11.65
3/7/2023 4:30:00 PM 8.97 48.146 0.369 8.04 5.38 11.6
3/7/2023 4:45:00 PM 8.95 48.11 0.369 8.03 4.76 11.55
3/7/2023 5:00:00 PM 8.9 48.02 0.369 8.02 4.74 11.49
3/7/2023 5:15:00 PM 8.84 47.912 0.369 8.02 4.24 11.44
3/7/2023 5:30:00 PM 8.79 47.822 0.369 8.01 4.76 11.4
3/7/2023 5:45:00 PM 8.74 47.732 0.369 8.01 4.56 11.34
3/7/2023 6:00:00 PM 8.69 47.642 0.369 8 5.56 11.29
3/7/2023 6:15:00 PM 8.65 47.57 0.37 7.99 5.75 11.25
3/7/2023 6:30:00 PM 8.59 47.462 0.37 7.98 5.65 11.21
3/7/2023 6:45:00 PM 8.53 47.354 0.37 7.98 5.22 11.17
3/7/2023 7:00:00 PM 8.47 47.246 0.37 7.97 5.02 11.14
3/7/2023 7:15:00 PM 8.39 47.102 0.37 7.97 4.72 11.12
3/7/2023 7:30:00 PM 8.31 46.958 0.37 7.96 5.01 11.11
3/7/2023 7:45:00 PM 8.22 46.796 0.37 7.96 4.93 11.1
3/7/2023 8:00:00 PM 8.13 46.634 0.371 7.95 4.96 11.09
3/7/2023 8:15:00 PM 8.06 46.508 0.371 7.95 5.06 11.08
3/7/2023 8:30:00 PM 8 46.4 0.371 7.94 5.18 11.07
3/7/2023 8:45:00 PM 7.93 46.274 0.371 7.94 4.45 11.06
3/7/2023 9:00:00 PM 7.88 46.184 0.371 7.93 4.76 11.06
3/7/2023 9:15:00 PM 7.82 46.076 0.371 7.93 5.23 11.05
3/7/2023 9:30:00 PM 7.77 45.986 0.371 7.93 6.03 11.05
3/7/2023 9:45:00 PM 7.72 45.896 0.372 7.92 5.21 11.05
3/7/2023 10:00:00 PM 7.66 45.788 0.372 7.92 4.98 11.05
3/7/2023 10:15:00 PM 7.6 45.68 0.372 7.91 5.12 11.06
3/7/2023 10:30:00 PM 7.5 45.5 0.372 7.91 5.07 11.07
3/7/2023 10:45:00 PM 7.41 45.338 0.372 7.91 5.02 11.07
3/7/2023 11:00:00 PM 7.31 45.158 0.372 7.9 5.17 11.09
3/7/2023 11:15:00 PM 7.21 44.978 0.373 7.9 6.89 11.1
3/7/2023 11:30:00 PM 7.12 44.816 0.373 7.9 5.62 11.12
3/7/2023 11:45:00 PM 7.06 44.708 0.373 7.9 5.46 11.13
3/8/2023 12:00:00 AM 6.99 44.582 0.374 7.9 5.67 11.14
3/8/2023 12:15:00 AM 6.92 44.456 0.374 7.9 5.36 11.15
3/8/2023 12:30:00 AM 6.85 44.33 0.374 7.89 5.48 11.14
3/8/2023 12:45:00 AM 6.77 44.186 0.374 7.89 5.8 11.17
3/8/2023 1:00:00 AM 6.7 44.06 0.374 7.89 5.46 11.2
3/8/2023 1:15:00 AM 6.63 43.934 0.374 7.89 4.98 11.21
3/8/2023 1:30:00 AM 6.57 43.826 0.374 7.89 5.6 11.23
3/8/2023 1:45:00 AM 6.51 43.718 0.374 7.89 4.96 11.25
3/8/2023 2:00:00 AM 6.45 43.61 0.374 7.89 5.18 11.26
3/8/2023 2:15:00 AM 6.38 43.484 0.374 7.89 5.15 11.28
3/8/2023 2:30:00 AM 6.33 43.394 0.374 7.89 5.24 11.3
3/8/2023 2:45:00 AM 6.27 43.286 0.374 7.89 5.74 11.31
3/8/2023 3:00:00 AM 6.22 43.196 0.374 7.89 5.1 11.33
3/8/2023 3:15:00 AM 6.16 43.088 0.374 7.89 4.78 11.35
3/8/2023 3:30:00 AM 6.09 42.962 0.374 7.88 5.35 11.37
3/8/2023 3:45:00 AM 6.03 42.854 0.374 7.88 4.5 11.39
3/8/2023 4:00:00 AM 5.97 42.746 0.375 7.88 4.46 11.4
3/8/2023 4:15:00 AM 5.9 42.62 0.375 7.88 4.32 11.43
3/8/2023 4:30:00 AM 5.84 42.512 0.375 7.88 4.28 11.45
3/8/2023 4:45:00 AM 5.79 42.422 0.375 7.88 4.55 11.48
3/8/2023 5:00:00 AM 5.73 42.314 0.375 7.88 4.43 11.49
3/8/2023 5:15:00 AM 5.7 42.26 0.375 7.88 4.09 11.51
3/8/2023 5:30:00 AM 5.64 42.152 0.375 7.88 4.21 11.53
3/8/2023 5:45:00 AM 5.59 42.062 0.375 7.88 4.13 11.55
3/8/2023 6:00:00 AM 5.53 41.954 0.375 7.88 6.29 11.57
3/8/2023 6:15:00 AM 5.46 41.828 0.376 7.88 4.15 11.58
3/8/2023 6:30:00 AM 5.4 41.72 0.376 7.88 4.27 11.61
3/8/2023 6:45:00 AM 5.34 41.612 0.376 7.88 4.25 11.64
3/8/2023 7:00:00 AM 5.29 41.522 0.376 7.88 4.66 11.68
3/8/2023 7:15:00 AM 5.24 41.432 0.376 7.88 5.1 11.73
3/8/2023 7:30:00 AM 5.21 41.378 0.376 7.89 5.04 11.77
3/8/2023 7:45:00 AM 5.2 41.36 0.376 7.89 5.74 11.83
3/8/2023 8:00:00 AM 5.18 41.324 0.377 7.89 8.87 11.9
3/8/2023 8:15:00 AM 5.18 41.324 0.377 7.9 4.61 11.96
3/8/2023 8:30:00 AM 5.19 41.342 0.377 7.91 4.28 12.03
3/8/2023 8:45:00 AM 5.21 41.378 0.377 7.91 4.15 12.09
3/8/2023 9:00:00 AM 5.24 41.432 0.376 7.92 3.76 12.16
3/8/2023 9:15:00 AM 5.3 41.54 0.377 7.92 3.94 12.22
3/8/2023 9:30:00 AM 5.37 41.666 0.377 7.93 4.09 12.28
3/8/2023 9:45:00 AM 5.47 41.846 0.377 7.94 3.85 12.33
3/8/2023 10:00:00 AM 5.56 42.008 0.377 7.94 3.62 12.37
3/8/2023 10:15:00 AM 5.68 42.224 0.377 7.95 3.52 12.42
3/8/2023 10:30:00 AM 5.78 42.404 0.377 7.95 3.67 12.46
3/8/2023 10:45:00 AM 5.89 42.602 0.377 7.96 3.42 12.48
3/8/2023 11:00:00 AM 6 42.8 0.377 7.96 3.45 12.5
3/8/2023 11:15:00 AM 6.14 43.052 0.377 7.97 3.53 12.53
3/8/2023 11:30:00 AM 6.29 43.322 0.377 7.98 3.47 12.55
3/8/2023 11:45:00 AM 6.45 43.61 0.377 7.98 3.73 12.57
3/8/2023 12:00:00 PM 6.62 43.916 0.377 7.99 3.7 12.59
3/8/2023 12:15:00 PM 6.78 44.204 0.376 7.99 3.83 12.6
3/8/2023 12:30:00 PM 6.93 44.474 0.376 8 4.43 12.62
3/8/2023 12:45:00 PM 7.09 44.762 0.376 8.01 4.49 12.63
3/8/2023 1:00:00 PM 7.23 45.014 0.376 8.01 4.57 12.62
3/8/2023 1:15:00 PM 7.35 45.23 0.376 8.02 4.2 12.62
3/8/2023 1:30:00 PM 7.46 45.428 0.376 8.02 3.83 12.61
3/8/2023 1:45:00 PM 7.54 45.572 0.376 8.03 3.93 12.6
3/8/2023 2:00:00 PM 7.61 45.698 0.376 8.03 3.66 12.58
3/8/2023 2:15:00 PM 7.67 45.806 0.376 8.03 3.66 12.56
3/8/2023 2:30:00 PM 7.74 45.932 0.376 8.04 3.85 12.54
3/8/2023 2:45:00 PM 7.79 46.022 0.376 8.04 3.68 12.51
3/8/2023 3:00:00 PM 7.83 46.094 0.376 8.04 3.78 12.48
3/8/2023 3:15:00 PM 7.84 46.112 0.376 8.04 3.73 12.44
3/8/2023 3:30:00 PM 7.85 46.13 0.376 8.04 4.04 12.4
3/8/2023 3:45:00 PM 7.86 46.148 0.376 8.04 3.89 12.36
3/8/2023 4:00:00 PM 7.85 46.13 0.376 8.04 3.87 12.31
3/8/2023 4:15:00 PM 7.83 46.094 0.376 8.04 3.89 12.25
3/8/2023 4:30:00 PM 7.82 46.076 0.376 8.04 3.55 12.19
3/8/2023 4:45:00 PM 7.8 46.04 0.376 8.03 3.41 12.13
3/8/2023 5:00:00 PM 7.79 46.022 0.376 8.03 3.54 12.07
3/8/2023 5:15:00 PM 7.78 46.004 0.376 8.02 3.65 11.99
3/8/2023 5:30:00 PM 7.77 45.986 0.376 8.02 4.32 11.93
3/8/2023 5:45:00 PM 7.75 45.95 0.376 8.01 4.36 11.87
3/8/2023 6:00:00 PM 7.73 45.914 0.376 8 5.15 11.8
3/8/2023 6:15:00 PM 7.71 45.878 0.376 8 4.22 11.74
3/8/2023 6:30:00 PM 7.69 45.842 0.376 7.99 3.53 11.68
3/8/2023 6:45:00 PM 7.67 45.806 0.377 7.98 3.86 11.63
3/8/2023 7:00:00 PM 7.65 45.77 0.377 7.98 3.57 11.59
3/8/2023 7:15:00 PM 7.62 45.716 0.377 7.97 4.14 11.55
3/8/2023 7:30:00 PM 7.59 45.662 0.377 7.97 5.07 11.52

These are provisional data and have not been subject to a quality assurance process, but rather are the raw data reported by the instrument.
H: value is above sensor operating range
L: value is below sensor operating range
Offline: station is not reporting data
NC: parameter is not collected at site

Data Availability & Limitations

Uncertainty and potential for error can be associated with environmental monitoring data. Provisional data have not been subject to a quality assurance process, but rather are the raw data reported by the instrument. Data users are cautioned to consider carefully the provisional nature of the information before using it for decisions that concern personal or public safety or the conduct of business that involves substantial monetary or operational consequences.

Approved data are currently available by request by emailing: [email protected]. Approved data have been subject to a quality assurance process to correct for equipment or fouling drift. Data recorded during equipment malfunctions have been removed.

View Historical Stations that have been discontinued.